<?xml version="1.0" encoding="UTF-8" standalone="no" ?>
<gpx xmlns="http://www.topografix.com/GPX/1/1" xmlns:xsi="http://www.w3.org/2001/XMLSchema-instance" xsi:schemaLocation="http://www.topografix.com/GPX/1/1 http://www.topografix.com/GPX/1/1/gpx.xsd" version="1.1" creator="VisuGPX - https://www.visugpx.com">
  <metadata>
    <name>Pic de l'Etendard</name>
    <desc><![CDATA[Pic de l'Etendard depuis les pistes de St Sorlin d'Arve]]></desc>
  </metadata>
  <trk>
    <name><![CDATA[2019-04-05-01]]></name>
    <trkseg>
      <trkpt lat="45.2027" lon="6.17601">
        <ele>2447.5</ele>
        <time>2019-04-05T07:49:56Z</time>
      </trkpt>
      <trkpt lat="45.2027" lon="6.17601">
        <ele>2447.5</ele>
        <time>2019-04-05T07:49:57Z</time>
      </trkpt>
      <trkpt lat="45.20261" lon="6.17598">
        <ele>2447.5</ele>
        <time>2019-04-05T07:51:47Z</time>
      </trkpt>
      <trkpt lat="45.20251" lon="6.17593">
        <ele>2449.5</ele>
        <time>2019-04-05T07:51:53Z</time>
      </trkpt>
      <trkpt lat="45.20243" lon="6.17592">
        <ele>2452.5</ele>
        <time>2019-04-05T07:52:02Z</time>
      </trkpt>
      <trkpt lat="45.20233" lon="6.17591">
        <ele>2452.5</ele>
        <time>2019-04-05T07:52:12Z</time>
      </trkpt>
      <trkpt lat="45.20223" lon="6.17592">
        <ele>2445.5</ele>
        <time>2019-04-05T07:52:30Z</time>
      </trkpt>
      <trkpt lat="45.20212" lon="6.17593">
        <ele>2443.5</ele>
        <time>2019-04-05T07:52:36Z</time>
      </trkpt>
      <trkpt lat="45.20204" lon="6.17587">
        <ele>2461.5</ele>
        <time>2019-04-05T07:52:48Z</time>
      </trkpt>
      <trkpt lat="45.20198" lon="6.17577">
        <ele>2440.5</ele>
        <time>2019-04-05T07:53:06Z</time>
      </trkpt>
      <trkpt lat="45.20189" lon="6.17572">
        <ele>2432.5</ele>
        <time>2019-04-05T07:53:16Z</time>
      </trkpt>
      <trkpt lat="45.20179" lon="6.17567">
        <ele>2430.5</ele>
        <time>2019-04-05T07:53:21Z</time>
      </trkpt>
      <trkpt lat="45.20167" lon="6.17564">
        <ele>2423.5</ele>
        <time>2019-04-05T07:53:33Z</time>
      </trkpt>
      <trkpt lat="45.20158" lon="6.17564">
        <ele>2416.5</ele>
        <time>2019-04-05T07:53:49Z</time>
      </trkpt>
      <trkpt lat="45.20149" lon="6.17558">
        <ele>2417.5</ele>
        <time>2019-04-05T07:53:58Z</time>
      </trkpt>
      <trkpt lat="45.2014" lon="6.17553">
        <ele>2422.5</ele>
        <time>2019-04-05T07:54:04Z</time>
      </trkpt>
      <trkpt lat="45.2013" lon="6.17558">
        <ele>2416.5</ele>
        <time>2019-04-05T07:54:10Z</time>
      </trkpt>
      <trkpt lat="45.20118" lon="6.17556">
        <ele>2413.5</ele>
        <time>2019-04-05T07:54:14Z</time>
      </trkpt>
      <trkpt lat="45.20109" lon="6.17555">
        <ele>2416.5</ele>
        <time>2019-04-05T07:54:24Z</time>
      </trkpt>
      <trkpt lat="45.20102" lon="6.17547">
        <ele>2425.5</ele>
        <time>2019-04-05T07:54:32Z</time>
      </trkpt>
      <trkpt lat="45.20093" lon="6.17545">
        <ele>2429.5</ele>
        <time>2019-04-05T07:54:47Z</time>
      </trkpt>
      <trkpt lat="45.20083" lon="6.17548">
        <ele>2419.5</ele>
        <time>2019-04-05T07:54:58Z</time>
      </trkpt>
      <trkpt lat="45.20075" lon="6.17543">
        <ele>2423.5</ele>
        <time>2019-04-05T07:55:06Z</time>
      </trkpt>
      <trkpt lat="45.20068" lon="6.17533">
        <ele>2430.5</ele>
        <time>2019-04-05T07:55:14Z</time>
      </trkpt>
      <trkpt lat="45.20061" lon="6.17525">
        <ele>2435.5</ele>
        <time>2019-04-05T07:55:25Z</time>
      </trkpt>
      <trkpt lat="45.20052" lon="6.1752">
        <ele>2434.5</ele>
        <time>2019-04-05T07:55:35Z</time>
      </trkpt>
      <trkpt lat="45.20042" lon="6.17518">
        <ele>2428.5</ele>
        <time>2019-04-05T07:55:58Z</time>
      </trkpt>
      <trkpt lat="45.20033" lon="6.17515">
        <ele>2428.5</ele>
        <time>2019-04-05T07:56:13Z</time>
      </trkpt>
      <trkpt lat="45.20025" lon="6.17508">
        <ele>2432.5</ele>
        <time>2019-04-05T07:56:25Z</time>
      </trkpt>
      <trkpt lat="45.20017" lon="6.17499">
        <ele>2437.5</ele>
        <time>2019-04-05T07:56:39Z</time>
      </trkpt>
      <trkpt lat="45.20009" lon="6.17494">
        <ele>2436.5</ele>
        <time>2019-04-05T07:56:48Z</time>
      </trkpt>
      <trkpt lat="45.2" lon="6.17487">
        <ele>2438.5</ele>
        <time>2019-04-05T07:57:07Z</time>
      </trkpt>
      <trkpt lat="45.1999" lon="6.17484">
        <ele>2434.5</ele>
        <time>2019-04-05T07:57:25Z</time>
      </trkpt>
      <trkpt lat="45.19981" lon="6.1748">
        <ele>2432.5</ele>
        <time>2019-04-05T07:57:36Z</time>
      </trkpt>
      <trkpt lat="45.19971" lon="6.17474">
        <ele>2433.5</ele>
        <time>2019-04-05T07:57:56Z</time>
      </trkpt>
      <trkpt lat="45.19963" lon="6.17467">
        <ele>2437.5</ele>
        <time>2019-04-05T07:58:11Z</time>
      </trkpt>
      <trkpt lat="45.19954" lon="6.17462">
        <ele>2435.5</ele>
        <time>2019-04-05T07:58:24Z</time>
      </trkpt>
      <trkpt lat="45.19945" lon="6.17456">
        <ele>2436.5</ele>
        <time>2019-04-05T07:58:36Z</time>
      </trkpt>
      <trkpt lat="45.19936" lon="6.17452">
        <ele>2434.5</ele>
        <time>2019-04-05T07:58:49Z</time>
      </trkpt>
      <trkpt lat="45.19927" lon="6.17452">
        <ele>2433.5</ele>
        <time>2019-04-05T07:59:05Z</time>
      </trkpt>
      <trkpt lat="45.19918" lon="6.17447">
        <ele>2435.5</ele>
        <time>2019-04-05T07:59:20Z</time>
      </trkpt>
      <trkpt lat="45.19909" lon="6.17444">
        <ele>2441.5</ele>
        <time>2019-04-05T07:59:30Z</time>
      </trkpt>
      <trkpt lat="45.199" lon="6.17441">
        <ele>2444.5</ele>
        <time>2019-04-05T07:59:47Z</time>
      </trkpt>
      <trkpt lat="45.1989" lon="6.17437">
        <ele>2442.5</ele>
        <time>2019-04-05T07:59:59Z</time>
      </trkpt>
      <trkpt lat="45.19881" lon="6.17433">
        <ele>2444.5</ele>
        <time>2019-04-05T08:00:11Z</time>
      </trkpt>
      <trkpt lat="45.19873" lon="6.17429">
        <ele>2450.5</ele>
        <time>2019-04-05T08:00:23Z</time>
      </trkpt>
      <trkpt lat="45.19865" lon="6.17422">
        <ele>2447.5</ele>
        <time>2019-04-05T08:00:36Z</time>
      </trkpt>
      <trkpt lat="45.19855" lon="6.17422">
        <ele>2444.5</ele>
        <time>2019-04-05T08:00:51Z</time>
      </trkpt>
      <trkpt lat="45.19846" lon="6.17417">
        <ele>2441.5</ele>
        <time>2019-04-05T08:01:04Z</time>
      </trkpt>
      <trkpt lat="45.19836" lon="6.17418">
        <ele>2438.5</ele>
        <time>2019-04-05T08:01:19Z</time>
      </trkpt>
      <trkpt lat="45.19828" lon="6.17413">
        <ele>2432.5</ele>
        <time>2019-04-05T08:01:34Z</time>
      </trkpt>
      <trkpt lat="45.19819" lon="6.17409">
        <ele>2436.5</ele>
        <time>2019-04-05T08:01:47Z</time>
      </trkpt>
      <trkpt lat="45.19809" lon="6.17407">
        <ele>2437.5</ele>
        <time>2019-04-05T08:02:01Z</time>
      </trkpt>
      <trkpt lat="45.198" lon="6.17403">
        <ele>2439.5</ele>
        <time>2019-04-05T08:02:33Z</time>
      </trkpt>
      <trkpt lat="45.19791" lon="6.17403">
        <ele>2436.5</ele>
        <time>2019-04-05T08:02:49Z</time>
      </trkpt>
      <trkpt lat="45.19782" lon="6.17403">
        <ele>2429.5</ele>
        <time>2019-04-05T08:03:02Z</time>
      </trkpt>
      <trkpt lat="45.19772" lon="6.17403">
        <ele>2433.5</ele>
        <time>2019-04-05T08:03:19Z</time>
      </trkpt>
      <trkpt lat="45.19762" lon="6.17403">
        <ele>2427.5</ele>
        <time>2019-04-05T08:03:34Z</time>
      </trkpt>
      <trkpt lat="45.19753" lon="6.17403">
        <ele>2427.5</ele>
        <time>2019-04-05T08:03:46Z</time>
      </trkpt>
      <trkpt lat="45.19743" lon="6.17404">
        <ele>2430.5</ele>
        <time>2019-04-05T08:03:58Z</time>
      </trkpt>
      <trkpt lat="45.19734" lon="6.17406">
        <ele>2447.5</ele>
        <time>2019-04-05T08:04:24Z</time>
      </trkpt>
      <trkpt lat="45.19725" lon="6.17412">
        <ele>2459.5</ele>
        <time>2019-04-05T08:04:45Z</time>
      </trkpt>
      <trkpt lat="45.19716" lon="6.1742">
        <ele>2459.5</ele>
        <time>2019-04-05T08:04:55Z</time>
      </trkpt>
      <trkpt lat="45.19707" lon="6.17422">
        <ele>2463.5</ele>
        <time>2019-04-05T08:05:12Z</time>
      </trkpt>
      <trkpt lat="45.197" lon="6.17431">
        <ele>2467.5</ele>
        <time>2019-04-05T08:05:29Z</time>
      </trkpt>
      <trkpt lat="45.19691" lon="6.17432">
        <ele>2469.5</ele>
        <time>2019-04-05T08:05:57Z</time>
      </trkpt>
      <trkpt lat="45.19683" lon="6.17437">
        <ele>2471.5</ele>
        <time>2019-04-05T08:06:12Z</time>
      </trkpt>
      <trkpt lat="45.19675" lon="6.17443">
        <ele>2469.5</ele>
        <time>2019-04-05T08:06:26Z</time>
      </trkpt>
      <trkpt lat="45.19665" lon="6.17444">
        <ele>2476.5</ele>
        <time>2019-04-05T08:07:05Z</time>
      </trkpt>
      <trkpt lat="45.19655" lon="6.17447">
        <ele>2473.5</ele>
        <time>2019-04-05T08:07:27Z</time>
      </trkpt>
      <trkpt lat="45.19646" lon="6.17446">
        <ele>2471.5</ele>
        <time>2019-04-05T08:07:51Z</time>
      </trkpt>
      <trkpt lat="45.19636" lon="6.17446">
        <ele>2467.5</ele>
        <time>2019-04-05T08:08:12Z</time>
      </trkpt>
      <trkpt lat="45.19627" lon="6.17444">
        <ele>2472.5</ele>
        <time>2019-04-05T08:08:24Z</time>
      </trkpt>
      <trkpt lat="45.19617" lon="6.17443">
        <ele>2476.5</ele>
        <time>2019-04-05T08:08:40Z</time>
      </trkpt>
      <trkpt lat="45.19607" lon="6.17444">
        <ele>2477.5</ele>
        <time>2019-04-05T08:09:00Z</time>
      </trkpt>
      <trkpt lat="45.19598" lon="6.17444">
        <ele>2481.5</ele>
        <time>2019-04-05T08:09:10Z</time>
      </trkpt>
      <trkpt lat="45.19591" lon="6.17436">
        <ele>2485.5</ele>
        <time>2019-04-05T08:09:26Z</time>
      </trkpt>
      <trkpt lat="45.19581" lon="6.17434">
        <ele>2486.5</ele>
        <time>2019-04-05T08:09:50Z</time>
      </trkpt>
      <trkpt lat="45.19572" lon="6.17433">
        <ele>2481.5</ele>
        <time>2019-04-05T08:10:01Z</time>
      </trkpt>
      <trkpt lat="45.19561" lon="6.17428">
        <ele>2481.5</ele>
        <time>2019-04-05T08:10:13Z</time>
      </trkpt>
      <trkpt lat="45.19553" lon="6.17422">
        <ele>2477.5</ele>
        <time>2019-04-05T08:10:29Z</time>
      </trkpt>
      <trkpt lat="45.19543" lon="6.17418">
        <ele>2476.5</ele>
        <time>2019-04-05T08:10:47Z</time>
      </trkpt>
      <trkpt lat="45.19534" lon="6.17422">
        <ele>2476.5</ele>
        <time>2019-04-05T08:11:21Z</time>
      </trkpt>
      <trkpt lat="45.19525" lon="6.17422">
        <ele>2476.5</ele>
        <time>2019-04-05T08:11:31Z</time>
      </trkpt>
      <trkpt lat="45.19515" lon="6.17426">
        <ele>2472.5</ele>
        <time>2019-04-05T08:11:48Z</time>
      </trkpt>
      <trkpt lat="45.19506" lon="6.17432">
        <ele>2474.5</ele>
        <time>2019-04-05T08:12:06Z</time>
      </trkpt>
      <trkpt lat="45.19495" lon="6.17434">
        <ele>2475.5</ele>
        <time>2019-04-05T08:12:29Z</time>
      </trkpt>
      <trkpt lat="45.19486" lon="6.17435">
        <ele>2477.5</ele>
        <time>2019-04-05T08:12:56Z</time>
      </trkpt>
      <trkpt lat="45.19477" lon="6.17437">
        <ele>2468.5</ele>
        <time>2019-04-05T08:13:15Z</time>
      </trkpt>
      <trkpt lat="45.19467" lon="6.17438">
        <ele>2467.5</ele>
        <time>2019-04-05T08:13:26Z</time>
      </trkpt>
      <trkpt lat="45.19459" lon="6.17431">
        <ele>2467.5</ele>
        <time>2019-04-05T08:13:38Z</time>
      </trkpt>
      <trkpt lat="45.19451" lon="6.17427">
        <ele>2469.5</ele>
        <time>2019-04-05T08:13:48Z</time>
      </trkpt>
      <trkpt lat="45.19442" lon="6.1742">
        <ele>2475.5</ele>
        <time>2019-04-05T08:13:59Z</time>
      </trkpt>
      <trkpt lat="45.19435" lon="6.17412">
        <ele>2476.5</ele>
        <time>2019-04-05T08:14:08Z</time>
      </trkpt>
      <trkpt lat="45.19429" lon="6.17401">
        <ele>2477.5</ele>
        <time>2019-04-05T08:14:17Z</time>
      </trkpt>
      <trkpt lat="45.19422" lon="6.17393">
        <ele>2475.5</ele>
        <time>2019-04-05T08:14:26Z</time>
      </trkpt>
      <trkpt lat="45.19413" lon="6.17387">
        <ele>2477.5</ele>
        <time>2019-04-05T08:14:34Z</time>
      </trkpt>
      <trkpt lat="45.19399" lon="6.17389">
        <ele>2480.5</ele>
        <time>2019-04-05T08:15:00Z</time>
      </trkpt>
      <trkpt lat="45.19409" lon="6.17386">
        <ele>2474.5</ele>
        <time>2019-04-05T08:15:03Z</time>
      </trkpt>
      <trkpt lat="45.19408" lon="6.17403">
        <ele>2469.5</ele>
        <time>2019-04-05T08:15:07Z</time>
      </trkpt>
      <trkpt lat="45.19401" lon="6.17392">
        <ele>2470.5</ele>
        <time>2019-04-05T08:15:13Z</time>
      </trkpt>
      <trkpt lat="45.19393" lon="6.17386">
        <ele>2467.5</ele>
        <time>2019-04-05T08:15:24Z</time>
      </trkpt>
      <trkpt lat="45.19384" lon="6.17381">
        <ele>2463.5</ele>
        <time>2019-04-05T08:15:42Z</time>
      </trkpt>
      <trkpt lat="45.19374" lon="6.17376">
        <ele>2464.5</ele>
        <time>2019-04-05T08:15:49Z</time>
      </trkpt>
      <trkpt lat="45.19365" lon="6.17371">
        <ele>2465.5</ele>
        <time>2019-04-05T08:15:56Z</time>
      </trkpt>
      <trkpt lat="45.19356" lon="6.17372">
        <ele>2464.5</ele>
        <time>2019-04-05T08:16:07Z</time>
      </trkpt>
      <trkpt lat="45.19348" lon="6.17368">
        <ele>2461.5</ele>
        <time>2019-04-05T08:16:16Z</time>
      </trkpt>
      <trkpt lat="45.19339" lon="6.17363">
        <ele>2458.5</ele>
        <time>2019-04-05T08:16:31Z</time>
      </trkpt>
      <trkpt lat="45.1933" lon="6.17359">
        <ele>2458.5</ele>
        <time>2019-04-05T08:16:43Z</time>
      </trkpt>
      <trkpt lat="45.19321" lon="6.17355">
        <ele>2453.5</ele>
        <time>2019-04-05T08:16:54Z</time>
      </trkpt>
      <trkpt lat="45.19312" lon="6.17355">
        <ele>2452.5</ele>
        <time>2019-04-05T08:17:06Z</time>
      </trkpt>
      <trkpt lat="45.19303" lon="6.17354">
        <ele>2453.5</ele>
        <time>2019-04-05T08:17:17Z</time>
      </trkpt>
      <trkpt lat="45.19294" lon="6.17352">
        <ele>2455.5</ele>
        <time>2019-04-05T08:17:31Z</time>
      </trkpt>
      <trkpt lat="45.19284" lon="6.17354">
        <ele>2464.5</ele>
        <time>2019-04-05T08:17:42Z</time>
      </trkpt>
      <trkpt lat="45.19275" lon="6.1735">
        <ele>2465.5</ele>
        <time>2019-04-05T08:17:51Z</time>
      </trkpt>
      <trkpt lat="45.19265" lon="6.17349">
        <ele>2472.5</ele>
        <time>2019-04-05T08:18:01Z</time>
      </trkpt>
      <trkpt lat="45.19256" lon="6.17345">
        <ele>2474.5</ele>
        <time>2019-04-05T08:18:13Z</time>
      </trkpt>
      <trkpt lat="45.19245" lon="6.17345">
        <ele>2478.5</ele>
        <time>2019-04-05T08:18:27Z</time>
      </trkpt>
      <trkpt lat="45.19235" lon="6.17341">
        <ele>2476.5</ele>
        <time>2019-04-05T08:18:43Z</time>
      </trkpt>
      <trkpt lat="45.19226" lon="6.17341">
        <ele>2475.5</ele>
        <time>2019-04-05T08:18:55Z</time>
      </trkpt>
      <trkpt lat="45.19216" lon="6.17339">
        <ele>2477.5</ele>
        <time>2019-04-05T08:19:07Z</time>
      </trkpt>
      <trkpt lat="45.19207" lon="6.17336">
        <ele>2474.5</ele>
        <time>2019-04-05T08:19:19Z</time>
      </trkpt>
      <trkpt lat="45.19198" lon="6.17331">
        <ele>2470.5</ele>
        <time>2019-04-05T08:19:40Z</time>
      </trkpt>
      <trkpt lat="45.19188" lon="6.17335">
        <ele>2475.5</ele>
        <time>2019-04-05T08:19:46Z</time>
      </trkpt>
      <trkpt lat="45.19179" lon="6.17335">
        <ele>2472.5</ele>
        <time>2019-04-05T08:19:55Z</time>
      </trkpt>
      <trkpt lat="45.19168" lon="6.17338">
        <ele>2474.5</ele>
        <time>2019-04-05T08:20:09Z</time>
      </trkpt>
      <trkpt lat="45.19159" lon="6.17339">
        <ele>2476.5</ele>
        <time>2019-04-05T08:20:25Z</time>
      </trkpt>
      <trkpt lat="45.19149" lon="6.17337">
        <ele>2474.5</ele>
        <time>2019-04-05T08:20:49Z</time>
      </trkpt>
      <trkpt lat="45.1914" lon="6.17341">
        <ele>2475.5</ele>
        <time>2019-04-05T08:21:02Z</time>
      </trkpt>
      <trkpt lat="45.19132" lon="6.17349">
        <ele>2480.5</ele>
        <time>2019-04-05T08:21:11Z</time>
      </trkpt>
      <trkpt lat="45.19125" lon="6.17357">
        <ele>2481.5</ele>
        <time>2019-04-05T08:21:22Z</time>
      </trkpt>
      <trkpt lat="45.19118" lon="6.17366">
        <ele>2483.5</ele>
        <time>2019-04-05T08:21:37Z</time>
      </trkpt>
      <trkpt lat="45.19111" lon="6.17375">
        <ele>2482.5</ele>
        <time>2019-04-05T08:21:48Z</time>
      </trkpt>
      <trkpt lat="45.19104" lon="6.17384">
        <ele>2476.5</ele>
        <time>2019-04-05T08:22:01Z</time>
      </trkpt>
      <trkpt lat="45.19095" lon="6.17391">
        <ele>2477.5</ele>
        <time>2019-04-05T08:22:15Z</time>
      </trkpt>
      <trkpt lat="45.19086" lon="6.17394">
        <ele>2477.5</ele>
        <time>2019-04-05T08:22:47Z</time>
      </trkpt>
      <trkpt lat="45.19077" lon="6.17399">
        <ele>2476.5</ele>
        <time>2019-04-05T08:23:14Z</time>
      </trkpt>
      <trkpt lat="45.1907" lon="6.17407">
        <ele>2475.5</ele>
        <time>2019-04-05T08:23:25Z</time>
      </trkpt>
      <trkpt lat="45.1906" lon="6.17407">
        <ele>2474.5</ele>
        <time>2019-04-05T08:23:52Z</time>
      </trkpt>
      <trkpt lat="45.19052" lon="6.17412">
        <ele>2474.5</ele>
        <time>2019-04-05T08:24:04Z</time>
      </trkpt>
      <trkpt lat="45.19043" lon="6.17411">
        <ele>2479.5</ele>
        <time>2019-04-05T08:24:31Z</time>
      </trkpt>
      <trkpt lat="45.19034" lon="6.17416">
        <ele>2476.5</ele>
        <time>2019-04-05T08:24:50Z</time>
      </trkpt>
      <trkpt lat="45.19026" lon="6.1742">
        <ele>2477.5</ele>
        <time>2019-04-05T08:25:10Z</time>
      </trkpt>
      <trkpt lat="45.19016" lon="6.17423">
        <ele>2481.5</ele>
        <time>2019-04-05T08:25:41Z</time>
      </trkpt>
      <trkpt lat="45.19007" lon="6.17424">
        <ele>2483.5</ele>
        <time>2019-04-05T08:25:52Z</time>
      </trkpt>
      <trkpt lat="45.18997" lon="6.17428">
        <ele>2488.5</ele>
        <time>2019-04-05T08:26:23Z</time>
      </trkpt>
      <trkpt lat="45.18991" lon="6.17437">
        <ele>2491.5</ele>
        <time>2019-04-05T08:26:54Z</time>
      </trkpt>
      <trkpt lat="45.18984" lon="6.17449">
        <ele>2492.5</ele>
        <time>2019-04-05T08:27:39Z</time>
      </trkpt>
      <trkpt lat="45.18981" lon="6.17461">
        <ele>2493.5</ele>
        <time>2019-04-05T08:27:58Z</time>
      </trkpt>
      <trkpt lat="45.18981" lon="6.17474">
        <ele>2495.5</ele>
        <time>2019-04-05T08:28:50Z</time>
      </trkpt>
      <trkpt lat="45.18972" lon="6.17474">
        <ele>2483.5</ele>
        <time>2019-04-05T08:29:34Z</time>
      </trkpt>
      <trkpt lat="45.18964" lon="6.17466">
        <ele>2476.5</ele>
        <time>2019-04-05T08:30:14Z</time>
      </trkpt>
      <trkpt lat="45.18956" lon="6.17459">
        <ele>2478.5</ele>
        <time>2019-04-05T08:30:24Z</time>
      </trkpt>
      <trkpt lat="45.18947" lon="6.17452">
        <ele>2478.5</ele>
        <time>2019-04-05T08:30:51Z</time>
      </trkpt>
      <trkpt lat="45.18939" lon="6.17447">
        <ele>2476.5</ele>
        <time>2019-04-05T08:31:24Z</time>
      </trkpt>
      <trkpt lat="45.1893" lon="6.1744">
        <ele>2485.5</ele>
        <time>2019-04-05T08:31:38Z</time>
      </trkpt>
      <trkpt lat="45.18918" lon="6.17436">
        <ele>2486.5</ele>
        <time>2019-04-05T08:32:08Z</time>
      </trkpt>
      <trkpt lat="45.18909" lon="6.17435">
        <ele>2496.5</ele>
        <time>2019-04-05T08:32:12Z</time>
      </trkpt>
      <trkpt lat="45.18901" lon="6.17429">
        <ele>2494.5</ele>
        <time>2019-04-05T08:32:30Z</time>
      </trkpt>
      <trkpt lat="45.18894" lon="6.1742">
        <ele>2495.5</ele>
        <time>2019-04-05T08:32:41Z</time>
      </trkpt>
      <trkpt lat="45.18888" lon="6.1741">
        <ele>2503.5</ele>
        <time>2019-04-05T08:32:58Z</time>
      </trkpt>
      <trkpt lat="45.18879" lon="6.17415">
        <ele>2508.5</ele>
        <time>2019-04-05T08:36:13Z</time>
      </trkpt>
      <trkpt lat="45.18879" lon="6.17401">
        <ele>2511.5</ele>
        <time>2019-04-05T08:37:05Z</time>
      </trkpt>
      <trkpt lat="45.18874" lon="6.1739">
        <ele>2511.5</ele>
        <time>2019-04-05T08:37:13Z</time>
      </trkpt>
      <trkpt lat="45.18868" lon="6.1738">
        <ele>2502.5</ele>
        <time>2019-04-05T08:37:21Z</time>
      </trkpt>
      <trkpt lat="45.18861" lon="6.17371">
        <ele>2495.5</ele>
        <time>2019-04-05T08:37:29Z</time>
      </trkpt>
      <trkpt lat="45.18856" lon="6.1736">
        <ele>2501.5</ele>
        <time>2019-04-05T08:37:39Z</time>
      </trkpt>
      <trkpt lat="45.18847" lon="6.17354">
        <ele>2505.5</ele>
        <time>2019-04-05T08:37:47Z</time>
      </trkpt>
      <trkpt lat="45.18836" lon="6.17346">
        <ele>2500.5</ele>
        <time>2019-04-05T08:37:58Z</time>
      </trkpt>
      <trkpt lat="45.18826" lon="6.17339">
        <ele>2504.5</ele>
        <time>2019-04-05T08:38:08Z</time>
      </trkpt>
      <trkpt lat="45.18816" lon="6.17338">
        <ele>2508.5</ele>
        <time>2019-04-05T08:38:22Z</time>
      </trkpt>
      <trkpt lat="45.18808" lon="6.17329">
        <ele>2510.5</ele>
        <time>2019-04-05T08:38:32Z</time>
      </trkpt>
      <trkpt lat="45.18799" lon="6.17324">
        <ele>2512.5</ele>
        <time>2019-04-05T08:38:40Z</time>
      </trkpt>
      <trkpt lat="45.18791" lon="6.17317">
        <ele>2507.5</ele>
        <time>2019-04-05T08:38:53Z</time>
      </trkpt>
      <trkpt lat="45.18782" lon="6.17312">
        <ele>2506.5</ele>
        <time>2019-04-05T08:39:05Z</time>
      </trkpt>
      <trkpt lat="45.18773" lon="6.17306">
        <ele>2506.5</ele>
        <time>2019-04-05T08:39:19Z</time>
      </trkpt>
      <trkpt lat="45.18764" lon="6.17302">
        <ele>2505.5</ele>
        <time>2019-04-05T08:39:30Z</time>
      </trkpt>
      <trkpt lat="45.18756" lon="6.17298">
        <ele>2505.5</ele>
        <time>2019-04-05T08:39:41Z</time>
      </trkpt>
      <trkpt lat="45.18746" lon="6.17297">
        <ele>2502.5</ele>
        <time>2019-04-05T08:39:53Z</time>
      </trkpt>
      <trkpt lat="45.18735" lon="6.17296">
        <ele>2501.5</ele>
        <time>2019-04-05T08:40:03Z</time>
      </trkpt>
      <trkpt lat="45.18725" lon="6.17296">
        <ele>2502.5</ele>
        <time>2019-04-05T08:40:12Z</time>
      </trkpt>
      <trkpt lat="45.18716" lon="6.17298">
        <ele>2503.5</ele>
        <time>2019-04-05T08:40:20Z</time>
      </trkpt>
      <trkpt lat="45.18706" lon="6.17301">
        <ele>2503.5</ele>
        <time>2019-04-05T08:40:29Z</time>
      </trkpt>
      <trkpt lat="45.18697" lon="6.17303">
        <ele>2503.5</ele>
        <time>2019-04-05T08:40:40Z</time>
      </trkpt>
      <trkpt lat="45.18687" lon="6.17305">
        <ele>2504.5</ele>
        <time>2019-04-05T08:40:49Z</time>
      </trkpt>
      <trkpt lat="45.18678" lon="6.17304">
        <ele>2505.5</ele>
        <time>2019-04-05T08:41:00Z</time>
      </trkpt>
      <trkpt lat="45.18669" lon="6.17302">
        <ele>2503.5</ele>
        <time>2019-04-05T08:41:12Z</time>
      </trkpt>
      <trkpt lat="45.1866" lon="6.17301">
        <ele>2504.5</ele>
        <time>2019-04-05T08:41:24Z</time>
      </trkpt>
      <trkpt lat="45.1865" lon="6.17298">
        <ele>2501.5</ele>
        <time>2019-04-05T08:41:38Z</time>
      </trkpt>
      <trkpt lat="45.18641" lon="6.17294">
        <ele>2498.5</ele>
        <time>2019-04-05T08:41:51Z</time>
      </trkpt>
      <trkpt lat="45.18632" lon="6.17289">
        <ele>2498.5</ele>
        <time>2019-04-05T08:42:01Z</time>
      </trkpt>
      <trkpt lat="45.18623" lon="6.17288">
        <ele>2502.5</ele>
        <time>2019-04-05T08:42:13Z</time>
      </trkpt>
      <trkpt lat="45.18614" lon="6.17283">
        <ele>2499.5</ele>
        <time>2019-04-05T08:42:24Z</time>
      </trkpt>
      <trkpt lat="45.18605" lon="6.17281">
        <ele>2498.5</ele>
        <time>2019-04-05T08:42:37Z</time>
      </trkpt>
      <trkpt lat="45.18596" lon="6.17279">
        <ele>2496.5</ele>
        <time>2019-04-05T08:42:50Z</time>
      </trkpt>
      <trkpt lat="45.18586" lon="6.17277">
        <ele>2499.5</ele>
        <time>2019-04-05T08:43:04Z</time>
      </trkpt>
      <trkpt lat="45.18577" lon="6.17271">
        <ele>2499.5</ele>
        <time>2019-04-05T08:43:17Z</time>
      </trkpt>
      <trkpt lat="45.18568" lon="6.17267">
        <ele>2497.5</ele>
        <time>2019-04-05T08:43:31Z</time>
      </trkpt>
      <trkpt lat="45.18558" lon="6.17265">
        <ele>2500.5</ele>
        <time>2019-04-05T08:43:43Z</time>
      </trkpt>
      <trkpt lat="45.18549" lon="6.1726">
        <ele>2496.5</ele>
        <time>2019-04-05T08:43:54Z</time>
      </trkpt>
      <trkpt lat="45.18541" lon="6.17254">
        <ele>2495.5</ele>
        <time>2019-04-05T08:44:06Z</time>
      </trkpt>
      <trkpt lat="45.18532" lon="6.17253">
        <ele>2497.5</ele>
        <time>2019-04-05T08:44:21Z</time>
      </trkpt>
      <trkpt lat="45.18524" lon="6.17248">
        <ele>2495.5</ele>
        <time>2019-04-05T08:44:35Z</time>
      </trkpt>
      <trkpt lat="45.18518" lon="6.17236">
        <ele>2494.5</ele>
        <time>2019-04-05T08:44:49Z</time>
      </trkpt>
      <trkpt lat="45.18509" lon="6.17236">
        <ele>2491.5</ele>
        <time>2019-04-05T08:45:00Z</time>
      </trkpt>
      <trkpt lat="45.185" lon="6.17234">
        <ele>2492.5</ele>
        <time>2019-04-05T08:45:13Z</time>
      </trkpt>
      <trkpt lat="45.1849" lon="6.17232">
        <ele>2497.5</ele>
        <time>2019-04-05T08:45:26Z</time>
      </trkpt>
      <trkpt lat="45.18481" lon="6.17227">
        <ele>2504.5</ele>
        <time>2019-04-05T08:45:42Z</time>
      </trkpt>
      <trkpt lat="45.18472" lon="6.17223">
        <ele>2503.5</ele>
        <time>2019-04-05T08:45:53Z</time>
      </trkpt>
      <trkpt lat="45.18464" lon="6.17215">
        <ele>2508.5</ele>
        <time>2019-04-05T08:46:08Z</time>
      </trkpt>
      <trkpt lat="45.18455" lon="6.17213">
        <ele>2505.5</ele>
        <time>2019-04-05T08:46:21Z</time>
      </trkpt>
      <trkpt lat="45.18447" lon="6.17207">
        <ele>2504.5</ele>
        <time>2019-04-05T08:46:35Z</time>
      </trkpt>
      <trkpt lat="45.18438" lon="6.17205">
        <ele>2510.5</ele>
        <time>2019-04-05T08:46:49Z</time>
      </trkpt>
      <trkpt lat="45.18429" lon="6.17201">
        <ele>2506.5</ele>
        <time>2019-04-05T08:47:03Z</time>
      </trkpt>
      <trkpt lat="45.18421" lon="6.17195">
        <ele>2513.5</ele>
        <time>2019-04-05T08:47:17Z</time>
      </trkpt>
      <trkpt lat="45.18414" lon="6.17187">
        <ele>2513.5</ele>
        <time>2019-04-05T08:47:32Z</time>
      </trkpt>
      <trkpt lat="45.18405" lon="6.17182">
        <ele>2505.5</ele>
        <time>2019-04-05T08:47:46Z</time>
      </trkpt>
      <trkpt lat="45.18396" lon="6.17177">
        <ele>2502.5</ele>
        <time>2019-04-05T08:47:57Z</time>
      </trkpt>
      <trkpt lat="45.1839" lon="6.17168">
        <ele>2499.5</ele>
        <time>2019-04-05T08:48:11Z</time>
      </trkpt>
      <trkpt lat="45.18381" lon="6.17163">
        <ele>2499.5</ele>
        <time>2019-04-05T08:48:22Z</time>
      </trkpt>
      <trkpt lat="45.18372" lon="6.17159">
        <ele>2499.5</ele>
        <time>2019-04-05T08:48:32Z</time>
      </trkpt>
      <trkpt lat="45.18364" lon="6.17151">
        <ele>2497.5</ele>
        <time>2019-04-05T08:48:53Z</time>
      </trkpt>
      <trkpt lat="45.18356" lon="6.17144">
        <ele>2497.5</ele>
        <time>2019-04-05T08:49:06Z</time>
      </trkpt>
      <trkpt lat="45.18347" lon="6.17141">
        <ele>2493.5</ele>
        <time>2019-04-05T08:49:19Z</time>
      </trkpt>
      <trkpt lat="45.18338" lon="6.17133">
        <ele>2495.5</ele>
        <time>2019-04-05T08:49:30Z</time>
      </trkpt>
      <trkpt lat="45.18329" lon="6.17131">
        <ele>2496.5</ele>
        <time>2019-04-05T08:49:45Z</time>
      </trkpt>
      <trkpt lat="45.1832" lon="6.17124">
        <ele>2497.5</ele>
        <time>2019-04-05T08:49:59Z</time>
      </trkpt>
      <trkpt lat="45.18311" lon="6.17119">
        <ele>2498.5</ele>
        <time>2019-04-05T08:50:12Z</time>
      </trkpt>
      <trkpt lat="45.18302" lon="6.17117">
        <ele>2500.5</ele>
        <time>2019-04-05T08:50:27Z</time>
      </trkpt>
      <trkpt lat="45.18295" lon="6.17108">
        <ele>2505.5</ele>
        <time>2019-04-05T08:50:45Z</time>
      </trkpt>
      <trkpt lat="45.18286" lon="6.17102">
        <ele>2501.5</ele>
        <time>2019-04-05T08:51:09Z</time>
      </trkpt>
      <trkpt lat="45.18277" lon="6.17099">
        <ele>2502.5</ele>
        <time>2019-04-05T08:51:25Z</time>
      </trkpt>
      <trkpt lat="45.18268" lon="6.17101">
        <ele>2520.5</ele>
        <time>2019-04-05T08:54:04Z</time>
      </trkpt>
      <trkpt lat="45.18259" lon="6.17104">
        <ele>2523.5</ele>
        <time>2019-04-05T08:55:26Z</time>
      </trkpt>
      <trkpt lat="45.1825" lon="6.171">
        <ele>2523.5</ele>
        <time>2019-04-05T08:55:37Z</time>
      </trkpt>
      <trkpt lat="45.18241" lon="6.17096">
        <ele>2520.5</ele>
        <time>2019-04-05T08:55:51Z</time>
      </trkpt>
      <trkpt lat="45.18231" lon="6.17095">
        <ele>2529.5</ele>
        <time>2019-04-05T08:56:01Z</time>
      </trkpt>
      <trkpt lat="45.18222" lon="6.17094">
        <ele>2532.5</ele>
        <time>2019-04-05T08:56:18Z</time>
      </trkpt>
      <trkpt lat="45.18212" lon="6.17092">
        <ele>2532.5</ele>
        <time>2019-04-05T08:56:38Z</time>
      </trkpt>
      <trkpt lat="45.18202" lon="6.17087">
        <ele>2536.5</ele>
        <time>2019-04-05T08:56:47Z</time>
      </trkpt>
      <trkpt lat="45.18192" lon="6.1708">
        <ele>2539.5</ele>
        <time>2019-04-05T08:57:04Z</time>
      </trkpt>
      <trkpt lat="45.18182" lon="6.17074">
        <ele>2553.5</ele>
        <time>2019-04-05T08:57:14Z</time>
      </trkpt>
      <trkpt lat="45.18172" lon="6.17073">
        <ele>2545.5</ele>
        <time>2019-04-05T08:57:34Z</time>
      </trkpt>
      <trkpt lat="45.18163" lon="6.17074">
        <ele>2543.5</ele>
        <time>2019-04-05T08:57:52Z</time>
      </trkpt>
      <trkpt lat="45.18154" lon="6.1707">
        <ele>2550.5</ele>
        <time>2019-04-05T08:58:03Z</time>
      </trkpt>
      <trkpt lat="45.18146" lon="6.17067">
        <ele>2553.5</ele>
        <time>2019-04-05T08:58:08Z</time>
      </trkpt>
      <trkpt lat="45.18138" lon="6.17059">
        <ele>2547.5</ele>
        <time>2019-04-05T08:58:37Z</time>
      </trkpt>
      <trkpt lat="45.18128" lon="6.1706">
        <ele>2537.5</ele>
        <time>2019-04-05T08:58:51Z</time>
      </trkpt>
      <trkpt lat="45.18118" lon="6.17057">
        <ele>2531.5</ele>
        <time>2019-04-05T08:59:05Z</time>
      </trkpt>
      <trkpt lat="45.1811" lon="6.17049">
        <ele>2530.5</ele>
        <time>2019-04-05T08:59:15Z</time>
      </trkpt>
      <trkpt lat="45.18099" lon="6.17046">
        <ele>2534.5</ele>
        <time>2019-04-05T08:59:33Z</time>
      </trkpt>
      <trkpt lat="45.18092" lon="6.17038">
        <ele>2533.5</ele>
        <time>2019-04-05T08:59:37Z</time>
      </trkpt>
      <trkpt lat="45.18084" lon="6.1703">
        <ele>2535.5</ele>
        <time>2019-04-05T08:59:45Z</time>
      </trkpt>
      <trkpt lat="45.18076" lon="6.17035">
        <ele>2547.5</ele>
        <time>2019-04-05T09:00:19Z</time>
      </trkpt>
      <trkpt lat="45.18065" lon="6.1703">
        <ele>2553.5</ele>
        <time>2019-04-05T09:00:50Z</time>
      </trkpt>
      <trkpt lat="45.18059" lon="6.17019">
        <ele>2555.5</ele>
        <time>2019-04-05T09:01:19Z</time>
      </trkpt>
      <trkpt lat="45.18045" lon="6.17016">
        <ele>2558.5</ele>
        <time>2019-04-05T09:01:37Z</time>
      </trkpt>
      <trkpt lat="45.18032" lon="6.17014">
        <ele>2562.5</ele>
        <time>2019-04-05T09:01:54Z</time>
      </trkpt>
      <trkpt lat="45.18025" lon="6.17008">
        <ele>2563.5</ele>
        <time>2019-04-05T09:02:00Z</time>
      </trkpt>
      <trkpt lat="45.18015" lon="6.17004">
        <ele>2568.5</ele>
        <time>2019-04-05T09:02:57Z</time>
      </trkpt>
      <trkpt lat="45.18006" lon="6.17006">
        <ele>2570.5</ele>
        <time>2019-04-05T09:03:43Z</time>
      </trkpt>
      <trkpt lat="45.17998" lon="6.16998">
        <ele>2579.5</ele>
        <time>2019-04-05T09:04:02Z</time>
      </trkpt>
      <trkpt lat="45.17989" lon="6.16993">
        <ele>2569.5</ele>
        <time>2019-04-05T09:04:23Z</time>
      </trkpt>
      <trkpt lat="45.1798" lon="6.16991">
        <ele>2569.5</ele>
        <time>2019-04-05T09:04:33Z</time>
      </trkpt>
      <trkpt lat="45.17973" lon="6.17">
        <ele>2565.5</ele>
        <time>2019-04-05T09:05:26Z</time>
      </trkpt>
      <trkpt lat="45.17964" lon="6.16995">
        <ele>2570.5</ele>
        <time>2019-04-05T09:05:43Z</time>
      </trkpt>
      <trkpt lat="45.17957" lon="6.16987">
        <ele>2575.5</ele>
        <time>2019-04-05T09:05:55Z</time>
      </trkpt>
      <trkpt lat="45.17948" lon="6.16983">
        <ele>2581.5</ele>
        <time>2019-04-05T09:06:25Z</time>
      </trkpt>
      <trkpt lat="45.17941" lon="6.16975">
        <ele>2585.5</ele>
        <time>2019-04-05T09:06:40Z</time>
      </trkpt>
      <trkpt lat="45.17932" lon="6.16972">
        <ele>2584.5</ele>
        <time>2019-04-05T09:07:05Z</time>
      </trkpt>
      <trkpt lat="45.17923" lon="6.16968">
        <ele>2586.5</ele>
        <time>2019-04-05T09:07:23Z</time>
      </trkpt>
      <trkpt lat="45.17914" lon="6.16963">
        <ele>2584.5</ele>
        <time>2019-04-05T09:07:49Z</time>
      </trkpt>
      <trkpt lat="45.17907" lon="6.16956">
        <ele>2589.5</ele>
        <time>2019-04-05T09:08:22Z</time>
      </trkpt>
      <trkpt lat="45.17899" lon="6.1695">
        <ele>2590.5</ele>
        <time>2019-04-05T09:08:43Z</time>
      </trkpt>
      <trkpt lat="45.1789" lon="6.16944">
        <ele>2591.5</ele>
        <time>2019-04-05T09:09:02Z</time>
      </trkpt>
      <trkpt lat="45.1788" lon="6.16919">
        <ele>2589.5</ele>
        <time>2019-04-05T09:09:37Z</time>
      </trkpt>
      <trkpt lat="45.17873" lon="6.16911">
        <ele>2595.5</ele>
        <time>2019-04-05T09:10:24Z</time>
      </trkpt>
      <trkpt lat="45.17869" lon="6.169">
        <ele>2598.5</ele>
        <time>2019-04-05T09:10:44Z</time>
      </trkpt>
      <trkpt lat="45.17861" lon="6.16892">
        <ele>2602.5</ele>
        <time>2019-04-05T09:11:35Z</time>
      </trkpt>
      <trkpt lat="45.17854" lon="6.16883">
        <ele>2605.5</ele>
        <time>2019-04-05T09:11:54Z</time>
      </trkpt>
      <trkpt lat="45.17846" lon="6.16875">
        <ele>2607.5</ele>
        <time>2019-04-05T09:12:10Z</time>
      </trkpt>
      <trkpt lat="45.17838" lon="6.16869">
        <ele>2607.5</ele>
        <time>2019-04-05T09:12:28Z</time>
      </trkpt>
      <trkpt lat="45.17829" lon="6.16862">
        <ele>2607.5</ele>
        <time>2019-04-05T09:12:45Z</time>
      </trkpt>
      <trkpt lat="45.17822" lon="6.16855">
        <ele>2608.5</ele>
        <time>2019-04-05T09:13:04Z</time>
      </trkpt>
      <trkpt lat="45.17814" lon="6.16848">
        <ele>2609.5</ele>
        <time>2019-04-05T09:13:28Z</time>
      </trkpt>
      <trkpt lat="45.17806" lon="6.16841">
        <ele>2610.5</ele>
        <time>2019-04-05T09:13:47Z</time>
      </trkpt>
      <trkpt lat="45.17797" lon="6.16836">
        <ele>2611.5</ele>
        <time>2019-04-05T09:14:10Z</time>
      </trkpt>
      <trkpt lat="45.17791" lon="6.16827">
        <ele>2609.5</ele>
        <time>2019-04-05T09:14:29Z</time>
      </trkpt>
      <trkpt lat="45.17783" lon="6.1682">
        <ele>2612.5</ele>
        <time>2019-04-05T09:14:51Z</time>
      </trkpt>
      <trkpt lat="45.17775" lon="6.16815">
        <ele>2611.5</ele>
        <time>2019-04-05T09:15:23Z</time>
      </trkpt>
      <trkpt lat="45.17767" lon="6.16808">
        <ele>2615.5</ele>
        <time>2019-04-05T09:15:45Z</time>
      </trkpt>
      <trkpt lat="45.17759" lon="6.168">
        <ele>2621.5</ele>
        <time>2019-04-05T09:16:08Z</time>
      </trkpt>
      <trkpt lat="45.17751" lon="6.16792">
        <ele>2618.5</ele>
        <time>2019-04-05T09:16:33Z</time>
      </trkpt>
      <trkpt lat="45.17744" lon="6.16784">
        <ele>2620.5</ele>
        <time>2019-04-05T09:16:54Z</time>
      </trkpt>
      <trkpt lat="45.17737" lon="6.16776">
        <ele>2621.5</ele>
        <time>2019-04-05T09:17:19Z</time>
      </trkpt>
      <trkpt lat="45.17729" lon="6.16769">
        <ele>2629.5</ele>
        <time>2019-04-05T09:18:24Z</time>
      </trkpt>
      <trkpt lat="45.17723" lon="6.16759">
        <ele>2630.5</ele>
        <time>2019-04-05T09:18:52Z</time>
      </trkpt>
      <trkpt lat="45.17715" lon="6.16753">
        <ele>2630.5</ele>
        <time>2019-04-05T09:19:12Z</time>
      </trkpt>
      <trkpt lat="45.17717" lon="6.16741">
        <ele>2630.5</ele>
        <time>2019-04-05T09:20:01Z</time>
      </trkpt>
      <trkpt lat="45.17712" lon="6.1673">
        <ele>2631.5</ele>
        <time>2019-04-05T09:20:33Z</time>
      </trkpt>
      <trkpt lat="45.17704" lon="6.16722">
        <ele>2636.5</ele>
        <time>2019-04-05T09:20:52Z</time>
      </trkpt>
      <trkpt lat="45.17698" lon="6.16713">
        <ele>2638.5</ele>
        <time>2019-04-05T09:21:12Z</time>
      </trkpt>
      <trkpt lat="45.17689" lon="6.1671">
        <ele>2640.5</ele>
        <time>2019-04-05T09:21:39Z</time>
      </trkpt>
      <trkpt lat="45.1768" lon="6.16708">
        <ele>2649.5</ele>
        <time>2019-04-05T09:22:11Z</time>
      </trkpt>
      <trkpt lat="45.17673" lon="6.167">
        <ele>2650.5</ele>
        <time>2019-04-05T09:22:29Z</time>
      </trkpt>
      <trkpt lat="45.17674" lon="6.16687">
        <ele>2653.5</ele>
        <time>2019-04-05T09:23:33Z</time>
      </trkpt>
      <trkpt lat="45.17668" lon="6.16677">
        <ele>2652.5</ele>
        <time>2019-04-05T09:23:58Z</time>
      </trkpt>
      <trkpt lat="45.17659" lon="6.16672">
        <ele>2655.5</ele>
        <time>2019-04-05T09:24:30Z</time>
      </trkpt>
      <trkpt lat="45.17654" lon="6.16661">
        <ele>2664.5</ele>
        <time>2019-04-05T09:24:49Z</time>
      </trkpt>
      <trkpt lat="45.17645" lon="6.16657">
        <ele>2662.5</ele>
        <time>2019-04-05T09:25:24Z</time>
      </trkpt>
      <trkpt lat="45.17636" lon="6.16655">
        <ele>2662.5</ele>
        <time>2019-04-05T09:25:57Z</time>
      </trkpt>
      <trkpt lat="45.17626" lon="6.16649">
        <ele>2670.5</ele>
        <time>2019-04-05T09:26:47Z</time>
      </trkpt>
      <trkpt lat="45.17618" lon="6.16644">
        <ele>2670.5</ele>
        <time>2019-04-05T09:26:56Z</time>
      </trkpt>
      <trkpt lat="45.17608" lon="6.1664">
        <ele>2676.5</ele>
        <time>2019-04-05T09:27:05Z</time>
      </trkpt>
      <trkpt lat="45.17597" lon="6.1663">
        <ele>2672.5</ele>
        <time>2019-04-05T09:27:47Z</time>
      </trkpt>
      <trkpt lat="45.17586" lon="6.16628">
        <ele>2674.5</ele>
        <time>2019-04-05T09:28:06Z</time>
      </trkpt>
      <trkpt lat="45.17575" lon="6.16623">
        <ele>2678.5</ele>
        <time>2019-04-05T09:28:14Z</time>
      </trkpt>
      <trkpt lat="45.17565" lon="6.16614">
        <ele>2671.5</ele>
        <time>2019-04-05T09:29:32Z</time>
      </trkpt>
      <trkpt lat="45.17554" lon="6.1661">
        <ele>2678.5</ele>
        <time>2019-04-05T09:29:50Z</time>
      </trkpt>
      <trkpt lat="45.17548" lon="6.16601">
        <ele>2682.5</ele>
        <time>2019-04-05T09:30:20Z</time>
      </trkpt>
      <trkpt lat="45.17538" lon="6.16589">
        <ele>2688.5</ele>
        <time>2019-04-05T09:30:35Z</time>
      </trkpt>
      <trkpt lat="45.17529" lon="6.16586">
        <ele>2681.5</ele>
        <time>2019-04-05T09:30:51Z</time>
      </trkpt>
      <trkpt lat="45.1752" lon="6.16585">
        <ele>2685.5</ele>
        <time>2019-04-05T09:31:07Z</time>
      </trkpt>
      <trkpt lat="45.1753" lon="6.16591">
        <ele>2697.5</ele>
        <time>2019-04-05T09:31:10Z</time>
      </trkpt>
      <trkpt lat="45.17521" lon="6.16587">
        <ele>2716.5</ele>
        <time>2019-04-05T09:31:31Z</time>
      </trkpt>
      <trkpt lat="45.17513" lon="6.16579">
        <ele>2721.5</ele>
        <time>2019-04-05T09:31:43Z</time>
      </trkpt>
      <trkpt lat="45.17504" lon="6.16578">
        <ele>2722.5</ele>
        <time>2019-04-05T09:32:03Z</time>
      </trkpt>
      <trkpt lat="45.17502" lon="6.16565">
        <ele>2720.5</ele>
        <time>2019-04-05T09:32:48Z</time>
      </trkpt>
      <trkpt lat="45.17507" lon="6.16579">
        <ele>2713.5</ele>
        <time>2019-04-05T09:33:13Z</time>
      </trkpt>
      <trkpt lat="45.17499" lon="6.16583">
        <ele>2708.5</ele>
        <time>2019-04-05T09:37:10Z</time>
      </trkpt>
      <trkpt lat="45.17489" lon="6.16582">
        <ele>2709.5</ele>
        <time>2019-04-05T09:37:20Z</time>
      </trkpt>
      <trkpt lat="45.17479" lon="6.16579">
        <ele>2708.5</ele>
        <time>2019-04-05T09:37:35Z</time>
      </trkpt>
      <trkpt lat="45.17468" lon="6.16575">
        <ele>2712.5</ele>
        <time>2019-04-05T09:37:56Z</time>
      </trkpt>
      <trkpt lat="45.17459" lon="6.16573">
        <ele>2713.5</ele>
        <time>2019-04-05T09:38:23Z</time>
      </trkpt>
      <trkpt lat="45.17452" lon="6.16564">
        <ele>2715.5</ele>
        <time>2019-04-05T09:38:39Z</time>
      </trkpt>
      <trkpt lat="45.17443" lon="6.16561">
        <ele>2720.5</ele>
        <time>2019-04-05T09:38:47Z</time>
      </trkpt>
      <trkpt lat="45.17434" lon="6.16555">
        <ele>2717.5</ele>
        <time>2019-04-05T09:39:06Z</time>
      </trkpt>
      <trkpt lat="45.17425" lon="6.16549">
        <ele>2710.5</ele>
        <time>2019-04-05T09:39:29Z</time>
      </trkpt>
      <trkpt lat="45.17416" lon="6.16546">
        <ele>2719.5</ele>
        <time>2019-04-05T09:39:46Z</time>
      </trkpt>
      <trkpt lat="45.17408" lon="6.16538">
        <ele>2720.5</ele>
        <time>2019-04-05T09:40:01Z</time>
      </trkpt>
      <trkpt lat="45.17399" lon="6.16534">
        <ele>2730.5</ele>
        <time>2019-04-05T09:40:15Z</time>
      </trkpt>
      <trkpt lat="45.17391" lon="6.16526">
        <ele>2728.5</ele>
        <time>2019-04-05T09:40:32Z</time>
      </trkpt>
      <trkpt lat="45.17382" lon="6.1652">
        <ele>2733.5</ele>
        <time>2019-04-05T09:40:48Z</time>
      </trkpt>
      <trkpt lat="45.17373" lon="6.16517">
        <ele>2734.5</ele>
        <time>2019-04-05T09:41:00Z</time>
      </trkpt>
      <trkpt lat="45.17364" lon="6.16511">
        <ele>2743.5</ele>
        <time>2019-04-05T09:41:12Z</time>
      </trkpt>
      <trkpt lat="45.17355" lon="6.16505">
        <ele>2740.5</ele>
        <time>2019-04-05T09:41:39Z</time>
      </trkpt>
      <trkpt lat="45.17347" lon="6.16499">
        <ele>2734.5</ele>
        <time>2019-04-05T09:41:56Z</time>
      </trkpt>
      <trkpt lat="45.17338" lon="6.16492">
        <ele>2724.5</ele>
        <time>2019-04-05T09:42:14Z</time>
      </trkpt>
      <trkpt lat="45.17329" lon="6.1649">
        <ele>2730.5</ele>
        <time>2019-04-05T09:42:23Z</time>
      </trkpt>
      <trkpt lat="45.1732" lon="6.16485">
        <ele>2733.5</ele>
        <time>2019-04-05T09:42:34Z</time>
      </trkpt>
      <trkpt lat="45.17311" lon="6.16479">
        <ele>2733.5</ele>
        <time>2019-04-05T09:42:47Z</time>
      </trkpt>
      <trkpt lat="45.17301" lon="6.16475">
        <ele>2732.5</ele>
        <time>2019-04-05T09:43:18Z</time>
      </trkpt>
      <trkpt lat="45.17292" lon="6.16474">
        <ele>2735.5</ele>
        <time>2019-04-05T09:43:24Z</time>
      </trkpt>
      <trkpt lat="45.17285" lon="6.16464">
        <ele>2730.5</ele>
        <time>2019-04-05T09:44:29Z</time>
      </trkpt>
      <trkpt lat="45.17276" lon="6.16459">
        <ele>2736.5</ele>
        <time>2019-04-05T09:44:48Z</time>
      </trkpt>
      <trkpt lat="45.17268" lon="6.16453">
        <ele>2737.5</ele>
        <time>2019-04-05T09:45:08Z</time>
      </trkpt>
      <trkpt lat="45.17258" lon="6.16453">
        <ele>2735.5</ele>
        <time>2019-04-05T09:45:30Z</time>
      </trkpt>
      <trkpt lat="45.1725" lon="6.16445">
        <ele>2734.5</ele>
        <time>2019-04-05T09:45:52Z</time>
      </trkpt>
      <trkpt lat="45.17241" lon="6.16442">
        <ele>2737.5</ele>
        <time>2019-04-05T09:46:08Z</time>
      </trkpt>
      <trkpt lat="45.17234" lon="6.16435">
        <ele>2738.5</ele>
        <time>2019-04-05T09:46:31Z</time>
      </trkpt>
      <trkpt lat="45.17225" lon="6.1643">
        <ele>2741.5</ele>
        <time>2019-04-05T09:46:53Z</time>
      </trkpt>
      <trkpt lat="45.17217" lon="6.16424">
        <ele>2741.5</ele>
        <time>2019-04-05T09:47:06Z</time>
      </trkpt>
      <trkpt lat="45.17208" lon="6.16417">
        <ele>2732.5</ele>
        <time>2019-04-05T09:47:35Z</time>
      </trkpt>
      <trkpt lat="45.172" lon="6.16411">
        <ele>2730.5</ele>
        <time>2019-04-05T09:47:45Z</time>
      </trkpt>
      <trkpt lat="45.17192" lon="6.16405">
        <ele>2730.5</ele>
        <time>2019-04-05T09:47:56Z</time>
      </trkpt>
      <trkpt lat="45.17181" lon="6.16401">
        <ele>2728.5</ele>
        <time>2019-04-05T09:48:16Z</time>
      </trkpt>
      <trkpt lat="45.17172" lon="6.16403">
        <ele>2731.5</ele>
        <time>2019-04-05T09:48:24Z</time>
      </trkpt>
      <trkpt lat="45.17164" lon="6.16394">
        <ele>2721.5</ele>
        <time>2019-04-05T09:48:41Z</time>
      </trkpt>
      <trkpt lat="45.17153" lon="6.16396">
        <ele>2720.5</ele>
        <time>2019-04-05T09:48:52Z</time>
      </trkpt>
      <trkpt lat="45.17143" lon="6.16394">
        <ele>2721.5</ele>
        <time>2019-04-05T09:49:00Z</time>
      </trkpt>
      <trkpt lat="45.17134" lon="6.16392">
        <ele>2723.5</ele>
        <time>2019-04-05T09:49:07Z</time>
      </trkpt>
      <trkpt lat="45.17125" lon="6.16386">
        <ele>2710.5</ele>
        <time>2019-04-05T09:49:52Z</time>
      </trkpt>
      <trkpt lat="45.17115" lon="6.16384">
        <ele>2706.5</ele>
        <time>2019-04-05T09:49:58Z</time>
      </trkpt>
      <trkpt lat="45.17103" lon="6.16384">
        <ele>2704.5</ele>
        <time>2019-04-05T09:50:02Z</time>
      </trkpt>
      <trkpt lat="45.17094" lon="6.16384">
        <ele>2703.5</ele>
        <time>2019-04-05T09:50:06Z</time>
      </trkpt>
      <trkpt lat="45.17084" lon="6.16382">
        <ele>2705.5</ele>
        <time>2019-04-05T09:50:12Z</time>
      </trkpt>
      <trkpt lat="45.17075" lon="6.16379">
        <ele>2701.5</ele>
        <time>2019-04-05T09:50:19Z</time>
      </trkpt>
      <trkpt lat="45.17065" lon="6.16381">
        <ele>2699.5</ele>
        <time>2019-04-05T09:50:31Z</time>
      </trkpt>
      <trkpt lat="45.17057" lon="6.16375">
        <ele>2698.5</ele>
        <time>2019-04-05T09:50:51Z</time>
      </trkpt>
      <trkpt lat="45.17048" lon="6.1637">
        <ele>2702.5</ele>
        <time>2019-04-05T09:50:58Z</time>
      </trkpt>
      <trkpt lat="45.17038" lon="6.16371">
        <ele>2703.5</ele>
        <time>2019-04-05T09:51:05Z</time>
      </trkpt>
      <trkpt lat="45.17027" lon="6.16369">
        <ele>2701.5</ele>
        <time>2019-04-05T09:51:15Z</time>
      </trkpt>
      <trkpt lat="45.17017" lon="6.16369">
        <ele>2701.5</ele>
        <time>2019-04-05T09:51:26Z</time>
      </trkpt>
      <trkpt lat="45.1701" lon="6.16361">
        <ele>2700.5</ele>
        <time>2019-04-05T09:51:37Z</time>
      </trkpt>
      <trkpt lat="45.17" lon="6.16357">
        <ele>2699.5</ele>
        <time>2019-04-05T09:51:49Z</time>
      </trkpt>
      <trkpt lat="45.16992" lon="6.16352">
        <ele>2702.5</ele>
        <time>2019-04-05T09:52:03Z</time>
      </trkpt>
      <trkpt lat="45.16984" lon="6.16348">
        <ele>2701.5</ele>
        <time>2019-04-05T09:52:24Z</time>
      </trkpt>
      <trkpt lat="45.16974" lon="6.16348">
        <ele>2702.5</ele>
        <time>2019-04-05T09:52:37Z</time>
      </trkpt>
      <trkpt lat="45.16966" lon="6.1634">
        <ele>2701.5</ele>
        <time>2019-04-05T09:52:57Z</time>
      </trkpt>
      <trkpt lat="45.16958" lon="6.16334">
        <ele>2697.5</ele>
        <time>2019-04-05T09:53:15Z</time>
      </trkpt>
      <trkpt lat="45.1695" lon="6.16325">
        <ele>2699.5</ele>
        <time>2019-04-05T09:53:22Z</time>
      </trkpt>
      <trkpt lat="45.16941" lon="6.16319">
        <ele>2705.5</ele>
        <time>2019-04-05T09:53:27Z</time>
      </trkpt>
      <trkpt lat="45.16934" lon="6.1631">
        <ele>2704.5</ele>
        <time>2019-04-05T09:53:39Z</time>
      </trkpt>
      <trkpt lat="45.16925" lon="6.16308">
        <ele>2700.5</ele>
        <time>2019-04-05T09:53:52Z</time>
      </trkpt>
      <trkpt lat="45.16912" lon="6.16302">
        <ele>2700.5</ele>
        <time>2019-04-05T09:54:09Z</time>
      </trkpt>
      <trkpt lat="45.16906" lon="6.16292">
        <ele>2700.5</ele>
        <time>2019-04-05T09:54:27Z</time>
      </trkpt>
      <trkpt lat="45.16899" lon="6.16283">
        <ele>2701.5</ele>
        <time>2019-04-05T09:54:39Z</time>
      </trkpt>
      <trkpt lat="45.16891" lon="6.16273">
        <ele>2703.5</ele>
        <time>2019-04-05T09:54:57Z</time>
      </trkpt>
      <trkpt lat="45.16883" lon="6.16279">
        <ele>2701.5</ele>
        <time>2019-04-05T09:55:04Z</time>
      </trkpt>
      <trkpt lat="45.16874" lon="6.16281">
        <ele>2704.5</ele>
        <time>2019-04-05T09:55:19Z</time>
      </trkpt>
      <trkpt lat="45.16865" lon="6.16283">
        <ele>2708.5</ele>
        <time>2019-04-05T09:55:34Z</time>
      </trkpt>
      <trkpt lat="45.16856" lon="6.16283">
        <ele>2709.5</ele>
        <time>2019-04-05T09:55:41Z</time>
      </trkpt>
      <trkpt lat="45.16846" lon="6.16279">
        <ele>2706.5</ele>
        <time>2019-04-05T09:56:31Z</time>
      </trkpt>
      <trkpt lat="45.16837" lon="6.16279">
        <ele>2705.5</ele>
        <time>2019-04-05T09:56:38Z</time>
      </trkpt>
      <trkpt lat="45.16828" lon="6.16273">
        <ele>2701.5</ele>
        <time>2019-04-05T09:57:20Z</time>
      </trkpt>
      <trkpt lat="45.16822" lon="6.16264">
        <ele>2705.5</ele>
        <time>2019-04-05T09:57:29Z</time>
      </trkpt>
      <trkpt lat="45.16812" lon="6.1626">
        <ele>2705.5</ele>
        <time>2019-04-05T09:57:42Z</time>
      </trkpt>
      <trkpt lat="45.168" lon="6.16258">
        <ele>2709.5</ele>
        <time>2019-04-05T09:58:05Z</time>
      </trkpt>
      <trkpt lat="45.16791" lon="6.16256">
        <ele>2708.5</ele>
        <time>2019-04-05T09:58:17Z</time>
      </trkpt>
      <trkpt lat="45.16781" lon="6.16255">
        <ele>2704.5</ele>
        <time>2019-04-05T09:58:32Z</time>
      </trkpt>
      <trkpt lat="45.16773" lon="6.16249">
        <ele>2704.5</ele>
        <time>2019-04-05T09:58:44Z</time>
      </trkpt>
      <trkpt lat="45.16764" lon="6.16246">
        <ele>2704.5</ele>
        <time>2019-04-05T09:58:56Z</time>
      </trkpt>
      <trkpt lat="45.16755" lon="6.16245">
        <ele>2707.5</ele>
        <time>2019-04-05T09:59:11Z</time>
      </trkpt>
      <trkpt lat="45.16746" lon="6.16242">
        <ele>2706.5</ele>
        <time>2019-04-05T09:59:27Z</time>
      </trkpt>
      <trkpt lat="45.16737" lon="6.16237">
        <ele>2707.5</ele>
        <time>2019-04-05T09:59:41Z</time>
      </trkpt>
      <trkpt lat="45.16723" lon="6.16219">
        <ele>2716.5</ele>
        <time>2019-04-05T10:00:17Z</time>
      </trkpt>
      <trkpt lat="45.16715" lon="6.16228">
        <ele>2709.5</ele>
        <time>2019-04-05T10:00:30Z</time>
      </trkpt>
      <trkpt lat="45.16706" lon="6.16229">
        <ele>2710.5</ele>
        <time>2019-04-05T10:00:46Z</time>
      </trkpt>
      <trkpt lat="45.16697" lon="6.16227">
        <ele>2708.5</ele>
        <time>2019-04-05T10:01:03Z</time>
      </trkpt>
      <trkpt lat="45.16689" lon="6.16221">
        <ele>2708.5</ele>
        <time>2019-04-05T10:01:19Z</time>
      </trkpt>
      <trkpt lat="45.1668" lon="6.16218">
        <ele>2706.5</ele>
        <time>2019-04-05T10:02:44Z</time>
      </trkpt>
      <trkpt lat="45.16671" lon="6.16212">
        <ele>2705.5</ele>
        <time>2019-04-05T10:02:56Z</time>
      </trkpt>
      <trkpt lat="45.16662" lon="6.16208">
        <ele>2708.5</ele>
        <time>2019-04-05T10:03:08Z</time>
      </trkpt>
      <trkpt lat="45.16653" lon="6.16205">
        <ele>2709.5</ele>
        <time>2019-04-05T10:03:20Z</time>
      </trkpt>
      <trkpt lat="45.16644" lon="6.16201">
        <ele>2712.5</ele>
        <time>2019-04-05T10:03:32Z</time>
      </trkpt>
      <trkpt lat="45.16635" lon="6.16197">
        <ele>2713.5</ele>
        <time>2019-04-05T10:03:47Z</time>
      </trkpt>
      <trkpt lat="45.16627" lon="6.16191">
        <ele>2714.5</ele>
        <time>2019-04-05T10:03:59Z</time>
      </trkpt>
      <trkpt lat="45.16618" lon="6.16187">
        <ele>2717.5</ele>
        <time>2019-04-05T10:04:16Z</time>
      </trkpt>
      <trkpt lat="45.16609" lon="6.16184">
        <ele>2719.5</ele>
        <time>2019-04-05T10:04:39Z</time>
      </trkpt>
      <trkpt lat="45.16577" lon="6.16173">
        <ele>2726.5</ele>
        <time>2019-04-05T10:05:18Z</time>
      </trkpt>
      <trkpt lat="45.16588" lon="6.1618">
        <ele>2718.5</ele>
        <time>2019-04-05T10:05:19Z</time>
      </trkpt>
      <trkpt lat="45.16578" lon="6.1618">
        <ele>2725.5</ele>
        <time>2019-04-05T10:06:12Z</time>
      </trkpt>
      <trkpt lat="45.16566" lon="6.16177">
        <ele>2729.5</ele>
        <time>2019-04-05T10:06:24Z</time>
      </trkpt>
      <trkpt lat="45.16557" lon="6.16174">
        <ele>2732.5</ele>
        <time>2019-04-05T10:07:23Z</time>
      </trkpt>
      <trkpt lat="45.16548" lon="6.16174">
        <ele>2728.5</ele>
        <time>2019-04-05T10:07:33Z</time>
      </trkpt>
      <trkpt lat="45.16539" lon="6.16177">
        <ele>2734.5</ele>
        <time>2019-04-05T10:08:01Z</time>
      </trkpt>
      <trkpt lat="45.1653" lon="6.16175">
        <ele>2736.5</ele>
        <time>2019-04-05T10:08:33Z</time>
      </trkpt>
      <trkpt lat="45.1652" lon="6.16174">
        <ele>2738.5</ele>
        <time>2019-04-05T10:08:57Z</time>
      </trkpt>
      <trkpt lat="45.16511" lon="6.16171">
        <ele>2737.5</ele>
        <time>2019-04-05T10:09:28Z</time>
      </trkpt>
      <trkpt lat="45.16502" lon="6.1617">
        <ele>2745.5</ele>
        <time>2019-04-05T10:10:09Z</time>
      </trkpt>
      <trkpt lat="45.16492" lon="6.16171">
        <ele>2747.5</ele>
        <time>2019-04-05T10:10:30Z</time>
      </trkpt>
      <trkpt lat="45.16483" lon="6.16172">
        <ele>2749.5</ele>
        <time>2019-04-05T10:10:58Z</time>
      </trkpt>
      <trkpt lat="45.16473" lon="6.16172">
        <ele>2748.5</ele>
        <time>2019-04-05T10:11:10Z</time>
      </trkpt>
      <trkpt lat="45.16464" lon="6.16169">
        <ele>2754.5</ele>
        <time>2019-04-05T10:12:01Z</time>
      </trkpt>
      <trkpt lat="45.16455" lon="6.16169">
        <ele>2750.5</ele>
        <time>2019-04-05T10:12:34Z</time>
      </trkpt>
      <trkpt lat="45.16445" lon="6.1617">
        <ele>2751.5</ele>
        <time>2019-04-05T10:13:15Z</time>
      </trkpt>
      <trkpt lat="45.16436" lon="6.16171">
        <ele>2750.5</ele>
        <time>2019-04-05T10:13:36Z</time>
      </trkpt>
      <trkpt lat="45.16427" lon="6.16171">
        <ele>2753.5</ele>
        <time>2019-04-05T10:14:01Z</time>
      </trkpt>
      <trkpt lat="45.16418" lon="6.16174">
        <ele>2750.5</ele>
        <time>2019-04-05T10:14:36Z</time>
      </trkpt>
      <trkpt lat="45.16408" lon="6.16174">
        <ele>2755.5</ele>
        <time>2019-04-05T10:14:55Z</time>
      </trkpt>
      <trkpt lat="45.16399" lon="6.16177">
        <ele>2757.5</ele>
        <time>2019-04-05T10:15:23Z</time>
      </trkpt>
      <trkpt lat="45.1639" lon="6.16174">
        <ele>2764.5</ele>
        <time>2019-04-05T10:16:04Z</time>
      </trkpt>
      <trkpt lat="45.16381" lon="6.1617">
        <ele>2766.5</ele>
        <time>2019-04-05T10:16:25Z</time>
      </trkpt>
      <trkpt lat="45.16372" lon="6.16165">
        <ele>2760.5</ele>
        <time>2019-04-05T10:16:51Z</time>
      </trkpt>
      <trkpt lat="45.16363" lon="6.16166">
        <ele>2760.5</ele>
        <time>2019-04-05T10:17:05Z</time>
      </trkpt>
      <trkpt lat="45.16354" lon="6.16164">
        <ele>2758.5</ele>
        <time>2019-04-05T10:17:25Z</time>
      </trkpt>
      <trkpt lat="45.16346" lon="6.16159">
        <ele>2768.5</ele>
        <time>2019-04-05T10:18:04Z</time>
      </trkpt>
      <trkpt lat="45.16337" lon="6.16157">
        <ele>2769.5</ele>
        <time>2019-04-05T10:18:32Z</time>
      </trkpt>
      <trkpt lat="45.16329" lon="6.16149">
        <ele>2767.5</ele>
        <time>2019-04-05T10:18:47Z</time>
      </trkpt>
      <trkpt lat="45.16322" lon="6.16139">
        <ele>2766.5</ele>
        <time>2019-04-05T10:19:24Z</time>
      </trkpt>
      <trkpt lat="45.16313" lon="6.16137">
        <ele>2766.5</ele>
        <time>2019-04-05T10:19:45Z</time>
      </trkpt>
      <trkpt lat="45.16308" lon="6.16125">
        <ele>2760.5</ele>
        <time>2019-04-05T10:20:30Z</time>
      </trkpt>
      <trkpt lat="45.163" lon="6.16121">
        <ele>2767.5</ele>
        <time>2019-04-05T10:20:55Z</time>
      </trkpt>
      <trkpt lat="45.16292" lon="6.16114">
        <ele>2768.5</ele>
        <time>2019-04-05T10:21:25Z</time>
      </trkpt>
      <trkpt lat="45.16285" lon="6.16103">
        <ele>2769.5</ele>
        <time>2019-04-05T10:21:41Z</time>
      </trkpt>
      <trkpt lat="45.16277" lon="6.16095">
        <ele>2767.5</ele>
        <time>2019-04-05T10:21:59Z</time>
      </trkpt>
      <trkpt lat="45.16272" lon="6.16082">
        <ele>2773.5</ele>
        <time>2019-04-05T10:22:23Z</time>
      </trkpt>
      <trkpt lat="45.16264" lon="6.16077">
        <ele>2770.5</ele>
        <time>2019-04-05T10:22:41Z</time>
      </trkpt>
      <trkpt lat="45.16257" lon="6.16066">
        <ele>2766.5</ele>
        <time>2019-04-05T10:23:20Z</time>
      </trkpt>
      <trkpt lat="45.16247" lon="6.16061">
        <ele>2772.5</ele>
        <time>2019-04-05T10:23:29Z</time>
      </trkpt>
      <trkpt lat="45.16241" lon="6.1605">
        <ele>2779.5</ele>
        <time>2019-04-05T10:23:54Z</time>
      </trkpt>
      <trkpt lat="45.16233" lon="6.16043">
        <ele>2774.5</ele>
        <time>2019-04-05T10:24:11Z</time>
      </trkpt>
      <trkpt lat="45.16228" lon="6.16032">
        <ele>2781.5</ele>
        <time>2019-04-05T10:24:36Z</time>
      </trkpt>
      <trkpt lat="45.16226" lon="6.16017">
        <ele>2778.5</ele>
        <time>2019-04-05T10:24:56Z</time>
      </trkpt>
      <trkpt lat="45.16217" lon="6.16015">
        <ele>2782.5</ele>
        <time>2019-04-05T10:25:21Z</time>
      </trkpt>
      <trkpt lat="45.1621" lon="6.16007">
        <ele>2786.5</ele>
        <time>2019-04-05T10:25:38Z</time>
      </trkpt>
      <trkpt lat="45.16203" lon="6.15997">
        <ele>2789.5</ele>
        <time>2019-04-05T10:25:52Z</time>
      </trkpt>
      <trkpt lat="45.16197" lon="6.15987">
        <ele>2791.5</ele>
        <time>2019-04-05T10:26:20Z</time>
      </trkpt>
      <trkpt lat="45.16192" lon="6.15975">
        <ele>2787.5</ele>
        <time>2019-04-05T10:26:49Z</time>
      </trkpt>
      <trkpt lat="45.16185" lon="6.15967">
        <ele>2785.5</ele>
        <time>2019-04-05T10:27:21Z</time>
      </trkpt>
      <trkpt lat="45.16177" lon="6.15961">
        <ele>2791.5</ele>
        <time>2019-04-05T10:27:34Z</time>
      </trkpt>
      <trkpt lat="45.16169" lon="6.15955">
        <ele>2794.5</ele>
        <time>2019-04-05T10:27:48Z</time>
      </trkpt>
      <trkpt lat="45.16162" lon="6.15945">
        <ele>2796.5</ele>
        <time>2019-04-05T10:28:11Z</time>
      </trkpt>
      <trkpt lat="45.16153" lon="6.15938">
        <ele>2804.5</ele>
        <time>2019-04-05T10:29:00Z</time>
      </trkpt>
      <trkpt lat="45.16149" lon="6.15927">
        <ele>2805.5</ele>
        <time>2019-04-05T10:30:59Z</time>
      </trkpt>
      <trkpt lat="45.16141" lon="6.1592">
        <ele>2810.5</ele>
        <time>2019-04-05T10:31:29Z</time>
      </trkpt>
      <trkpt lat="45.16134" lon="6.15909">
        <ele>2820.5</ele>
        <time>2019-04-05T10:32:22Z</time>
      </trkpt>
      <trkpt lat="45.16127" lon="6.15901">
        <ele>2815.5</ele>
        <time>2019-04-05T10:32:48Z</time>
      </trkpt>
      <trkpt lat="45.16121" lon="6.15891">
        <ele>2820.5</ele>
        <time>2019-04-05T10:33:17Z</time>
      </trkpt>
      <trkpt lat="45.16113" lon="6.15883">
        <ele>2816.5</ele>
        <time>2019-04-05T10:33:40Z</time>
      </trkpt>
      <trkpt lat="45.16104" lon="6.15879">
        <ele>2824.5</ele>
        <time>2019-04-05T10:34:24Z</time>
      </trkpt>
      <trkpt lat="45.16096" lon="6.15872">
        <ele>2821.5</ele>
        <time>2019-04-05T10:34:46Z</time>
      </trkpt>
      <trkpt lat="45.16089" lon="6.15864">
        <ele>2816.5</ele>
        <time>2019-04-05T10:35:03Z</time>
      </trkpt>
      <trkpt lat="45.1608" lon="6.15858">
        <ele>2824.5</ele>
        <time>2019-04-05T10:35:47Z</time>
      </trkpt>
      <trkpt lat="45.16072" lon="6.15852">
        <ele>2816.5</ele>
        <time>2019-04-05T10:36:11Z</time>
      </trkpt>
      <trkpt lat="45.16062" lon="6.15853">
        <ele>2821.5</ele>
        <time>2019-04-05T10:36:25Z</time>
      </trkpt>
      <trkpt lat="45.16054" lon="6.15847">
        <ele>2829.5</ele>
        <time>2019-04-05T10:37:30Z</time>
      </trkpt>
      <trkpt lat="45.16046" lon="6.15841">
        <ele>2832.5</ele>
        <time>2019-04-05T10:37:54Z</time>
      </trkpt>
      <trkpt lat="45.16037" lon="6.15836">
        <ele>2833.5</ele>
        <time>2019-04-05T10:38:10Z</time>
      </trkpt>
      <trkpt lat="45.16034" lon="6.15824">
        <ele>2841.5</ele>
        <time>2019-04-05T10:38:29Z</time>
      </trkpt>
      <trkpt lat="45.16036" lon="6.15812">
        <ele>2843.5</ele>
        <time>2019-04-05T10:39:14Z</time>
      </trkpt>
      <trkpt lat="45.16034" lon="6.15799">
        <ele>2846.5</ele>
        <time>2019-04-05T10:40:11Z</time>
      </trkpt>
      <trkpt lat="45.16025" lon="6.15795">
        <ele>2853.5</ele>
        <time>2019-04-05T10:40:57Z</time>
      </trkpt>
      <trkpt lat="45.16016" lon="6.1579">
        <ele>2850.5</ele>
        <time>2019-04-05T10:41:23Z</time>
      </trkpt>
      <trkpt lat="45.16006" lon="6.15784">
        <ele>2856.5</ele>
        <time>2019-04-05T10:42:14Z</time>
      </trkpt>
      <trkpt lat="45.16009" lon="6.15771">
        <ele>2862.5</ele>
        <time>2019-04-05T10:42:39Z</time>
      </trkpt>
      <trkpt lat="45.16003" lon="6.15761">
        <ele>2866.5</ele>
        <time>2019-04-05T10:43:05Z</time>
      </trkpt>
      <trkpt lat="45.15993" lon="6.15761">
        <ele>2858.5</ele>
        <time>2019-04-05T10:44:13Z</time>
      </trkpt>
      <trkpt lat="45.15983" lon="6.15756">
        <ele>2864.5</ele>
        <time>2019-04-05T10:44:48Z</time>
      </trkpt>
      <trkpt lat="45.15974" lon="6.15754">
        <ele>2870.5</ele>
        <time>2019-04-05T10:45:37Z</time>
      </trkpt>
      <trkpt lat="45.15964" lon="6.15753">
        <ele>2871.5</ele>
        <time>2019-04-05T10:46:11Z</time>
      </trkpt>
      <trkpt lat="45.15955" lon="6.15756">
        <ele>2871.5</ele>
        <time>2019-04-05T10:46:42Z</time>
      </trkpt>
      <trkpt lat="45.15946" lon="6.15752">
        <ele>2873.5</ele>
        <time>2019-04-05T10:47:19Z</time>
      </trkpt>
      <trkpt lat="45.15939" lon="6.15743">
        <ele>2876.5</ele>
        <time>2019-04-05T10:47:46Z</time>
      </trkpt>
      <trkpt lat="45.15934" lon="6.15731">
        <ele>2880.5</ele>
        <time>2019-04-05T10:48:17Z</time>
      </trkpt>
      <trkpt lat="45.1593" lon="6.1572">
        <ele>2880.5</ele>
        <time>2019-04-05T10:48:47Z</time>
      </trkpt>
      <trkpt lat="45.1591" lon="6.15706">
        <ele>2871.5</ele>
        <time>2019-04-05T10:49:28Z</time>
      </trkpt>
      <trkpt lat="45.15916" lon="6.15695">
        <ele>2880.5</ele>
        <time>2019-04-05T10:49:44Z</time>
      </trkpt>
      <trkpt lat="45.15921" lon="6.15684">
        <ele>2889.5</ele>
        <time>2019-04-05T10:50:13Z</time>
      </trkpt>
      <trkpt lat="45.15929" lon="6.15677">
        <ele>2891.5</ele>
        <time>2019-04-05T10:50:41Z</time>
      </trkpt>
      <trkpt lat="45.15934" lon="6.15667">
        <ele>2897.5</ele>
        <time>2019-04-05T10:51:17Z</time>
      </trkpt>
      <trkpt lat="45.15941" lon="6.15657">
        <ele>2898.5</ele>
        <time>2019-04-05T10:51:55Z</time>
      </trkpt>
      <trkpt lat="45.15946" lon="6.15646">
        <ele>2901.5</ele>
        <time>2019-04-05T10:52:31Z</time>
      </trkpt>
      <trkpt lat="45.15951" lon="6.15634">
        <ele>2898.5</ele>
        <time>2019-04-05T10:52:38Z</time>
      </trkpt>
      <trkpt lat="45.15952" lon="6.15621">
        <ele>2908.5</ele>
        <time>2019-04-05T10:53:42Z</time>
      </trkpt>
      <trkpt lat="45.15957" lon="6.1561">
        <ele>2906.5</ele>
        <time>2019-04-05T10:54:10Z</time>
      </trkpt>
      <trkpt lat="45.15967" lon="6.15605">
        <ele>2907.5</ele>
        <time>2019-04-05T10:54:34Z</time>
      </trkpt>
      <trkpt lat="45.15964" lon="6.15593">
        <ele>2911.5</ele>
        <time>2019-04-05T10:55:09Z</time>
      </trkpt>
      <trkpt lat="45.15959" lon="6.15583">
        <ele>2919.5</ele>
        <time>2019-04-05T10:56:39Z</time>
      </trkpt>
      <trkpt lat="45.15951" lon="6.15576">
        <ele>2920.5</ele>
        <time>2019-04-05T10:57:07Z</time>
      </trkpt>
      <trkpt lat="45.15943" lon="6.15566">
        <ele>2912.5</ele>
        <time>2019-04-05T10:58:08Z</time>
      </trkpt>
      <trkpt lat="45.15939" lon="6.15555">
        <ele>2926.5</ele>
        <time>2019-04-05T10:59:38Z</time>
      </trkpt>
      <trkpt lat="45.15933" lon="6.15545">
        <ele>2935.5</ele>
        <time>2019-04-05T11:01:15Z</time>
      </trkpt>
      <trkpt lat="45.15928" lon="6.15535">
        <ele>2933.5</ele>
        <time>2019-04-05T11:03:41Z</time>
      </trkpt>
      <trkpt lat="45.1592" lon="6.15527">
        <ele>2931.5</ele>
        <time>2019-04-05T11:05:05Z</time>
      </trkpt>
      <trkpt lat="45.15924" lon="6.15515">
        <ele>2938.5</ele>
        <time>2019-04-05T11:06:02Z</time>
      </trkpt>
      <trkpt lat="45.15926" lon="6.15502">
        <ele>2940.5</ele>
        <time>2019-04-05T11:06:51Z</time>
      </trkpt>
      <trkpt lat="45.15925" lon="6.15489">
        <ele>2958.5</ele>
        <time>2019-04-05T11:08:24Z</time>
      </trkpt>
      <trkpt lat="45.15916" lon="6.15485">
        <ele>2968.5</ele>
        <time>2019-04-05T11:09:46Z</time>
      </trkpt>
      <trkpt lat="45.15907" lon="6.15479">
        <ele>2975.5</ele>
        <time>2019-04-05T11:10:55Z</time>
      </trkpt>
      <trkpt lat="45.15898" lon="6.1548">
        <ele>2978.5</ele>
        <time>2019-04-05T11:12:17Z</time>
      </trkpt>
      <trkpt lat="45.15893" lon="6.15469">
        <ele>2972.5</ele>
        <time>2019-04-05T11:12:56Z</time>
      </trkpt>
      <trkpt lat="45.15899" lon="6.1546">
        <ele>2981.5</ele>
        <time>2019-04-05T11:13:45Z</time>
      </trkpt>
      <trkpt lat="45.15904" lon="6.15447">
        <ele>2980.5</ele>
        <time>2019-04-05T11:14:14Z</time>
      </trkpt>
      <trkpt lat="45.15893" lon="6.15447">
        <ele>2990.5</ele>
        <time>2019-04-05T11:16:00Z</time>
      </trkpt>
      <trkpt lat="45.15898" lon="6.15436">
        <ele>2987.5</ele>
        <time>2019-04-05T11:16:32Z</time>
      </trkpt>
      <trkpt lat="45.15901" lon="6.15422">
        <ele>2990.5</ele>
        <time>2019-04-05T11:16:46Z</time>
      </trkpt>
      <trkpt lat="45.15899" lon="6.1541">
        <ele>2992.5</ele>
        <time>2019-04-05T11:17:05Z</time>
      </trkpt>
      <trkpt lat="45.15906" lon="6.15402">
        <ele>2998.5</ele>
        <time>2019-04-05T11:17:37Z</time>
      </trkpt>
      <trkpt lat="45.15906" lon="6.15387">
        <ele>3002.5</ele>
        <time>2019-04-05T11:17:54Z</time>
      </trkpt>
      <trkpt lat="45.1591" lon="6.15374">
        <ele>2997.5</ele>
        <time>2019-04-05T11:18:22Z</time>
      </trkpt>
      <trkpt lat="45.15914" lon="6.15386">
        <ele>2997.5</ele>
        <time>2019-04-05T11:18:29Z</time>
      </trkpt>
      <trkpt lat="45.15908" lon="6.15376">
        <ele>3002.5</ele>
        <time>2019-04-05T11:18:55Z</time>
      </trkpt>
      <trkpt lat="45.15903" lon="6.15365">
        <ele>3000.5</ele>
        <time>2019-04-05T11:19:26Z</time>
      </trkpt>
      <trkpt lat="45.15894" lon="6.15369">
        <ele>3018.5</ele>
        <time>2019-04-05T11:20:30Z</time>
      </trkpt>
      <trkpt lat="45.15884" lon="6.15369">
        <ele>3021.5</ele>
        <time>2019-04-05T11:21:14Z</time>
      </trkpt>
      <trkpt lat="45.15876" lon="6.15365">
        <ele>3020.5</ele>
        <time>2019-04-05T11:21:34Z</time>
      </trkpt>
      <trkpt lat="45.15868" lon="6.15356">
        <ele>3020.5</ele>
        <time>2019-04-05T11:22:14Z</time>
      </trkpt>
      <trkpt lat="45.1586" lon="6.15365">
        <ele>3034.5</ele>
        <time>2019-04-05T11:22:38Z</time>
      </trkpt>
      <trkpt lat="45.15852" lon="6.1536">
        <ele>3033.5</ele>
        <time>2019-04-05T11:23:29Z</time>
      </trkpt>
      <trkpt lat="45.15842" lon="6.15355">
        <ele>3038.5</ele>
        <time>2019-04-05T11:23:58Z</time>
      </trkpt>
      <trkpt lat="45.15836" lon="6.15346">
        <ele>3037.5</ele>
        <time>2019-04-05T11:24:39Z</time>
      </trkpt>
      <trkpt lat="45.15839" lon="6.15334">
        <ele>3037.5</ele>
        <time>2019-04-05T11:25:17Z</time>
      </trkpt>
      <trkpt lat="45.15844" lon="6.15323">
        <ele>3046.5</ele>
        <time>2019-04-05T11:26:36Z</time>
      </trkpt>
      <trkpt lat="45.15851" lon="6.15315">
        <ele>3049.5</ele>
        <time>2019-04-05T11:27:41Z</time>
      </trkpt>
      <trkpt lat="45.15844" lon="6.15307">
        <ele>3056.5</ele>
        <time>2019-04-05T11:29:27Z</time>
      </trkpt>
      <trkpt lat="45.15834" lon="6.15305">
        <ele>3055.5</ele>
        <time>2019-04-05T11:30:08Z</time>
      </trkpt>
      <trkpt lat="45.15824" lon="6.15302">
        <ele>3058.5</ele>
        <time>2019-04-05T11:31:12Z</time>
      </trkpt>
      <trkpt lat="45.15815" lon="6.15298">
        <ele>3060.5</ele>
        <time>2019-04-05T11:31:50Z</time>
      </trkpt>
      <trkpt lat="45.15806" lon="6.15298">
        <ele>3061.5</ele>
        <time>2019-04-05T11:32:46Z</time>
      </trkpt>
      <trkpt lat="45.15804" lon="6.15285">
        <ele>3069.5</ele>
        <time>2019-04-05T11:33:36Z</time>
      </trkpt>
      <trkpt lat="45.15807" lon="6.15273">
        <ele>3074.5</ele>
        <time>2019-04-05T11:34:08Z</time>
      </trkpt>
      <trkpt lat="45.15811" lon="6.15261">
        <ele>3078.5</ele>
        <time>2019-04-05T11:34:53Z</time>
      </trkpt>
      <trkpt lat="45.1581" lon="6.15248">
        <ele>3084.5</ele>
        <time>2019-04-05T11:35:20Z</time>
      </trkpt>
      <trkpt lat="45.15814" lon="6.15236">
        <ele>3087.5</ele>
        <time>2019-04-05T11:35:54Z</time>
      </trkpt>
      <trkpt lat="45.15814" lon="6.15223">
        <ele>3096.5</ele>
        <time>2019-04-05T11:36:34Z</time>
      </trkpt>
      <trkpt lat="45.15817" lon="6.15209">
        <ele>3093.5</ele>
        <time>2019-04-05T11:37:14Z</time>
      </trkpt>
      <trkpt lat="45.15817" lon="6.15194">
        <ele>3087.5</ele>
        <time>2019-04-05T11:38:35Z</time>
      </trkpt>
      <trkpt lat="45.1582" lon="6.15182">
        <ele>3099.5</ele>
        <time>2019-04-05T11:39:18Z</time>
      </trkpt>
      <trkpt lat="45.15823" lon="6.15169">
        <ele>3100.5</ele>
        <time>2019-04-05T11:39:47Z</time>
      </trkpt>
      <trkpt lat="45.15826" lon="6.15157">
        <ele>3103.5</ele>
        <time>2019-04-05T11:40:03Z</time>
      </trkpt>
      <trkpt lat="45.15831" lon="6.15145">
        <ele>3102.5</ele>
        <time>2019-04-05T11:41:08Z</time>
      </trkpt>
      <trkpt lat="45.15831" lon="6.15132">
        <ele>3106.5</ele>
        <time>2019-04-05T11:41:50Z</time>
      </trkpt>
      <trkpt lat="45.15838" lon="6.15122">
        <ele>3109.5</ele>
        <time>2019-04-05T11:42:54Z</time>
      </trkpt>
      <trkpt lat="45.15841" lon="6.15109">
        <ele>3111.5</ele>
        <time>2019-04-05T11:43:17Z</time>
      </trkpt>
      <trkpt lat="45.1584" lon="6.15094">
        <ele>3121.5</ele>
        <time>2019-04-05T11:44:25Z</time>
      </trkpt>
      <trkpt lat="45.15847" lon="6.15086">
        <ele>3118.5</ele>
        <time>2019-04-05T11:44:54Z</time>
      </trkpt>
      <trkpt lat="45.1585" lon="6.15074">
        <ele>3128.5</ele>
        <time>2019-04-05T11:46:32Z</time>
      </trkpt>
      <trkpt lat="45.15856" lon="6.15064">
        <ele>3129.5</ele>
        <time>2019-04-05T11:48:09Z</time>
      </trkpt>
      <trkpt lat="45.15863" lon="6.15054">
        <ele>3131.5</ele>
        <time>2019-04-05T11:48:31Z</time>
      </trkpt>
      <trkpt lat="45.15867" lon="6.15042">
        <ele>3133.5</ele>
        <time>2019-04-05T11:49:11Z</time>
      </trkpt>
      <trkpt lat="45.1586" lon="6.15032">
        <ele>3134.5</ele>
        <time>2019-04-05T11:50:39Z</time>
      </trkpt>
      <trkpt lat="45.15852" lon="6.15026">
        <ele>3141.5</ele>
        <time>2019-04-05T11:51:44Z</time>
      </trkpt>
      <trkpt lat="45.15843" lon="6.15019">
        <ele>3149.5</ele>
        <time>2019-04-05T11:52:28Z</time>
      </trkpt>
      <trkpt lat="45.1583" lon="6.15008">
        <ele>3139.5</ele>
        <time>2019-04-05T11:54:28Z</time>
      </trkpt>
      <trkpt lat="45.15821" lon="6.15003">
        <ele>3159.5</ele>
        <time>2019-04-05T11:55:31Z</time>
      </trkpt>
      <trkpt lat="45.15813" lon="6.14996">
        <ele>3157.5</ele>
        <time>2019-04-05T11:55:53Z</time>
      </trkpt>
      <trkpt lat="45.15806" lon="6.14987">
        <ele>3161.5</ele>
        <time>2019-04-05T11:56:45Z</time>
      </trkpt>
      <trkpt lat="45.15797" lon="6.14994">
        <ele>3160.5</ele>
        <time>2019-04-05T11:57:42Z</time>
      </trkpt>
      <trkpt lat="45.15788" lon="6.14988">
        <ele>3157.5</ele>
        <time>2019-04-05T11:57:53Z</time>
      </trkpt>
      <trkpt lat="45.15779" lon="6.14984">
        <ele>3163.5</ele>
        <time>2019-04-05T11:59:49Z</time>
      </trkpt>
      <trkpt lat="45.1577" lon="6.14984">
        <ele>3166.5</ele>
        <time>2019-04-05T12:00:12Z</time>
      </trkpt>
      <trkpt lat="45.15761" lon="6.14981">
        <ele>3164.5</ele>
        <time>2019-04-05T12:01:11Z</time>
      </trkpt>
      <trkpt lat="45.1575" lon="6.14981">
        <ele>3172.5</ele>
        <time>2019-04-05T12:03:09Z</time>
      </trkpt>
      <trkpt lat="45.15741" lon="6.14977">
        <ele>3179.5</ele>
        <time>2019-04-05T12:03:28Z</time>
      </trkpt>
      <trkpt lat="45.15732" lon="6.14977">
        <ele>3178.5</ele>
        <time>2019-04-05T12:04:42Z</time>
      </trkpt>
      <trkpt lat="45.15723" lon="6.14975">
        <ele>3176.5</ele>
        <time>2019-04-05T12:05:27Z</time>
      </trkpt>
      <trkpt lat="45.15714" lon="6.14975">
        <ele>3178.5</ele>
        <time>2019-04-05T12:06:05Z</time>
      </trkpt>
      <trkpt lat="45.15712" lon="6.14962">
        <ele>3187.5</ele>
        <time>2019-04-05T12:07:13Z</time>
      </trkpt>
      <trkpt lat="45.15716" lon="6.14949">
        <ele>3190.5</ele>
        <time>2019-04-05T12:07:40Z</time>
      </trkpt>
      <trkpt lat="45.15709" lon="6.14939">
        <ele>3168.5</ele>
        <time>2019-04-05T12:11:02Z</time>
      </trkpt>
      <trkpt lat="45.15714" lon="6.14927">
        <ele>3193.5</ele>
        <time>2019-04-05T12:11:37Z</time>
      </trkpt>
      <trkpt lat="45.15724" lon="6.14925">
        <ele>3208.5</ele>
        <time>2019-04-05T12:12:38Z</time>
      </trkpt>
      <trkpt lat="45.15716" lon="6.14919">
        <ele>3210.5</ele>
        <time>2019-04-05T12:14:21Z</time>
      </trkpt>
      <trkpt lat="45.15716" lon="6.14906">
        <ele>3207.5</ele>
        <time>2019-04-05T12:14:45Z</time>
      </trkpt>
      <trkpt lat="45.15711" lon="6.14896">
        <ele>3205.5</ele>
        <time>2019-04-05T12:15:09Z</time>
      </trkpt>
      <trkpt lat="45.1571" lon="6.14881">
        <ele>3211.5</ele>
        <time>2019-04-05T12:15:17Z</time>
      </trkpt>
      <trkpt lat="45.15706" lon="6.14897">
        <ele>3210.5</ele>
        <time>2019-04-05T12:15:24Z</time>
      </trkpt>
      <trkpt lat="45.15702" lon="6.14883">
        <ele>3204.5</ele>
        <time>2019-04-05T12:15:59Z</time>
      </trkpt>
      <trkpt lat="45.15693" lon="6.14877">
        <ele>3201.5</ele>
        <time>2019-04-05T12:16:05Z</time>
      </trkpt>
      <trkpt lat="45.15693" lon="6.14862">
        <ele>3209.5</ele>
        <time>2019-04-05T12:16:22Z</time>
      </trkpt>
      <trkpt lat="45.15697" lon="6.1485">
        <ele>3218.5</ele>
        <time>2019-04-05T12:17:27Z</time>
      </trkpt>
      <trkpt lat="45.15691" lon="6.14838">
        <ele>3218.5</ele>
        <time>2019-04-05T12:17:58Z</time>
      </trkpt>
      <trkpt lat="45.15688" lon="6.14823">
        <ele>3216.5</ele>
        <time>2019-04-05T12:18:14Z</time>
      </trkpt>
      <trkpt lat="45.15679" lon="6.14819">
        <ele>3214.5</ele>
        <time>2019-04-05T12:18:38Z</time>
      </trkpt>
      <trkpt lat="45.15678" lon="6.14802">
        <ele>3223.5</ele>
        <time>2019-04-05T12:19:46Z</time>
      </trkpt>
      <trkpt lat="45.15672" lon="6.14792">
        <ele>3230.5</ele>
        <time>2019-04-05T12:20:16Z</time>
      </trkpt>
      <trkpt lat="45.15674" lon="6.14778">
        <ele>3228.5</ele>
        <time>2019-04-05T12:20:44Z</time>
      </trkpt>
      <trkpt lat="45.15674" lon="6.14764">
        <ele>3229.5</ele>
        <time>2019-04-05T12:20:55Z</time>
      </trkpt>
      <trkpt lat="45.15678" lon="6.14752">
        <ele>3239.5</ele>
        <time>2019-04-05T12:21:10Z</time>
      </trkpt>
      <trkpt lat="45.1567" lon="6.14742">
        <ele>3238.5</ele>
        <time>2019-04-05T12:21:36Z</time>
      </trkpt>
      <trkpt lat="45.15664" lon="6.14732">
        <ele>3236.5</ele>
        <time>2019-04-05T12:22:04Z</time>
      </trkpt>
      <trkpt lat="45.15657" lon="6.14722">
        <ele>3231.5</ele>
        <time>2019-04-05T12:22:15Z</time>
      </trkpt>
      <trkpt lat="45.15666" lon="6.14723">
        <ele>3234.5</ele>
        <time>2019-04-05T12:22:28Z</time>
      </trkpt>
      <trkpt lat="45.15668" lon="6.1471">
        <ele>3248.5</ele>
        <time>2019-04-05T12:23:47Z</time>
      </trkpt>
      <trkpt lat="45.15673" lon="6.14699">
        <ele>3257.5</ele>
        <time>2019-04-05T12:24:30Z</time>
      </trkpt>
      <trkpt lat="45.15679" lon="6.14689">
        <ele>3260.5</ele>
        <time>2019-04-05T12:25:08Z</time>
      </trkpt>
      <trkpt lat="45.15675" lon="6.14677">
        <ele>3260.5</ele>
        <time>2019-04-05T12:26:54Z</time>
      </trkpt>
      <trkpt lat="45.15667" lon="6.1467">
        <ele>3261.5</ele>
        <time>2019-04-05T12:27:26Z</time>
      </trkpt>
      <trkpt lat="45.15661" lon="6.14662">
        <ele>3258.5</ele>
        <time>2019-04-05T12:28:14Z</time>
      </trkpt>
      <trkpt lat="45.15665" lon="6.1465">
        <ele>3272.5</ele>
        <time>2019-04-05T12:29:50Z</time>
      </trkpt>
      <trkpt lat="45.15673" lon="6.14646">
        <ele>3269.5</ele>
        <time>2019-04-05T12:30:04Z</time>
      </trkpt>
      <trkpt lat="45.15682" lon="6.1464">
        <ele>3274.5</ele>
        <time>2019-04-05T12:32:38Z</time>
      </trkpt>
      <trkpt lat="45.1568" lon="6.14653">
        <ele>3282.5</ele>
        <time>2019-04-05T12:41:53Z</time>
      </trkpt>
      <trkpt lat="45.15676" lon="6.14642">
        <ele>3274.5</ele>
        <time>2019-04-05T12:42:13Z</time>
      </trkpt>
      <trkpt lat="45.15685" lon="6.14646">
        <ele>3278.5</ele>
        <time>2019-04-05T12:45:05Z</time>
      </trkpt>
      <trkpt lat="45.15675" lon="6.14645">
        <ele>3276.5</ele>
        <time>2019-04-05T12:47:37Z</time>
      </trkpt>
      <trkpt lat="45.15669" lon="6.14659">
        <ele>3270.5</ele>
        <time>2019-04-05T12:47:43Z</time>
      </trkpt>
      <trkpt lat="45.15666" lon="6.14672">
        <ele>3269.5</ele>
        <time>2019-04-05T12:47:46Z</time>
      </trkpt>
      <trkpt lat="45.15664" lon="6.1469">
        <ele>3269.5</ele>
        <time>2019-04-05T12:47:49Z</time>
      </trkpt>
      <trkpt lat="45.15668" lon="6.14709">
        <ele>3270.5</ele>
        <time>2019-04-05T12:48:06Z</time>
      </trkpt>
      <trkpt lat="45.15668" lon="6.14723">
        <ele>3269.5</ele>
        <time>2019-04-05T12:48:08Z</time>
      </trkpt>
      <trkpt lat="45.15674" lon="6.14733">
        <ele>3264.5</ele>
        <time>2019-04-05T12:48:10Z</time>
      </trkpt>
      <trkpt lat="45.15678" lon="6.14745">
        <ele>3262.5</ele>
        <time>2019-04-05T12:48:12Z</time>
      </trkpt>
      <trkpt lat="45.1568" lon="6.14759">
        <ele>3261.5</ele>
        <time>2019-04-05T12:48:14Z</time>
      </trkpt>
      <trkpt lat="45.15684" lon="6.14779">
        <ele>3257.5</ele>
        <time>2019-04-05T12:48:16Z</time>
      </trkpt>
      <trkpt lat="45.1569" lon="6.14792">
        <ele>3252.5</ele>
        <time>2019-04-05T12:48:17Z</time>
      </trkpt>
      <trkpt lat="45.15695" lon="6.14812">
        <ele>3251.5</ele>
        <time>2019-04-05T12:48:19Z</time>
      </trkpt>
      <trkpt lat="45.15702" lon="6.14824">
        <ele>3239.5</ele>
        <time>2019-04-05T12:48:22Z</time>
      </trkpt>
      <trkpt lat="45.15705" lon="6.14844">
        <ele>3233.5</ele>
        <time>2019-04-05T12:48:25Z</time>
      </trkpt>
      <trkpt lat="45.15708" lon="6.14859">
        <ele>3233.5</ele>
        <time>2019-04-05T12:48:27Z</time>
      </trkpt>
      <trkpt lat="45.15714" lon="6.14876">
        <ele>3225.5</ele>
        <time>2019-04-05T12:48:30Z</time>
      </trkpt>
      <trkpt lat="45.15714" lon="6.14889">
        <ele>3211.5</ele>
        <time>2019-04-05T12:48:58Z</time>
      </trkpt>
      <trkpt lat="45.15714" lon="6.14875">
        <ele>3202.5</ele>
        <time>2019-04-05T12:50:07Z</time>
      </trkpt>
      <trkpt lat="45.15714" lon="6.14888">
        <ele>3201.5</ele>
        <time>2019-04-05T12:50:10Z</time>
      </trkpt>
      <trkpt lat="45.15717" lon="6.14901">
        <ele>3197.5</ele>
        <time>2019-04-05T12:50:13Z</time>
      </trkpt>
      <trkpt lat="45.15721" lon="6.14916">
        <ele>3199.5</ele>
        <time>2019-04-05T12:50:15Z</time>
      </trkpt>
      <trkpt lat="45.15723" lon="6.14934">
        <ele>3201.5</ele>
        <time>2019-04-05T12:50:17Z</time>
      </trkpt>
      <trkpt lat="45.15728" lon="6.14952">
        <ele>3199.5</ele>
        <time>2019-04-05T12:50:20Z</time>
      </trkpt>
      <trkpt lat="45.15731" lon="6.14967">
        <ele>3198.5</ele>
        <time>2019-04-05T12:50:22Z</time>
      </trkpt>
      <trkpt lat="45.15739" lon="6.14978">
        <ele>3193.5</ele>
        <time>2019-04-05T12:50:24Z</time>
      </trkpt>
      <trkpt lat="45.15745" lon="6.14987">
        <ele>3190.5</ele>
        <time>2019-04-05T12:50:26Z</time>
      </trkpt>
      <trkpt lat="45.15751" lon="6.15006">
        <ele>3187.5</ele>
        <time>2019-04-05T12:50:29Z</time>
      </trkpt>
      <trkpt lat="45.15752" lon="6.15023">
        <ele>3185.5</ele>
        <time>2019-04-05T12:50:31Z</time>
      </trkpt>
      <trkpt lat="45.1576" lon="6.15041">
        <ele>3185.5</ele>
        <time>2019-04-05T12:50:33Z</time>
      </trkpt>
      <trkpt lat="45.15758" lon="6.15058">
        <ele>3180.5</ele>
        <time>2019-04-05T12:50:35Z</time>
      </trkpt>
      <trkpt lat="45.15751" lon="6.15068">
        <ele>3172.5</ele>
        <time>2019-04-05T12:50:41Z</time>
      </trkpt>
      <trkpt lat="45.1576" lon="6.15064">
        <ele>3165.5</ele>
        <time>2019-04-05T12:51:19Z</time>
      </trkpt>
      <trkpt lat="45.15757" lon="6.15077">
        <ele>3161.5</ele>
        <time>2019-04-05T12:51:30Z</time>
      </trkpt>
      <trkpt lat="45.1576" lon="6.15093">
        <ele>3152.5</ele>
        <time>2019-04-05T12:51:34Z</time>
      </trkpt>
      <trkpt lat="45.15764" lon="6.15108">
        <ele>3153.5</ele>
        <time>2019-04-05T12:51:36Z</time>
      </trkpt>
      <trkpt lat="45.15767" lon="6.15122">
        <ele>3149.5</ele>
        <time>2019-04-05T12:51:38Z</time>
      </trkpt>
      <trkpt lat="45.15772" lon="6.15142">
        <ele>3146.5</ele>
        <time>2019-04-05T12:51:41Z</time>
      </trkpt>
      <trkpt lat="45.15774" lon="6.15158">
        <ele>3142.5</ele>
        <time>2019-04-05T12:51:44Z</time>
      </trkpt>
      <trkpt lat="45.15782" lon="6.1517">
        <ele>3134.5</ele>
        <time>2019-04-05T12:51:47Z</time>
      </trkpt>
      <trkpt lat="45.15787" lon="6.15182">
        <ele>3130.5</ele>
        <time>2019-04-05T12:51:49Z</time>
      </trkpt>
      <trkpt lat="45.15795" lon="6.15197">
        <ele>3129.5</ele>
        <time>2019-04-05T12:51:51Z</time>
      </trkpt>
      <trkpt lat="45.158" lon="6.15215">
        <ele>3126.5</ele>
        <time>2019-04-05T12:51:53Z</time>
      </trkpt>
      <trkpt lat="45.15804" lon="6.15234">
        <ele>3125.5</ele>
        <time>2019-04-05T12:51:55Z</time>
      </trkpt>
      <trkpt lat="45.15812" lon="6.15241">
        <ele>3111.5</ele>
        <time>2019-04-05T12:51:58Z</time>
      </trkpt>
      <trkpt lat="45.15818" lon="6.15252">
        <ele>3106.5</ele>
        <time>2019-04-05T12:51:59Z</time>
      </trkpt>
      <trkpt lat="45.15814" lon="6.15268">
        <ele>3102.5</ele>
        <time>2019-04-05T12:52:02Z</time>
      </trkpt>
      <trkpt lat="45.15805" lon="6.1527">
        <ele>3093.5</ele>
        <time>2019-04-05T12:52:34Z</time>
      </trkpt>
      <trkpt lat="45.15809" lon="6.15284">
        <ele>3094.5</ele>
        <time>2019-04-05T12:52:41Z</time>
      </trkpt>
      <trkpt lat="45.15816" lon="6.15296">
        <ele>3093.5</ele>
        <time>2019-04-05T12:52:43Z</time>
      </trkpt>
      <trkpt lat="45.15824" lon="6.1531">
        <ele>3088.5</ele>
        <time>2019-04-05T12:52:46Z</time>
      </trkpt>
      <trkpt lat="45.15828" lon="6.15326">
        <ele>3076.5</ele>
        <time>2019-04-05T12:52:50Z</time>
      </trkpt>
      <trkpt lat="45.15836" lon="6.15336">
        <ele>3070.5</ele>
        <time>2019-04-05T12:52:52Z</time>
      </trkpt>
      <trkpt lat="45.15844" lon="6.15344">
        <ele>3065.5</ele>
        <time>2019-04-05T12:52:54Z</time>
      </trkpt>
      <trkpt lat="45.1585" lon="6.15356">
        <ele>3063.5</ele>
        <time>2019-04-05T12:52:56Z</time>
      </trkpt>
      <trkpt lat="45.15857" lon="6.1537">
        <ele>3061.5</ele>
        <time>2019-04-05T12:52:58Z</time>
      </trkpt>
      <trkpt lat="45.15862" lon="6.15381">
        <ele>3050.5</ele>
        <time>2019-04-05T12:53:01Z</time>
      </trkpt>
      <trkpt lat="45.15867" lon="6.15394">
        <ele>3048.5</ele>
        <time>2019-04-05T12:53:03Z</time>
      </trkpt>
      <trkpt lat="45.15877" lon="6.15391">
        <ele>3037.5</ele>
        <time>2019-04-05T12:53:06Z</time>
      </trkpt>
      <trkpt lat="45.1587" lon="6.15404">
        <ele>3028.5</ele>
        <time>2019-04-05T12:54:04Z</time>
      </trkpt>
      <trkpt lat="45.15874" lon="6.15418">
        <ele>3026.5</ele>
        <time>2019-04-05T12:54:07Z</time>
      </trkpt>
      <trkpt lat="45.15878" lon="6.15431">
        <ele>3018.5</ele>
        <time>2019-04-05T12:54:10Z</time>
      </trkpt>
      <trkpt lat="45.1588" lon="6.15447">
        <ele>3014.5</ele>
        <time>2019-04-05T12:54:13Z</time>
      </trkpt>
      <trkpt lat="45.15888" lon="6.1548">
        <ele>3009.5</ele>
        <time>2019-04-05T12:54:19Z</time>
      </trkpt>
      <trkpt lat="45.15896" lon="6.15494">
        <ele>3007.5</ele>
        <time>2019-04-05T12:54:22Z</time>
      </trkpt>
      <trkpt lat="45.15896" lon="6.15509">
        <ele>3004.5</ele>
        <time>2019-04-05T12:54:24Z</time>
      </trkpt>
      <trkpt lat="45.15898" lon="6.15523">
        <ele>3001.5</ele>
        <time>2019-04-05T12:54:26Z</time>
      </trkpt>
      <trkpt lat="45.159" lon="6.15537">
        <ele>2995.5</ele>
        <time>2019-04-05T12:54:28Z</time>
      </trkpt>
      <trkpt lat="45.15908" lon="6.15533">
        <ele>2988.5</ele>
        <time>2019-04-05T12:54:31Z</time>
      </trkpt>
      <trkpt lat="45.15919" lon="6.15544">
        <ele>2962.5</ele>
        <time>2019-04-05T12:55:06Z</time>
      </trkpt>
      <trkpt lat="45.15919" lon="6.15558">
        <ele>2958.5</ele>
        <time>2019-04-05T12:55:08Z</time>
      </trkpt>
      <trkpt lat="45.1592" lon="6.15577">
        <ele>2957.5</ele>
        <time>2019-04-05T12:55:10Z</time>
      </trkpt>
      <trkpt lat="45.15923" lon="6.15592">
        <ele>2954.5</ele>
        <time>2019-04-05T12:55:12Z</time>
      </trkpt>
      <trkpt lat="45.15924" lon="6.15608">
        <ele>2944.5</ele>
        <time>2019-04-05T12:55:14Z</time>
      </trkpt>
      <trkpt lat="45.15929" lon="6.15619">
        <ele>2941.5</ele>
        <time>2019-04-05T12:55:16Z</time>
      </trkpt>
      <trkpt lat="45.15935" lon="6.15633">
        <ele>2938.5</ele>
        <time>2019-04-05T12:55:19Z</time>
      </trkpt>
      <trkpt lat="45.15941" lon="6.15647">
        <ele>2929.5</ele>
        <time>2019-04-05T12:55:21Z</time>
      </trkpt>
      <trkpt lat="45.15947" lon="6.15662">
        <ele>2925.5</ele>
        <time>2019-04-05T12:55:23Z</time>
      </trkpt>
      <trkpt lat="45.15948" lon="6.15679">
        <ele>2919.5</ele>
        <time>2019-04-05T12:55:25Z</time>
      </trkpt>
      <trkpt lat="45.15955" lon="6.15699">
        <ele>2910.5</ele>
        <time>2019-04-05T12:55:28Z</time>
      </trkpt>
      <trkpt lat="45.1596" lon="6.15717">
        <ele>2909.5</ele>
        <time>2019-04-05T12:55:30Z</time>
      </trkpt>
      <trkpt lat="45.15961" lon="6.15734">
        <ele>2905.5</ele>
        <time>2019-04-05T12:55:32Z</time>
      </trkpt>
      <trkpt lat="45.15956" lon="6.15751">
        <ele>2897.5</ele>
        <time>2019-04-05T12:55:35Z</time>
      </trkpt>
      <trkpt lat="45.15967" lon="6.15755">
        <ele>2874.5</ele>
        <time>2019-04-05T12:57:55Z</time>
      </trkpt>
      <trkpt lat="45.15976" lon="6.15767">
        <ele>2868.5</ele>
        <time>2019-04-05T12:57:58Z</time>
      </trkpt>
      <trkpt lat="45.15985" lon="6.15776">
        <ele>2864.5</ele>
        <time>2019-04-05T12:58:00Z</time>
      </trkpt>
      <trkpt lat="45.15995" lon="6.15785">
        <ele>2859.5</ele>
        <time>2019-04-05T12:58:02Z</time>
      </trkpt>
      <trkpt lat="45.16002" lon="6.15796">
        <ele>2855.5</ele>
        <time>2019-04-05T12:58:04Z</time>
      </trkpt>
      <trkpt lat="45.16013" lon="6.15807">
        <ele>2852.5</ele>
        <time>2019-04-05T12:58:06Z</time>
      </trkpt>
      <trkpt lat="45.16025" lon="6.15818">
        <ele>2850.5</ele>
        <time>2019-04-05T12:58:08Z</time>
      </trkpt>
      <trkpt lat="45.16037" lon="6.15827">
        <ele>2846.5</ele>
        <time>2019-04-05T12:58:10Z</time>
      </trkpt>
      <trkpt lat="45.16052" lon="6.1584">
        <ele>2843.5</ele>
        <time>2019-04-05T12:58:12Z</time>
      </trkpt>
      <trkpt lat="45.16068" lon="6.15851">
        <ele>2841.5</ele>
        <time>2019-04-05T12:58:14Z</time>
      </trkpt>
      <trkpt lat="45.16081" lon="6.1586">
        <ele>2838.5</ele>
        <time>2019-04-05T12:58:16Z</time>
      </trkpt>
      <trkpt lat="45.16095" lon="6.15869">
        <ele>2834.5</ele>
        <time>2019-04-05T12:58:18Z</time>
      </trkpt>
      <trkpt lat="45.16109" lon="6.15881">
        <ele>2829.5</ele>
        <time>2019-04-05T12:58:20Z</time>
      </trkpt>
      <trkpt lat="45.16122" lon="6.15897">
        <ele>2826.5</ele>
        <time>2019-04-05T12:58:22Z</time>
      </trkpt>
      <trkpt lat="45.1613" lon="6.15905">
        <ele>2824.5</ele>
        <time>2019-04-05T12:58:23Z</time>
      </trkpt>
      <trkpt lat="45.16137" lon="6.15913">
        <ele>2825.5</ele>
        <time>2019-04-05T12:58:24Z</time>
      </trkpt>
      <trkpt lat="45.16144" lon="6.15923">
        <ele>2824.5</ele>
        <time>2019-04-05T12:58:25Z</time>
      </trkpt>
      <trkpt lat="45.16156" lon="6.15941">
        <ele>2821.5</ele>
        <time>2019-04-05T12:58:27Z</time>
      </trkpt>
      <trkpt lat="45.16169" lon="6.15956">
        <ele>2817.5</ele>
        <time>2019-04-05T12:58:29Z</time>
      </trkpt>
      <trkpt lat="45.16182" lon="6.15973">
        <ele>2816.5</ele>
        <time>2019-04-05T12:58:31Z</time>
      </trkpt>
      <trkpt lat="45.16193" lon="6.15988">
        <ele>2814.5</ele>
        <time>2019-04-05T12:58:33Z</time>
      </trkpt>
      <trkpt lat="45.16202" lon="6.16004">
        <ele>2810.5</ele>
        <time>2019-04-05T12:58:35Z</time>
      </trkpt>
      <trkpt lat="45.16211" lon="6.16018">
        <ele>2807.5</ele>
        <time>2019-04-05T12:58:37Z</time>
      </trkpt>
      <trkpt lat="45.1622" lon="6.16033">
        <ele>2806.5</ele>
        <time>2019-04-05T12:58:39Z</time>
      </trkpt>
      <trkpt lat="45.16231" lon="6.16044">
        <ele>2805.5</ele>
        <time>2019-04-05T12:58:41Z</time>
      </trkpt>
      <trkpt lat="45.16241" lon="6.16057">
        <ele>2803.5</ele>
        <time>2019-04-05T12:58:43Z</time>
      </trkpt>
      <trkpt lat="45.16251" lon="6.1607">
        <ele>2803.5</ele>
        <time>2019-04-05T12:58:45Z</time>
      </trkpt>
      <trkpt lat="45.1626" lon="6.16081">
        <ele>2802.5</ele>
        <time>2019-04-05T12:58:47Z</time>
      </trkpt>
      <trkpt lat="45.16271" lon="6.16093">
        <ele>2799.5</ele>
        <time>2019-04-05T12:58:49Z</time>
      </trkpt>
      <trkpt lat="45.16282" lon="6.16102">
        <ele>2798.5</ele>
        <time>2019-04-05T12:58:51Z</time>
      </trkpt>
      <trkpt lat="45.16288" lon="6.16115">
        <ele>2794.5</ele>
        <time>2019-04-05T12:58:53Z</time>
      </trkpt>
      <trkpt lat="45.16301" lon="6.16125">
        <ele>2791.5</ele>
        <time>2019-04-05T12:58:55Z</time>
      </trkpt>
      <trkpt lat="45.1631" lon="6.16137">
        <ele>2791.5</ele>
        <time>2019-04-05T12:58:57Z</time>
      </trkpt>
      <trkpt lat="45.16317" lon="6.16147">
        <ele>2783.5</ele>
        <time>2019-04-05T12:59:35Z</time>
      </trkpt>
      <trkpt lat="45.16326" lon="6.16156">
        <ele>2779.5</ele>
        <time>2019-04-05T12:59:38Z</time>
      </trkpt>
      <trkpt lat="45.16341" lon="6.16161">
        <ele>2776.5</ele>
        <time>2019-04-05T12:59:41Z</time>
      </trkpt>
      <trkpt lat="45.16354" lon="6.16166">
        <ele>2776.5</ele>
        <time>2019-04-05T12:59:43Z</time>
      </trkpt>
      <trkpt lat="45.16367" lon="6.16167">
        <ele>2772.5</ele>
        <time>2019-04-05T12:59:45Z</time>
      </trkpt>
      <trkpt lat="45.16381" lon="6.16168">
        <ele>2770.5</ele>
        <time>2019-04-05T12:59:47Z</time>
      </trkpt>
      <trkpt lat="45.16396" lon="6.16169">
        <ele>2770.5</ele>
        <time>2019-04-05T12:59:49Z</time>
      </trkpt>
      <trkpt lat="45.1641" lon="6.16169">
        <ele>2769.5</ele>
        <time>2019-04-05T12:59:51Z</time>
      </trkpt>
      <trkpt lat="45.16422" lon="6.16168">
        <ele>2768.5</ele>
        <time>2019-04-05T12:59:53Z</time>
      </trkpt>
      <trkpt lat="45.16435" lon="6.16167">
        <ele>2765.5</ele>
        <time>2019-04-05T12:59:55Z</time>
      </trkpt>
      <trkpt lat="45.16447" lon="6.16165">
        <ele>2762.5</ele>
        <time>2019-04-05T12:59:57Z</time>
      </trkpt>
      <trkpt lat="45.16459" lon="6.16165">
        <ele>2760.5</ele>
        <time>2019-04-05T12:59:59Z</time>
      </trkpt>
      <trkpt lat="45.16475" lon="6.16166">
        <ele>2760.5</ele>
        <time>2019-04-05T13:00:01Z</time>
      </trkpt>
      <trkpt lat="45.1649" lon="6.16166">
        <ele>2759.5</ele>
        <time>2019-04-05T13:00:03Z</time>
      </trkpt>
      <trkpt lat="45.16506" lon="6.16163">
        <ele>2758.5</ele>
        <time>2019-04-05T13:00:05Z</time>
      </trkpt>
      <trkpt lat="45.16518" lon="6.16163">
        <ele>2757.5</ele>
        <time>2019-04-05T13:00:06Z</time>
      </trkpt>
      <trkpt lat="45.16532" lon="6.16168">
        <ele>2753.5</ele>
        <time>2019-04-05T13:00:08Z</time>
      </trkpt>
      <trkpt lat="45.16549" lon="6.16169">
        <ele>2752.5</ele>
        <time>2019-04-05T13:00:10Z</time>
      </trkpt>
      <trkpt lat="45.1656" lon="6.16172">
        <ele>2748.5</ele>
        <time>2019-04-05T13:00:12Z</time>
      </trkpt>
      <trkpt lat="45.16574" lon="6.16175">
        <ele>2745.5</ele>
        <time>2019-04-05T13:00:14Z</time>
      </trkpt>
      <trkpt lat="45.16592" lon="6.16176">
        <ele>2743.5</ele>
        <time>2019-04-05T13:00:16Z</time>
      </trkpt>
      <trkpt lat="45.16602" lon="6.16176">
        <ele>2742.5</ele>
        <time>2019-04-05T13:00:17Z</time>
      </trkpt>
      <trkpt lat="45.16615" lon="6.1618">
        <ele>2738.5</ele>
        <time>2019-04-05T13:00:19Z</time>
      </trkpt>
      <trkpt lat="45.16628" lon="6.16185">
        <ele>2734.5</ele>
        <time>2019-04-05T13:00:21Z</time>
      </trkpt>
      <trkpt lat="45.16645" lon="6.16187">
        <ele>2733.5</ele>
        <time>2019-04-05T13:00:23Z</time>
      </trkpt>
      <trkpt lat="45.16658" lon="6.16195">
        <ele>2731.5</ele>
        <time>2019-04-05T13:00:25Z</time>
      </trkpt>
      <trkpt lat="45.16669" lon="6.16203">
        <ele>2728.5</ele>
        <time>2019-04-05T13:00:27Z</time>
      </trkpt>
      <trkpt lat="45.1668" lon="6.16212">
        <ele>2723.5</ele>
        <time>2019-04-05T13:00:30Z</time>
      </trkpt>
      <trkpt lat="45.16691" lon="6.16217">
        <ele>2722.5</ele>
        <time>2019-04-05T13:00:32Z</time>
      </trkpt>
      <trkpt lat="45.16702" lon="6.16222">
        <ele>2722.5</ele>
        <time>2019-04-05T13:00:34Z</time>
      </trkpt>
      <trkpt lat="45.16713" lon="6.16227">
        <ele>2721.5</ele>
        <time>2019-04-05T13:00:36Z</time>
      </trkpt>
      <trkpt lat="45.16723" lon="6.16233">
        <ele>2721.5</ele>
        <time>2019-04-05T13:00:38Z</time>
      </trkpt>
      <trkpt lat="45.16732" lon="6.16236">
        <ele>2719.5</ele>
        <time>2019-04-05T13:00:40Z</time>
      </trkpt>
      <trkpt lat="45.16745" lon="6.16238">
        <ele>2718.5</ele>
        <time>2019-04-05T13:00:42Z</time>
      </trkpt>
      <trkpt lat="45.16755" lon="6.16244">
        <ele>2712.5</ele>
        <time>2019-04-05T13:00:46Z</time>
      </trkpt>
      <trkpt lat="45.16765" lon="6.16245">
        <ele>2709.5</ele>
        <time>2019-04-05T13:00:51Z</time>
      </trkpt>
      <trkpt lat="45.16774" lon="6.1625">
        <ele>2708.5</ele>
        <time>2019-04-05T13:01:06Z</time>
      </trkpt>
      <trkpt lat="45.16783" lon="6.16255">
        <ele>2707.5</ele>
        <time>2019-04-05T13:01:19Z</time>
      </trkpt>
      <trkpt lat="45.16791" lon="6.16261">
        <ele>2710.5</ele>
        <time>2019-04-05T13:01:33Z</time>
      </trkpt>
      <trkpt lat="45.168" lon="6.16267">
        <ele>2714.5</ele>
        <time>2019-04-05T13:01:44Z</time>
      </trkpt>
      <trkpt lat="45.16809" lon="6.16268">
        <ele>2714.5</ele>
        <time>2019-04-05T13:01:53Z</time>
      </trkpt>
      <trkpt lat="45.1682" lon="6.16273">
        <ele>2712.5</ele>
        <time>2019-04-05T13:01:59Z</time>
      </trkpt>
      <trkpt lat="45.1683" lon="6.16274">
        <ele>2713.5</ele>
        <time>2019-04-05T13:02:02Z</time>
      </trkpt>
      <trkpt lat="45.16839" lon="6.1627">
        <ele>2712.5</ele>
        <time>2019-04-05T13:02:05Z</time>
      </trkpt>
      <trkpt lat="45.16848" lon="6.1627">
        <ele>2711.5</ele>
        <time>2019-04-05T13:02:08Z</time>
      </trkpt>
      <trkpt lat="45.16863" lon="6.16268">
        <ele>2711.5</ele>
        <time>2019-04-05T13:02:12Z</time>
      </trkpt>
      <trkpt lat="45.16877" lon="6.1627">
        <ele>2714.5</ele>
        <time>2019-04-05T13:02:15Z</time>
      </trkpt>
      <trkpt lat="45.16889" lon="6.16271">
        <ele>2714.5</ele>
        <time>2019-04-05T13:02:17Z</time>
      </trkpt>
      <trkpt lat="45.16905" lon="6.16271">
        <ele>2715.5</ele>
        <time>2019-04-05T13:02:19Z</time>
      </trkpt>
      <trkpt lat="45.16916" lon="6.16272">
        <ele>2712.5</ele>
        <time>2019-04-05T13:02:21Z</time>
      </trkpt>
      <trkpt lat="45.16918" lon="6.16285">
        <ele>2705.5</ele>
        <time>2019-04-05T13:02:25Z</time>
      </trkpt>
      <trkpt lat="45.1692" lon="6.16297">
        <ele>2703.5</ele>
        <time>2019-04-05T13:02:49Z</time>
      </trkpt>
      <trkpt lat="45.16928" lon="6.16306">
        <ele>2708.5</ele>
        <time>2019-04-05T13:03:08Z</time>
      </trkpt>
      <trkpt lat="45.16934" lon="6.16318">
        <ele>2707.5</ele>
        <time>2019-04-05T13:03:22Z</time>
      </trkpt>
      <trkpt lat="45.16942" lon="6.16322">
        <ele>2706.5</ele>
        <time>2019-04-05T13:03:33Z</time>
      </trkpt>
      <trkpt lat="45.16952" lon="6.16323">
        <ele>2710.5</ele>
        <time>2019-04-05T13:03:46Z</time>
      </trkpt>
      <trkpt lat="45.1696" lon="6.16331">
        <ele>2705.5</ele>
        <time>2019-04-05T13:04:17Z</time>
      </trkpt>
      <trkpt lat="45.16969" lon="6.16337">
        <ele>2701.5</ele>
        <time>2019-04-05T13:04:29Z</time>
      </trkpt>
      <trkpt lat="45.16978" lon="6.16344">
        <ele>2699.5</ele>
        <time>2019-04-05T13:04:41Z</time>
      </trkpt>
      <trkpt lat="45.16986" lon="6.1635">
        <ele>2698.5</ele>
        <time>2019-04-05T13:04:46Z</time>
      </trkpt>
      <trkpt lat="45.16996" lon="6.16356">
        <ele>2697.5</ele>
        <time>2019-04-05T13:04:51Z</time>
      </trkpt>
      <trkpt lat="45.17006" lon="6.16364">
        <ele>2705.5</ele>
        <time>2019-04-05T13:05:04Z</time>
      </trkpt>
      <trkpt lat="45.17013" lon="6.16371">
        <ele>2710.5</ele>
        <time>2019-04-05T13:05:26Z</time>
      </trkpt>
      <trkpt lat="45.17023" lon="6.16371">
        <ele>2712.5</ele>
        <time>2019-04-05T13:05:37Z</time>
      </trkpt>
      <trkpt lat="45.17032" lon="6.16372">
        <ele>2705.5</ele>
        <time>2019-04-05T13:06:04Z</time>
      </trkpt>
      <trkpt lat="45.17041" lon="6.16373">
        <ele>2707.5</ele>
        <time>2019-04-05T13:06:36Z</time>
      </trkpt>
      <trkpt lat="45.1705" lon="6.16374">
        <ele>2702.5</ele>
        <time>2019-04-05T13:07:10Z</time>
      </trkpt>
      <trkpt lat="45.17059" lon="6.16377">
        <ele>2702.5</ele>
        <time>2019-04-05T13:07:43Z</time>
      </trkpt>
      <trkpt lat="45.17069" lon="6.16378">
        <ele>2706.5</ele>
        <time>2019-04-05T13:07:57Z</time>
      </trkpt>
      <trkpt lat="45.1708" lon="6.16374">
        <ele>2707.5</ele>
        <time>2019-04-05T13:08:15Z</time>
      </trkpt>
      <trkpt lat="45.17088" lon="6.16381">
        <ele>2707.5</ele>
        <time>2019-04-05T13:08:58Z</time>
      </trkpt>
      <trkpt lat="45.17098" lon="6.16381">
        <ele>2703.5</ele>
        <time>2019-04-05T13:09:15Z</time>
      </trkpt>
      <trkpt lat="45.17107" lon="6.16386">
        <ele>2719.5</ele>
        <time>2019-04-05T13:09:54Z</time>
      </trkpt>
      <trkpt lat="45.17115" lon="6.16393">
        <ele>2719.5</ele>
        <time>2019-04-05T13:11:01Z</time>
      </trkpt>
      <trkpt lat="45.17121" lon="6.16405">
        <ele>2718.5</ele>
        <time>2019-04-05T13:11:07Z</time>
      </trkpt>
      <trkpt lat="45.1713" lon="6.16413">
        <ele>2716.5</ele>
        <time>2019-04-05T13:11:13Z</time>
      </trkpt>
      <trkpt lat="45.17137" lon="6.16421">
        <ele>2716.5</ele>
        <time>2019-04-05T13:11:17Z</time>
      </trkpt>
      <trkpt lat="45.17146" lon="6.16428">
        <ele>2714.5</ele>
        <time>2019-04-05T13:11:20Z</time>
      </trkpt>
      <trkpt lat="45.17158" lon="6.16438">
        <ele>2714.5</ele>
        <time>2019-04-05T13:11:25Z</time>
      </trkpt>
      <trkpt lat="45.17167" lon="6.16445">
        <ele>2714.5</ele>
        <time>2019-04-05T13:11:30Z</time>
      </trkpt>
      <trkpt lat="45.17176" lon="6.1645">
        <ele>2715.5</ele>
        <time>2019-04-05T13:11:34Z</time>
      </trkpt>
      <trkpt lat="45.17184" lon="6.16454">
        <ele>2709.5</ele>
        <time>2019-04-05T13:11:39Z</time>
      </trkpt>
      <trkpt lat="45.17174" lon="6.16454">
        <ele>2700.5</ele>
        <time>2019-04-05T13:13:20Z</time>
      </trkpt>
      <trkpt lat="45.17184" lon="6.16456">
        <ele>2702.5</ele>
        <time>2019-04-05T13:13:52Z</time>
      </trkpt>
      <trkpt lat="45.17194" lon="6.16463">
        <ele>2706.5</ele>
        <time>2019-04-05T13:13:58Z</time>
      </trkpt>
      <trkpt lat="45.17204" lon="6.16474">
        <ele>2706.5</ele>
        <time>2019-04-05T13:14:02Z</time>
      </trkpt>
      <trkpt lat="45.17216" lon="6.16483">
        <ele>2703.5</ele>
        <time>2019-04-05T13:14:05Z</time>
      </trkpt>
      <trkpt lat="45.17224" lon="6.16493">
        <ele>2698.5</ele>
        <time>2019-04-05T13:14:08Z</time>
      </trkpt>
      <trkpt lat="45.17231" lon="6.16504">
        <ele>2696.5</ele>
        <time>2019-04-05T13:14:11Z</time>
      </trkpt>
      <trkpt lat="45.17239" lon="6.16518">
        <ele>2695.5</ele>
        <time>2019-04-05T13:14:14Z</time>
      </trkpt>
      <trkpt lat="45.17244" lon="6.1653">
        <ele>2693.5</ele>
        <time>2019-04-05T13:14:17Z</time>
      </trkpt>
      <trkpt lat="45.1725" lon="6.16542">
        <ele>2695.5</ele>
        <time>2019-04-05T13:14:19Z</time>
      </trkpt>
      <trkpt lat="45.17254" lon="6.16556">
        <ele>2694.5</ele>
        <time>2019-04-05T13:14:22Z</time>
      </trkpt>
      <trkpt lat="45.17261" lon="6.16567">
        <ele>2692.5</ele>
        <time>2019-04-05T13:14:26Z</time>
      </trkpt>
      <trkpt lat="45.17266" lon="6.16579">
        <ele>2690.5</ele>
        <time>2019-04-05T13:14:30Z</time>
      </trkpt>
      <trkpt lat="45.17275" lon="6.16586">
        <ele>2693.5</ele>
        <time>2019-04-05T13:14:38Z</time>
      </trkpt>
      <trkpt lat="45.17284" lon="6.16591">
        <ele>2691.5</ele>
        <time>2019-04-05T13:14:51Z</time>
      </trkpt>
      <trkpt lat="45.17291" lon="6.16599">
        <ele>2694.5</ele>
        <time>2019-04-05T13:15:04Z</time>
      </trkpt>
      <trkpt lat="45.17299" lon="6.16606">
        <ele>2686.5</ele>
        <time>2019-04-05T13:15:24Z</time>
      </trkpt>
      <trkpt lat="45.17309" lon="6.16608">
        <ele>2686.5</ele>
        <time>2019-04-05T13:15:38Z</time>
      </trkpt>
      <trkpt lat="45.17318" lon="6.16612">
        <ele>2686.5</ele>
        <time>2019-04-05T13:15:59Z</time>
      </trkpt>
      <trkpt lat="45.17326" lon="6.16617">
        <ele>2686.5</ele>
        <time>2019-04-05T13:16:17Z</time>
      </trkpt>
      <trkpt lat="45.17334" lon="6.16625">
        <ele>2695.5</ele>
        <time>2019-04-05T13:16:28Z</time>
      </trkpt>
      <trkpt lat="45.17339" lon="6.16636">
        <ele>2687.5</ele>
        <time>2019-04-05T13:17:01Z</time>
      </trkpt>
      <trkpt lat="45.17348" lon="6.16637">
        <ele>2688.5</ele>
        <time>2019-04-05T13:17:21Z</time>
      </trkpt>
      <trkpt lat="45.17358" lon="6.16638">
        <ele>2689.5</ele>
        <time>2019-04-05T13:17:34Z</time>
      </trkpt>
      <trkpt lat="45.17365" lon="6.16647">
        <ele>2689.5</ele>
        <time>2019-04-05T13:17:48Z</time>
      </trkpt>
      <trkpt lat="45.17371" lon="6.16657">
        <ele>2687.5</ele>
        <time>2019-04-05T13:18:15Z</time>
      </trkpt>
      <trkpt lat="45.17379" lon="6.16666">
        <ele>2688.5</ele>
        <time>2019-04-05T13:18:40Z</time>
      </trkpt>
      <trkpt lat="45.17388" lon="6.16666">
        <ele>2683.5</ele>
        <time>2019-04-05T13:19:05Z</time>
      </trkpt>
      <trkpt lat="45.17397" lon="6.16671">
        <ele>2683.5</ele>
        <time>2019-04-05T13:19:17Z</time>
      </trkpt>
      <trkpt lat="45.17407" lon="6.16672">
        <ele>2688.5</ele>
        <time>2019-04-05T13:19:30Z</time>
      </trkpt>
      <trkpt lat="45.17415" lon="6.16679">
        <ele>2690.5</ele>
        <time>2019-04-05T13:19:47Z</time>
      </trkpt>
      <trkpt lat="45.17426" lon="6.16678">
        <ele>2687.5</ele>
        <time>2019-04-05T13:20:10Z</time>
      </trkpt>
      <trkpt lat="45.17429" lon="6.16691">
        <ele>2689.5</ele>
        <time>2019-04-05T13:20:36Z</time>
      </trkpt>
      <trkpt lat="45.17439" lon="6.16694">
        <ele>2690.5</ele>
        <time>2019-04-05T13:21:18Z</time>
      </trkpt>
      <trkpt lat="45.17448" lon="6.16697">
        <ele>2682.5</ele>
        <time>2019-04-05T13:21:42Z</time>
      </trkpt>
      <trkpt lat="45.17458" lon="6.16696">
        <ele>2685.5</ele>
        <time>2019-04-05T13:22:11Z</time>
      </trkpt>
      <trkpt lat="45.17467" lon="6.16692">
        <ele>2689.5</ele>
        <time>2019-04-05T13:22:36Z</time>
      </trkpt>
      <trkpt lat="45.17476" lon="6.16684">
        <ele>2689.5</ele>
        <time>2019-04-05T13:23:03Z</time>
      </trkpt>
      <trkpt lat="45.17486" lon="6.16681">
        <ele>2681.5</ele>
        <time>2019-04-05T13:23:11Z</time>
      </trkpt>
      <trkpt lat="45.17497" lon="6.16676">
        <ele>2681.5</ele>
        <time>2019-04-05T13:23:14Z</time>
      </trkpt>
      <trkpt lat="45.17509" lon="6.1668">
        <ele>2679.5</ele>
        <time>2019-04-05T13:23:18Z</time>
      </trkpt>
      <trkpt lat="45.17519" lon="6.16681">
        <ele>2677.5</ele>
        <time>2019-04-05T13:23:22Z</time>
      </trkpt>
      <trkpt lat="45.17529" lon="6.1668">
        <ele>2676.5</ele>
        <time>2019-04-05T13:23:28Z</time>
      </trkpt>
      <trkpt lat="45.17541" lon="6.16678">
        <ele>2672.5</ele>
        <time>2019-04-05T13:23:51Z</time>
      </trkpt>
      <trkpt lat="45.1755" lon="6.16677">
        <ele>2672.5</ele>
        <time>2019-04-05T13:23:56Z</time>
      </trkpt>
      <trkpt lat="45.17561" lon="6.16681">
        <ele>2674.5</ele>
        <time>2019-04-05T13:24:03Z</time>
      </trkpt>
      <trkpt lat="45.17572" lon="6.16681">
        <ele>2674.5</ele>
        <time>2019-04-05T13:24:07Z</time>
      </trkpt>
      <trkpt lat="45.17583" lon="6.16679">
        <ele>2672.5</ele>
        <time>2019-04-05T13:24:11Z</time>
      </trkpt>
      <trkpt lat="45.17594" lon="6.16684">
        <ele>2670.5</ele>
        <time>2019-04-05T13:24:15Z</time>
      </trkpt>
      <trkpt lat="45.17604" lon="6.1669">
        <ele>2666.5</ele>
        <time>2019-04-05T13:24:20Z</time>
      </trkpt>
      <trkpt lat="45.17613" lon="6.16696">
        <ele>2663.5</ele>
        <time>2019-04-05T13:24:24Z</time>
      </trkpt>
      <trkpt lat="45.17623" lon="6.16704">
        <ele>2661.5</ele>
        <time>2019-04-05T13:24:28Z</time>
      </trkpt>
      <trkpt lat="45.17634" lon="6.16709">
        <ele>2657.5</ele>
        <time>2019-04-05T13:24:31Z</time>
      </trkpt>
      <trkpt lat="45.17645" lon="6.16715">
        <ele>2659.5</ele>
        <time>2019-04-05T13:24:34Z</time>
      </trkpt>
      <trkpt lat="45.17654" lon="6.16721">
        <ele>2657.5</ele>
        <time>2019-04-05T13:24:37Z</time>
      </trkpt>
      <trkpt lat="45.17663" lon="6.16726">
        <ele>2655.5</ele>
        <time>2019-04-05T13:24:40Z</time>
      </trkpt>
      <trkpt lat="45.17674" lon="6.16731">
        <ele>2651.5</ele>
        <time>2019-04-05T13:24:45Z</time>
      </trkpt>
      <trkpt lat="45.17684" lon="6.16738">
        <ele>2652.5</ele>
        <time>2019-04-05T13:24:49Z</time>
      </trkpt>
      <trkpt lat="45.17696" lon="6.16746">
        <ele>2648.5</ele>
        <time>2019-04-05T13:24:53Z</time>
      </trkpt>
      <trkpt lat="45.17703" lon="6.16754">
        <ele>2648.5</ele>
        <time>2019-04-05T13:24:56Z</time>
      </trkpt>
      <trkpt lat="45.17712" lon="6.16759">
        <ele>2649.5</ele>
        <time>2019-04-05T13:24:59Z</time>
      </trkpt>
      <trkpt lat="45.17721" lon="6.16765">
        <ele>2645.5</ele>
        <time>2019-04-05T13:25:02Z</time>
      </trkpt>
      <trkpt lat="45.17731" lon="6.16774">
        <ele>2644.5</ele>
        <time>2019-04-05T13:25:04Z</time>
      </trkpt>
      <trkpt lat="45.17743" lon="6.16787">
        <ele>2639.5</ele>
        <time>2019-04-05T13:25:06Z</time>
      </trkpt>
      <trkpt lat="45.17757" lon="6.16801">
        <ele>2633.5</ele>
        <time>2019-04-05T13:25:08Z</time>
      </trkpt>
      <trkpt lat="45.17771" lon="6.16817">
        <ele>2631.5</ele>
        <time>2019-04-05T13:25:10Z</time>
      </trkpt>
      <trkpt lat="45.17785" lon="6.16828">
        <ele>2627.5</ele>
        <time>2019-04-05T13:25:12Z</time>
      </trkpt>
      <trkpt lat="45.17794" lon="6.16835">
        <ele>2627.5</ele>
        <time>2019-04-05T13:25:13Z</time>
      </trkpt>
      <trkpt lat="45.17802" lon="6.16844">
        <ele>2625.5</ele>
        <time>2019-04-05T13:25:14Z</time>
      </trkpt>
      <trkpt lat="45.17811" lon="6.16851">
        <ele>2623.5</ele>
        <time>2019-04-05T13:25:15Z</time>
      </trkpt>
      <trkpt lat="45.1782" lon="6.16858">
        <ele>2623.5</ele>
        <time>2019-04-05T13:25:16Z</time>
      </trkpt>
      <trkpt lat="45.17834" lon="6.16869">
        <ele>2622.5</ele>
        <time>2019-04-05T13:25:18Z</time>
      </trkpt>
      <trkpt lat="45.1785" lon="6.1688">
        <ele>2623.5</ele>
        <time>2019-04-05T13:25:20Z</time>
      </trkpt>
      <trkpt lat="45.1786" lon="6.16892">
        <ele>2620.5</ele>
        <time>2019-04-05T13:25:22Z</time>
      </trkpt>
      <trkpt lat="45.17867" lon="6.16905">
        <ele>2619.5</ele>
        <time>2019-04-05T13:25:24Z</time>
      </trkpt>
      <trkpt lat="45.17874" lon="6.16919">
        <ele>2617.5</ele>
        <time>2019-04-05T13:25:26Z</time>
      </trkpt>
      <trkpt lat="45.17878" lon="6.1693">
        <ele>2615.5</ele>
        <time>2019-04-05T13:25:28Z</time>
      </trkpt>
      <trkpt lat="45.17881" lon="6.16946">
        <ele>2616.5</ele>
        <time>2019-04-05T13:25:31Z</time>
      </trkpt>
      <trkpt lat="45.17891" lon="6.16952">
        <ele>2604.5</ele>
        <time>2019-04-05T13:26:45Z</time>
      </trkpt>
      <trkpt lat="45.17901" lon="6.16959">
        <ele>2603.5</ele>
        <time>2019-04-05T13:26:49Z</time>
      </trkpt>
      <trkpt lat="45.17912" lon="6.16967">
        <ele>2601.5</ele>
        <time>2019-04-05T13:26:52Z</time>
      </trkpt>
      <trkpt lat="45.17921" lon="6.16973">
        <ele>2599.5</ele>
        <time>2019-04-05T13:26:54Z</time>
      </trkpt>
      <trkpt lat="45.1793" lon="6.16979">
        <ele>2596.5</ele>
        <time>2019-04-05T13:26:56Z</time>
      </trkpt>
      <trkpt lat="45.1794" lon="6.16985">
        <ele>2594.5</ele>
        <time>2019-04-05T13:26:58Z</time>
      </trkpt>
      <trkpt lat="45.17951" lon="6.16992">
        <ele>2592.5</ele>
        <time>2019-04-05T13:27:00Z</time>
      </trkpt>
      <trkpt lat="45.1796" lon="6.16998">
        <ele>2589.5</ele>
        <time>2019-04-05T13:27:02Z</time>
      </trkpt>
      <trkpt lat="45.17972" lon="6.17006">
        <ele>2585.5</ele>
        <time>2019-04-05T13:27:05Z</time>
      </trkpt>
      <trkpt lat="45.17982" lon="6.17008">
        <ele>2582.5</ele>
        <time>2019-04-05T13:27:07Z</time>
      </trkpt>
      <trkpt lat="45.17991" lon="6.17013">
        <ele>2580.5</ele>
        <time>2019-04-05T13:27:09Z</time>
      </trkpt>
      <trkpt lat="45.18002" lon="6.17019">
        <ele>2578.5</ele>
        <time>2019-04-05T13:27:12Z</time>
      </trkpt>
      <trkpt lat="45.18011" lon="6.17025">
        <ele>2578.5</ele>
        <time>2019-04-05T13:27:15Z</time>
      </trkpt>
      <trkpt lat="45.18021" lon="6.17028">
        <ele>2578.5</ele>
        <time>2019-04-05T13:27:18Z</time>
      </trkpt>
      <trkpt lat="45.1803" lon="6.17034">
        <ele>2574.5</ele>
        <time>2019-04-05T13:27:35Z</time>
      </trkpt>
      <trkpt lat="45.1804" lon="6.17036">
        <ele>2570.5</ele>
        <time>2019-04-05T13:27:38Z</time>
      </trkpt>
      <trkpt lat="45.18052" lon="6.17039">
        <ele>2566.5</ele>
        <time>2019-04-05T13:27:40Z</time>
      </trkpt>
      <trkpt lat="45.18065" lon="6.17044">
        <ele>2563.5</ele>
        <time>2019-04-05T13:27:42Z</time>
      </trkpt>
      <trkpt lat="45.18077" lon="6.1705">
        <ele>2560.5</ele>
        <time>2019-04-05T13:27:44Z</time>
      </trkpt>
      <trkpt lat="45.18089" lon="6.17052">
        <ele>2557.5</ele>
        <time>2019-04-05T13:27:46Z</time>
      </trkpt>
      <trkpt lat="45.18102" lon="6.17054">
        <ele>2554.5</ele>
        <time>2019-04-05T13:27:48Z</time>
      </trkpt>
      <trkpt lat="45.18116" lon="6.1706">
        <ele>2553.5</ele>
        <time>2019-04-05T13:27:50Z</time>
      </trkpt>
      <trkpt lat="45.18126" lon="6.17066">
        <ele>2551.5</ele>
        <time>2019-04-05T13:27:52Z</time>
      </trkpt>
      <trkpt lat="45.18136" lon="6.17071">
        <ele>2549.5</ele>
        <time>2019-04-05T13:27:54Z</time>
      </trkpt>
      <trkpt lat="45.18148" lon="6.17076">
        <ele>2548.5</ele>
        <time>2019-04-05T13:27:56Z</time>
      </trkpt>
      <trkpt lat="45.1816" lon="6.17082">
        <ele>2544.5</ele>
        <time>2019-04-05T13:27:59Z</time>
      </trkpt>
      <trkpt lat="45.18172" lon="6.17083">
        <ele>2542.5</ele>
        <time>2019-04-05T13:28:01Z</time>
      </trkpt>
      <trkpt lat="45.18185" lon="6.17086">
        <ele>2540.5</ele>
        <time>2019-04-05T13:28:04Z</time>
      </trkpt>
      <trkpt lat="45.18199" lon="6.17092">
        <ele>2535.5</ele>
        <time>2019-04-05T13:28:07Z</time>
      </trkpt>
      <trkpt lat="45.18211" lon="6.17098">
        <ele>2535.5</ele>
        <time>2019-04-05T13:28:09Z</time>
      </trkpt>
      <trkpt lat="45.18226" lon="6.17103">
        <ele>2532.5</ele>
        <time>2019-04-05T13:28:11Z</time>
      </trkpt>
      <trkpt lat="45.18241" lon="6.17103">
        <ele>2530.5</ele>
        <time>2019-04-05T13:28:13Z</time>
      </trkpt>
      <trkpt lat="45.1825" lon="6.17104">
        <ele>2529.5</ele>
        <time>2019-04-05T13:28:14Z</time>
      </trkpt>
      <trkpt lat="45.18266" lon="6.17109">
        <ele>2526.5</ele>
        <time>2019-04-05T13:28:16Z</time>
      </trkpt>
      <trkpt lat="45.18283" lon="6.17114">
        <ele>2527.5</ele>
        <time>2019-04-05T13:28:18Z</time>
      </trkpt>
      <trkpt lat="45.18298" lon="6.17121">
        <ele>2525.5</ele>
        <time>2019-04-05T13:28:20Z</time>
      </trkpt>
      <trkpt lat="45.18313" lon="6.17128">
        <ele>2523.5</ele>
        <time>2019-04-05T13:28:22Z</time>
      </trkpt>
      <trkpt lat="45.18325" lon="6.17135">
        <ele>2522.5</ele>
        <time>2019-04-05T13:28:24Z</time>
      </trkpt>
      <trkpt lat="45.18336" lon="6.17142">
        <ele>2522.5</ele>
        <time>2019-04-05T13:28:26Z</time>
      </trkpt>
      <trkpt lat="45.18346" lon="6.17149">
        <ele>2521.5</ele>
        <time>2019-04-05T13:28:29Z</time>
      </trkpt>
      <trkpt lat="45.18355" lon="6.17156">
        <ele>2518.5</ele>
        <time>2019-04-05T13:28:33Z</time>
      </trkpt>
      <trkpt lat="45.18364" lon="6.17162">
        <ele>2519.5</ele>
        <time>2019-04-05T13:28:39Z</time>
      </trkpt>
      <trkpt lat="45.18373" lon="6.17167">
        <ele>2514.5</ele>
        <time>2019-04-05T13:28:45Z</time>
      </trkpt>
      <trkpt lat="45.18382" lon="6.17173">
        <ele>2516.5</ele>
        <time>2019-04-05T13:28:51Z</time>
      </trkpt>
      <trkpt lat="45.18392" lon="6.17178">
        <ele>2516.5</ele>
        <time>2019-04-05T13:28:56Z</time>
      </trkpt>
      <trkpt lat="45.18402" lon="6.17184">
        <ele>2514.5</ele>
        <time>2019-04-05T13:29:03Z</time>
      </trkpt>
      <trkpt lat="45.18412" lon="6.17191">
        <ele>2515.5</ele>
        <time>2019-04-05T13:29:08Z</time>
      </trkpt>
      <trkpt lat="45.1842" lon="6.17196">
        <ele>2513.5</ele>
        <time>2019-04-05T13:29:16Z</time>
      </trkpt>
      <trkpt lat="45.18428" lon="6.17203">
        <ele>2513.5</ele>
        <time>2019-04-05T13:29:30Z</time>
      </trkpt>
      <trkpt lat="45.18438" lon="6.17208">
        <ele>2512.5</ele>
        <time>2019-04-05T13:29:42Z</time>
      </trkpt>
      <trkpt lat="45.18447" lon="6.17209">
        <ele>2514.5</ele>
        <time>2019-04-05T13:29:47Z</time>
      </trkpt>
      <trkpt lat="45.18455" lon="6.17217">
        <ele>2513.5</ele>
        <time>2019-04-05T13:29:57Z</time>
      </trkpt>
      <trkpt lat="45.18463" lon="6.17224">
        <ele>2515.5</ele>
        <time>2019-04-05T13:30:05Z</time>
      </trkpt>
      <trkpt lat="45.18473" lon="6.17224">
        <ele>2516.5</ele>
        <time>2019-04-05T13:30:11Z</time>
      </trkpt>
      <trkpt lat="45.18482" lon="6.17231">
        <ele>2513.5</ele>
        <time>2019-04-05T13:30:22Z</time>
      </trkpt>
      <trkpt lat="45.18491" lon="6.17236">
        <ele>2518.5</ele>
        <time>2019-04-05T13:30:30Z</time>
      </trkpt>
      <trkpt lat="45.18498" lon="6.17243">
        <ele>2511.5</ele>
        <time>2019-04-05T13:30:42Z</time>
      </trkpt>
      <trkpt lat="45.18507" lon="6.17249">
        <ele>2508.5</ele>
        <time>2019-04-05T13:30:51Z</time>
      </trkpt>
      <trkpt lat="45.18517" lon="6.17251">
        <ele>2513.5</ele>
        <time>2019-04-05T13:31:00Z</time>
      </trkpt>
      <trkpt lat="45.18526" lon="6.17254">
        <ele>2510.5</ele>
        <time>2019-04-05T13:31:10Z</time>
      </trkpt>
      <trkpt lat="45.18536" lon="6.17254">
        <ele>2508.5</ele>
        <time>2019-04-05T13:31:22Z</time>
      </trkpt>
      <trkpt lat="45.18545" lon="6.17257">
        <ele>2508.5</ele>
        <time>2019-04-05T13:31:43Z</time>
      </trkpt>
      <trkpt lat="45.18554" lon="6.17262">
        <ele>2506.5</ele>
        <time>2019-04-05T13:31:59Z</time>
      </trkpt>
      <trkpt lat="45.18563" lon="6.17267">
        <ele>2511.5</ele>
        <time>2019-04-05T13:32:24Z</time>
      </trkpt>
      <trkpt lat="45.18573" lon="6.1727">
        <ele>2509.5</ele>
        <time>2019-04-05T13:32:38Z</time>
      </trkpt>
      <trkpt lat="45.18579" lon="6.17278">
        <ele>2509.5</ele>
        <time>2019-04-05T13:32:52Z</time>
      </trkpt>
      <trkpt lat="45.18589" lon="6.17279">
        <ele>2514.5</ele>
        <time>2019-04-05T13:33:02Z</time>
      </trkpt>
      <trkpt lat="45.18596" lon="6.17288">
        <ele>2514.5</ele>
        <time>2019-04-05T13:33:26Z</time>
      </trkpt>
      <trkpt lat="45.18607" lon="6.1729">
        <ele>2512.5</ele>
        <time>2019-04-05T13:33:39Z</time>
      </trkpt>
      <trkpt lat="45.18616" lon="6.17292">
        <ele>2510.5</ele>
        <time>2019-04-05T13:33:49Z</time>
      </trkpt>
      <trkpt lat="45.18626" lon="6.17295">
        <ele>2510.5</ele>
        <time>2019-04-05T13:33:58Z</time>
      </trkpt>
      <trkpt lat="45.18634" lon="6.173">
        <ele>2508.5</ele>
        <time>2019-04-05T13:34:10Z</time>
      </trkpt>
      <trkpt lat="45.18644" lon="6.17302">
        <ele>2508.5</ele>
        <time>2019-04-05T13:34:34Z</time>
      </trkpt>
      <trkpt lat="45.18653" lon="6.17301">
        <ele>2508.5</ele>
        <time>2019-04-05T13:34:47Z</time>
      </trkpt>
      <trkpt lat="45.18662" lon="6.17303">
        <ele>2510.5</ele>
        <time>2019-04-05T13:34:59Z</time>
      </trkpt>
      <trkpt lat="45.18672" lon="6.17305">
        <ele>2510.5</ele>
        <time>2019-04-05T13:35:15Z</time>
      </trkpt>
      <trkpt lat="45.18682" lon="6.17304">
        <ele>2512.5</ele>
        <time>2019-04-05T13:35:30Z</time>
      </trkpt>
      <trkpt lat="45.18691" lon="6.17305">
        <ele>2512.5</ele>
        <time>2019-04-05T13:35:56Z</time>
      </trkpt>
      <trkpt lat="45.18701" lon="6.17303">
        <ele>2517.5</ele>
        <time>2019-04-05T13:36:17Z</time>
      </trkpt>
      <trkpt lat="45.18709" lon="6.17297">
        <ele>2511.5</ele>
        <time>2019-04-05T13:36:37Z</time>
      </trkpt>
      <trkpt lat="45.18719" lon="6.17297">
        <ele>2513.5</ele>
        <time>2019-04-05T13:37:02Z</time>
      </trkpt>
      <trkpt lat="45.18728" lon="6.173">
        <ele>2512.5</ele>
        <time>2019-04-05T13:37:22Z</time>
      </trkpt>
      <trkpt lat="45.18738" lon="6.17299">
        <ele>2511.5</ele>
        <time>2019-04-05T13:37:41Z</time>
      </trkpt>
      <trkpt lat="45.18748" lon="6.17298">
        <ele>2514.5</ele>
        <time>2019-04-05T13:38:02Z</time>
      </trkpt>
      <trkpt lat="45.18755" lon="6.17304">
        <ele>2519.5</ele>
        <time>2019-04-05T13:38:25Z</time>
      </trkpt>
      <trkpt lat="45.18765" lon="6.17308">
        <ele>2520.5</ele>
        <time>2019-04-05T13:38:47Z</time>
      </trkpt>
      <trkpt lat="45.18774" lon="6.17311">
        <ele>2518.5</ele>
        <time>2019-04-05T13:39:05Z</time>
      </trkpt>
      <trkpt lat="45.18783" lon="6.17316">
        <ele>2518.5</ele>
        <time>2019-04-05T13:39:15Z</time>
      </trkpt>
      <trkpt lat="45.18792" lon="6.17322">
        <ele>2512.5</ele>
        <time>2019-04-05T13:39:26Z</time>
      </trkpt>
      <trkpt lat="45.18801" lon="6.17326">
        <ele>2516.5</ele>
        <time>2019-04-05T13:39:34Z</time>
      </trkpt>
      <trkpt lat="45.18808" lon="6.17334">
        <ele>2518.5</ele>
        <time>2019-04-05T13:39:41Z</time>
      </trkpt>
      <trkpt lat="45.18817" lon="6.17338">
        <ele>2517.5</ele>
        <time>2019-04-05T13:39:46Z</time>
      </trkpt>
      <trkpt lat="45.18826" lon="6.17341">
        <ele>2516.5</ele>
        <time>2019-04-05T13:39:50Z</time>
      </trkpt>
      <trkpt lat="45.18834" lon="6.17349">
        <ele>2514.5</ele>
        <time>2019-04-05T13:39:54Z</time>
      </trkpt>
      <trkpt lat="45.18842" lon="6.17357">
        <ele>2514.5</ele>
        <time>2019-04-05T13:40:04Z</time>
      </trkpt>
      <trkpt lat="45.18849" lon="6.17367">
        <ele>2515.5</ele>
        <time>2019-04-05T13:40:15Z</time>
      </trkpt>
      <trkpt lat="45.18856" lon="6.17375">
        <ele>2511.5</ele>
        <time>2019-04-05T13:40:34Z</time>
      </trkpt>
      <trkpt lat="45.18862" lon="6.17385">
        <ele>2512.5</ele>
        <time>2019-04-05T13:40:48Z</time>
      </trkpt>
      <trkpt lat="45.1887" lon="6.17389">
        <ele>2515.5</ele>
        <time>2019-04-05T13:41:15Z</time>
      </trkpt>
      <trkpt lat="45.18874" lon="6.17401">
        <ele>2518.5</ele>
        <time>2019-04-05T13:41:33Z</time>
      </trkpt>
      <trkpt lat="45.18884" lon="6.17406">
        <ele>2521.5</ele>
        <time>2019-04-05T13:42:11Z</time>
      </trkpt>
      <trkpt lat="45.18891" lon="6.17414">
        <ele>2519.5</ele>
        <time>2019-04-05T13:42:16Z</time>
      </trkpt>
      <trkpt lat="45.18899" lon="6.17421">
        <ele>2516.5</ele>
        <time>2019-04-05T13:42:19Z</time>
      </trkpt>
      <trkpt lat="45.18908" lon="6.17426">
        <ele>2519.5</ele>
        <time>2019-04-05T13:42:21Z</time>
      </trkpt>
      <trkpt lat="45.18922" lon="6.17428">
        <ele>2518.5</ele>
        <time>2019-04-05T13:42:24Z</time>
      </trkpt>
      <trkpt lat="45.18932" lon="6.17432">
        <ele>2517.5</ele>
        <time>2019-04-05T13:42:26Z</time>
      </trkpt>
      <trkpt lat="45.18943" lon="6.17438">
        <ele>2506.5</ele>
        <time>2019-04-05T13:43:02Z</time>
      </trkpt>
      <trkpt lat="45.18953" lon="6.17438">
        <ele>2505.5</ele>
        <time>2019-04-05T13:43:05Z</time>
      </trkpt>
      <trkpt lat="45.18963" lon="6.17435">
        <ele>2501.5</ele>
        <time>2019-04-05T13:43:09Z</time>
      </trkpt>
      <trkpt lat="45.18972" lon="6.17433">
        <ele>2499.5</ele>
        <time>2019-04-05T13:43:12Z</time>
      </trkpt>
      <trkpt lat="45.18986" lon="6.17427">
        <ele>2494.5</ele>
        <time>2019-04-05T13:43:15Z</time>
      </trkpt>
      <trkpt lat="45.18997" lon="6.17422">
        <ele>2491.5</ele>
        <time>2019-04-05T13:43:17Z</time>
      </trkpt>
      <trkpt lat="45.1901" lon="6.17417">
        <ele>2491.5</ele>
        <time>2019-04-05T13:43:19Z</time>
      </trkpt>
      <trkpt lat="45.19022" lon="6.17415">
        <ele>2488.5</ele>
        <time>2019-04-05T13:43:21Z</time>
      </trkpt>
      <trkpt lat="45.19038" lon="6.1741">
        <ele>2486.5</ele>
        <time>2019-04-05T13:43:23Z</time>
      </trkpt>
      <trkpt lat="45.1905" lon="6.17404">
        <ele>2485.5</ele>
        <time>2019-04-05T13:43:25Z</time>
      </trkpt>
      <trkpt lat="45.1906" lon="6.174">
        <ele>2482.5</ele>
        <time>2019-04-05T13:43:27Z</time>
      </trkpt>
      <trkpt lat="45.1907" lon="6.17396">
        <ele>2480.5</ele>
        <time>2019-04-05T13:43:29Z</time>
      </trkpt>
      <trkpt lat="45.1908" lon="6.17392">
        <ele>2480.5</ele>
        <time>2019-04-05T13:43:31Z</time>
      </trkpt>
      <trkpt lat="45.1909" lon="6.17384">
        <ele>2479.5</ele>
        <time>2019-04-05T13:43:33Z</time>
      </trkpt>
      <trkpt lat="45.191" lon="6.17376">
        <ele>2479.5</ele>
        <time>2019-04-05T13:43:35Z</time>
      </trkpt>
      <trkpt lat="45.19109" lon="6.1737">
        <ele>2477.5</ele>
        <time>2019-04-05T13:43:37Z</time>
      </trkpt>
      <trkpt lat="45.19117" lon="6.17363">
        <ele>2475.5</ele>
        <time>2019-04-05T13:43:41Z</time>
      </trkpt>
      <trkpt lat="45.19124" lon="6.17355">
        <ele>2471.5</ele>
        <time>2019-04-05T13:44:01Z</time>
      </trkpt>
      <trkpt lat="45.19132" lon="6.17348">
        <ele>2470.5</ele>
        <time>2019-04-05T13:44:08Z</time>
      </trkpt>
      <trkpt lat="45.19139" lon="6.1734">
        <ele>2471.5</ele>
        <time>2019-04-05T13:44:23Z</time>
      </trkpt>
      <trkpt lat="45.19148" lon="6.17334">
        <ele>2471.5</ele>
        <time>2019-04-05T13:44:46Z</time>
      </trkpt>
      <trkpt lat="45.19159" lon="6.17332">
        <ele>2469.5</ele>
        <time>2019-04-05T13:44:54Z</time>
      </trkpt>
      <trkpt lat="45.19171" lon="6.1733">
        <ele>2469.5</ele>
        <time>2019-04-05T13:44:57Z</time>
      </trkpt>
      <trkpt lat="45.19182" lon="6.17328">
        <ele>2470.5</ele>
        <time>2019-04-05T13:45:01Z</time>
      </trkpt>
      <trkpt lat="45.19191" lon="6.17326">
        <ele>2470.5</ele>
        <time>2019-04-05T13:45:17Z</time>
      </trkpt>
      <trkpt lat="45.192" lon="6.17327">
        <ele>2472.5</ele>
        <time>2019-04-05T13:45:30Z</time>
      </trkpt>
      <trkpt lat="45.1921" lon="6.17328">
        <ele>2470.5</ele>
        <time>2019-04-05T13:45:37Z</time>
      </trkpt>
      <trkpt lat="45.19219" lon="6.17336">
        <ele>2468.5</ele>
        <time>2019-04-05T13:45:56Z</time>
      </trkpt>
      <trkpt lat="45.19229" lon="6.17336">
        <ele>2466.5</ele>
        <time>2019-04-05T13:46:05Z</time>
      </trkpt>
      <trkpt lat="45.19238" lon="6.17337">
        <ele>2466.5</ele>
        <time>2019-04-05T13:46:13Z</time>
      </trkpt>
      <trkpt lat="45.19248" lon="6.17336">
        <ele>2467.5</ele>
        <time>2019-04-05T13:46:27Z</time>
      </trkpt>
      <trkpt lat="45.19258" lon="6.17338">
        <ele>2473.5</ele>
        <time>2019-04-05T13:46:31Z</time>
      </trkpt>
      <trkpt lat="45.19268" lon="6.17342">
        <ele>2468.5</ele>
        <time>2019-04-05T13:46:48Z</time>
      </trkpt>
      <trkpt lat="45.19277" lon="6.17346">
        <ele>2469.5</ele>
        <time>2019-04-05T13:47:03Z</time>
      </trkpt>
      <trkpt lat="45.19286" lon="6.17347">
        <ele>2469.5</ele>
        <time>2019-04-05T13:47:13Z</time>
      </trkpt>
      <trkpt lat="45.19296" lon="6.17349">
        <ele>2471.5</ele>
        <time>2019-04-05T13:47:24Z</time>
      </trkpt>
      <trkpt lat="45.19305" lon="6.17351">
        <ele>2472.5</ele>
        <time>2019-04-05T13:47:35Z</time>
      </trkpt>
      <trkpt lat="45.19314" lon="6.17357">
        <ele>2471.5</ele>
        <time>2019-04-05T13:47:51Z</time>
      </trkpt>
      <trkpt lat="45.19323" lon="6.17355">
        <ele>2470.5</ele>
        <time>2019-04-05T13:48:01Z</time>
      </trkpt>
      <trkpt lat="45.19332" lon="6.17354">
        <ele>2468.5</ele>
        <time>2019-04-05T13:48:13Z</time>
      </trkpt>
      <trkpt lat="45.19342" lon="6.17357">
        <ele>2467.5</ele>
        <time>2019-04-05T13:48:26Z</time>
      </trkpt>
      <trkpt lat="45.1935" lon="6.17362">
        <ele>2467.5</ele>
        <time>2019-04-05T13:48:37Z</time>
      </trkpt>
      <trkpt lat="45.1936" lon="6.17365">
        <ele>2466.5</ele>
        <time>2019-04-05T13:48:53Z</time>
      </trkpt>
      <trkpt lat="45.19368" lon="6.17373">
        <ele>2468.5</ele>
        <time>2019-04-05T13:49:01Z</time>
      </trkpt>
      <trkpt lat="45.19377" lon="6.17379">
        <ele>2469.5</ele>
        <time>2019-04-05T13:49:15Z</time>
      </trkpt>
      <trkpt lat="45.19385" lon="6.1737">
        <ele>2465.5</ele>
        <time>2019-04-05T13:49:24Z</time>
      </trkpt>
      <trkpt lat="45.19395" lon="6.17366">
        <ele>2460.5</ele>
        <time>2019-04-05T13:49:34Z</time>
      </trkpt>
      <trkpt lat="45.19401" lon="6.17377">
        <ele>2466.5</ele>
        <time>2019-04-05T13:49:45Z</time>
      </trkpt>
      <trkpt lat="45.19408" lon="6.17386">
        <ele>2470.5</ele>
        <time>2019-04-05T13:50:08Z</time>
      </trkpt>
      <trkpt lat="45.19417" lon="6.17392">
        <ele>2471.5</ele>
        <time>2019-04-05T13:50:35Z</time>
      </trkpt>
      <trkpt lat="45.19423" lon="6.17402">
        <ele>2472.5</ele>
        <time>2019-04-05T13:51:38Z</time>
      </trkpt>
      <trkpt lat="45.19427" lon="6.17414">
        <ele>2462.5</ele>
        <time>2019-04-05T13:52:05Z</time>
      </trkpt>
      <trkpt lat="45.19431" lon="6.17426">
        <ele>2467.5</ele>
        <time>2019-04-05T13:52:21Z</time>
      </trkpt>
      <trkpt lat="45.19435" lon="6.17437">
        <ele>2470.5</ele>
        <time>2019-04-05T13:52:41Z</time>
      </trkpt>
      <trkpt lat="45.19442" lon="6.17447">
        <ele>2473.5</ele>
        <time>2019-04-05T13:53:04Z</time>
      </trkpt>
      <trkpt lat="45.19451" lon="6.17451">
        <ele>2469.5</ele>
        <time>2019-04-05T13:53:51Z</time>
      </trkpt>
      <trkpt lat="45.1946" lon="6.17454">
        <ele>2473.5</ele>
        <time>2019-04-05T13:54:30Z</time>
      </trkpt>
      <trkpt lat="45.19467" lon="6.17447">
        <ele>2470.5</ele>
        <time>2019-04-05T13:55:11Z</time>
      </trkpt>
      <trkpt lat="45.19476" lon="6.17441">
        <ele>2478.5</ele>
        <time>2019-04-05T13:55:57Z</time>
      </trkpt>
      <trkpt lat="45.19484" lon="6.17434">
        <ele>2483.5</ele>
        <time>2019-04-05T13:56:13Z</time>
      </trkpt>
      <trkpt lat="45.19494" lon="6.17432">
        <ele>2485.5</ele>
        <time>2019-04-05T13:56:19Z</time>
      </trkpt>
      <trkpt lat="45.195" lon="6.17423">
        <ele>2474.5</ele>
        <time>2019-04-05T13:56:52Z</time>
      </trkpt>
      <trkpt lat="45.1951" lon="6.17424">
        <ele>2474.5</ele>
        <time>2019-04-05T13:57:07Z</time>
      </trkpt>
      <trkpt lat="45.19519" lon="6.17419">
        <ele>2476.5</ele>
        <time>2019-04-05T13:57:17Z</time>
      </trkpt>
      <trkpt lat="45.19529" lon="6.17415">
        <ele>2479.5</ele>
        <time>2019-04-05T13:57:26Z</time>
      </trkpt>
      <trkpt lat="45.19538" lon="6.17413">
        <ele>2477.5</ele>
        <time>2019-04-05T13:57:52Z</time>
      </trkpt>
      <trkpt lat="45.19547" lon="6.17414">
        <ele>2479.5</ele>
        <time>2019-04-05T13:58:30Z</time>
      </trkpt>
      <trkpt lat="45.19557" lon="6.17416">
        <ele>2479.5</ele>
        <time>2019-04-05T13:58:35Z</time>
      </trkpt>
      <trkpt lat="45.19567" lon="6.17421">
        <ele>2477.5</ele>
        <time>2019-04-05T13:58:38Z</time>
      </trkpt>
      <trkpt lat="45.19578" lon="6.17426">
        <ele>2476.5</ele>
        <time>2019-04-05T13:58:41Z</time>
      </trkpt>
      <trkpt lat="45.19587" lon="6.17431">
        <ele>2475.5</ele>
        <time>2019-04-05T13:58:44Z</time>
      </trkpt>
      <trkpt lat="45.19598" lon="6.17436">
        <ele>2477.5</ele>
        <time>2019-04-05T13:58:46Z</time>
      </trkpt>
      <trkpt lat="45.19608" lon="6.17442">
        <ele>2476.5</ele>
        <time>2019-04-05T13:58:48Z</time>
      </trkpt>
      <trkpt lat="45.19618" lon="6.17443">
        <ele>2474.5</ele>
        <time>2019-04-05T13:58:51Z</time>
      </trkpt>
      <trkpt lat="45.19629" lon="6.17446">
        <ele>2475.5</ele>
        <time>2019-04-05T13:59:16Z</time>
      </trkpt>
      <trkpt lat="45.19639" lon="6.17446">
        <ele>2475.5</ele>
        <time>2019-04-05T13:59:24Z</time>
      </trkpt>
      <trkpt lat="45.19649" lon="6.17445">
        <ele>2472.5</ele>
        <time>2019-04-05T13:59:31Z</time>
      </trkpt>
      <trkpt lat="45.19658" lon="6.17443">
        <ele>2472.5</ele>
        <time>2019-04-05T13:59:33Z</time>
      </trkpt>
      <trkpt lat="45.19672" lon="6.17441">
        <ele>2474.5</ele>
        <time>2019-04-05T13:59:35Z</time>
      </trkpt>
      <trkpt lat="45.19683" lon="6.17437">
        <ele>2473.5</ele>
        <time>2019-04-05T13:59:37Z</time>
      </trkpt>
      <trkpt lat="45.19693" lon="6.17432">
        <ele>2469.5</ele>
        <time>2019-04-05T13:59:39Z</time>
      </trkpt>
      <trkpt lat="45.19705" lon="6.17425">
        <ele>2467.5</ele>
        <time>2019-04-05T13:59:41Z</time>
      </trkpt>
      <trkpt lat="45.19717" lon="6.17417">
        <ele>2464.5</ele>
        <time>2019-04-05T13:59:43Z</time>
      </trkpt>
      <trkpt lat="45.1973" lon="6.17407">
        <ele>2461.5</ele>
        <time>2019-04-05T13:59:45Z</time>
      </trkpt>
      <trkpt lat="45.19744" lon="6.174">
        <ele>2459.5</ele>
        <time>2019-04-05T13:59:47Z</time>
      </trkpt>
      <trkpt lat="45.19754" lon="6.17399">
        <ele>2459.5</ele>
        <time>2019-04-05T13:59:49Z</time>
      </trkpt>
      <trkpt lat="45.19764" lon="6.17398">
        <ele>2454.5</ele>
        <time>2019-04-05T13:59:55Z</time>
      </trkpt>
      <trkpt lat="45.19773" lon="6.17398">
        <ele>2451.5</ele>
        <time>2019-04-05T14:00:03Z</time>
      </trkpt>
      <trkpt lat="45.19782" lon="6.17398">
        <ele>2451.5</ele>
        <time>2019-04-05T14:00:09Z</time>
      </trkpt>
      <trkpt lat="45.19791" lon="6.17401">
        <ele>2453.5</ele>
        <time>2019-04-05T14:00:25Z</time>
      </trkpt>
      <trkpt lat="45.19801" lon="6.17402">
        <ele>2451.5</ele>
        <time>2019-04-05T14:00:38Z</time>
      </trkpt>
      <trkpt lat="45.1981" lon="6.17403">
        <ele>2454.5</ele>
        <time>2019-04-05T14:00:50Z</time>
      </trkpt>
      <trkpt lat="45.1982" lon="6.17405">
        <ele>2451.5</ele>
        <time>2019-04-05T14:04:54Z</time>
      </trkpt>
      <trkpt lat="45.1983" lon="6.17409">
        <ele>2452.5</ele>
        <time>2019-04-05T14:05:02Z</time>
      </trkpt>
      <trkpt lat="45.19839" lon="6.17412">
        <ele>2452.5</ele>
        <time>2019-04-05T14:05:11Z</time>
      </trkpt>
      <trkpt lat="45.19847" lon="6.17416">
        <ele>2450.5</ele>
        <time>2019-04-05T14:05:19Z</time>
      </trkpt>
      <trkpt lat="45.19856" lon="6.1742">
        <ele>2451.5</ele>
        <time>2019-04-05T14:05:28Z</time>
      </trkpt>
      <trkpt lat="45.19865" lon="6.17423">
        <ele>2449.5</ele>
        <time>2019-04-05T14:05:38Z</time>
      </trkpt>
      <trkpt lat="45.19874" lon="6.17427">
        <ele>2450.5</ele>
        <time>2019-04-05T14:05:48Z</time>
      </trkpt>
      <trkpt lat="45.19883" lon="6.17431">
        <ele>2448.5</ele>
        <time>2019-04-05T14:05:57Z</time>
      </trkpt>
      <trkpt lat="45.19893" lon="6.17435">
        <ele>2450.5</ele>
        <time>2019-04-05T14:06:05Z</time>
      </trkpt>
      <trkpt lat="45.19901" lon="6.17438">
        <ele>2451.5</ele>
        <time>2019-04-05T14:06:12Z</time>
      </trkpt>
      <trkpt lat="45.19911" lon="6.1744">
        <ele>2455.5</ele>
        <time>2019-04-05T14:06:19Z</time>
      </trkpt>
      <trkpt lat="45.19921" lon="6.17442">
        <ele>2455.5</ele>
        <time>2019-04-05T14:06:29Z</time>
      </trkpt>
      <trkpt lat="45.1993" lon="6.17446">
        <ele>2460.5</ele>
        <time>2019-04-05T14:06:37Z</time>
      </trkpt>
      <trkpt lat="45.19939" lon="6.17451">
        <ele>2459.5</ele>
        <time>2019-04-05T14:06:47Z</time>
      </trkpt>
      <trkpt lat="45.19948" lon="6.17455">
        <ele>2456.5</ele>
        <time>2019-04-05T14:06:57Z</time>
      </trkpt>
      <trkpt lat="45.19958" lon="6.17459">
        <ele>2454.5</ele>
        <time>2019-04-05T14:07:06Z</time>
      </trkpt>
      <trkpt lat="45.19967" lon="6.17462">
        <ele>2459.5</ele>
        <time>2019-04-05T14:07:12Z</time>
      </trkpt>
      <trkpt lat="45.19977" lon="6.17466">
        <ele>2459.5</ele>
        <time>2019-04-05T14:07:21Z</time>
      </trkpt>
      <trkpt lat="45.19986" lon="6.17469">
        <ele>2458.5</ele>
        <time>2019-04-05T14:07:29Z</time>
      </trkpt>
      <trkpt lat="45.19995" lon="6.17477">
        <ele>2457.5</ele>
        <time>2019-04-05T14:07:38Z</time>
      </trkpt>
      <trkpt lat="45.20006" lon="6.17479">
        <ele>2460.5</ele>
        <time>2019-04-05T14:07:49Z</time>
      </trkpt>
      <trkpt lat="45.20014" lon="6.17484">
        <ele>2455.5</ele>
        <time>2019-04-05T14:07:58Z</time>
      </trkpt>
      <trkpt lat="45.20023" lon="6.17488">
        <ele>2459.5</ele>
        <time>2019-04-05T14:08:07Z</time>
      </trkpt>
      <trkpt lat="45.20033" lon="6.17494">
        <ele>2461.5</ele>
        <time>2019-04-05T14:08:14Z</time>
      </trkpt>
      <trkpt lat="45.20043" lon="6.175">
        <ele>2457.5</ele>
        <time>2019-04-05T14:08:25Z</time>
      </trkpt>
      <trkpt lat="45.20051" lon="6.17508">
        <ele>2457.5</ele>
        <time>2019-04-05T14:08:32Z</time>
      </trkpt>
      <trkpt lat="45.2006" lon="6.17514">
        <ele>2458.5</ele>
        <time>2019-04-05T14:08:41Z</time>
      </trkpt>
      <trkpt lat="45.2007" lon="6.17519">
        <ele>2458.5</ele>
        <time>2019-04-05T14:08:50Z</time>
      </trkpt>
      <trkpt lat="45.20078" lon="6.17526">
        <ele>2460.5</ele>
        <time>2019-04-05T14:09:01Z</time>
      </trkpt>
      <trkpt lat="45.20087" lon="6.1753">
        <ele>2455.5</ele>
        <time>2019-04-05T14:09:13Z</time>
      </trkpt>
      <trkpt lat="45.20096" lon="6.17535">
        <ele>2455.5</ele>
        <time>2019-04-05T14:09:22Z</time>
      </trkpt>
      <trkpt lat="45.20106" lon="6.17537">
        <ele>2459.5</ele>
        <time>2019-04-05T14:09:29Z</time>
      </trkpt>
      <trkpt lat="45.20114" lon="6.17542">
        <ele>2460.5</ele>
        <time>2019-04-05T14:09:35Z</time>
      </trkpt>
      <trkpt lat="45.20124" lon="6.17547">
        <ele>2459.5</ele>
        <time>2019-04-05T14:09:44Z</time>
      </trkpt>
      <trkpt lat="45.20133" lon="6.17551">
        <ele>2457.5</ele>
        <time>2019-04-05T14:09:53Z</time>
      </trkpt>
      <trkpt lat="45.20142" lon="6.17555">
        <ele>2455.5</ele>
        <time>2019-04-05T14:10:02Z</time>
      </trkpt>
      <trkpt lat="45.20152" lon="6.17558">
        <ele>2453.5</ele>
        <time>2019-04-05T14:10:11Z</time>
      </trkpt>
      <trkpt lat="45.20162" lon="6.17561">
        <ele>2452.5</ele>
        <time>2019-04-05T14:10:21Z</time>
      </trkpt>
      <trkpt lat="45.2017" lon="6.17563">
        <ele>2453.5</ele>
        <time>2019-04-05T14:10:29Z</time>
      </trkpt>
      <trkpt lat="45.20179" lon="6.17568">
        <ele>2451.5</ele>
        <time>2019-04-05T14:10:37Z</time>
      </trkpt>
      <trkpt lat="45.20187" lon="6.17573">
        <ele>2452.5</ele>
        <time>2019-04-05T14:10:49Z</time>
      </trkpt>
      <trkpt lat="45.20196" lon="6.17579">
        <ele>2451.5</ele>
        <time>2019-04-05T14:11:10Z</time>
      </trkpt>
      <trkpt lat="45.20205" lon="6.17586">
        <ele>2451.5</ele>
        <time>2019-04-05T14:11:36Z</time>
      </trkpt>
      <trkpt lat="45.20215" lon="6.17587">
        <ele>2452.5</ele>
        <time>2019-04-05T14:11:56Z</time>
      </trkpt>
      <trkpt lat="45.20224" lon="6.17587">
        <ele>2452.5</ele>
        <time>2019-04-05T14:12:15Z</time>
      </trkpt>
      <trkpt lat="45.20233" lon="6.1759">
        <ele>2452.5</ele>
        <time>2019-04-05T14:12:42Z</time>
      </trkpt>
      <trkpt lat="45.20242" lon="6.17591">
        <ele>2455.5</ele>
        <time>2019-04-05T14:12:57Z</time>
      </trkpt>
      <trkpt lat="45.20251" lon="6.17591">
        <ele>2454.5</ele>
        <time>2019-04-05T14:13:18Z</time>
      </trkpt>
      <trkpt lat="45.20261" lon="6.17591">
        <ele>2457.5</ele>
        <time>2019-04-05T14:13:39Z</time>
      </trkpt>
      <trkpt lat="45.20268" lon="6.17598">
        <ele>2453.5</ele>
        <time>2019-04-05T14:13:54Z</time>
      </trkpt>
      <trkpt lat="45.20275" lon="6.17608">
        <ele>2453.5</ele>
        <time>2019-04-05T14:14:16Z</time>
      </trkpt>
      <trkpt lat="45.20282" lon="6.17619">
        <ele>2451.5</ele>
        <time>2019-04-05T14:14:24Z</time>
      </trkpt>
      <trkpt lat="45.20288" lon="6.17628">
        <ele>2452.5</ele>
        <time>2019-04-05T14:14:32Z</time>
      </trkpt>
      <trkpt lat="45.20292" lon="6.1764">
        <ele>2449.5</ele>
        <time>2019-04-05T14:14:44Z</time>
      </trkpt>
      <trkpt lat="45.20296" lon="6.17652">
        <ele>2454.5</ele>
        <time>2019-04-05T14:31:38Z</time>
      </trkpt>
      <trkpt lat="45.20303" lon="6.17661">
        <ele>2450.5</ele>
        <time>2019-04-05T14:31:54Z</time>
      </trkpt>
      <trkpt lat="45.2031" lon="6.1767">
        <ele>2451.5</ele>
        <time>2019-04-05T14:32:05Z</time>
      </trkpt>
      <trkpt lat="45.20315" lon="6.17681">
        <ele>2457.5</ele>
        <time>2019-04-05T14:32:24Z</time>
      </trkpt>
      <trkpt lat="45.20323" lon="6.17689">
        <ele>2463.5</ele>
        <time>2019-04-05T14:32:41Z</time>
      </trkpt>
      <trkpt lat="45.20332" lon="6.17694">
        <ele>2464.5</ele>
        <time>2019-04-05T14:32:56Z</time>
      </trkpt>
      <trkpt lat="45.20341" lon="6.17698">
        <ele>2472.5</ele>
        <time>2019-04-05T14:33:09Z</time>
      </trkpt>
      <trkpt lat="45.20347" lon="6.17708">
        <ele>2473.5</ele>
        <time>2019-04-05T14:33:23Z</time>
      </trkpt>
      <trkpt lat="45.20354" lon="6.17717">
        <ele>2476.5</ele>
        <time>2019-04-05T14:33:34Z</time>
      </trkpt>
      <trkpt lat="45.20359" lon="6.17727">
        <ele>2473.5</ele>
        <time>2019-04-05T14:33:45Z</time>
      </trkpt>
      <trkpt lat="45.20365" lon="6.17738">
        <ele>2473.5</ele>
        <time>2019-04-05T14:33:59Z</time>
      </trkpt>
      <trkpt lat="45.20369" lon="6.17749">
        <ele>2475.5</ele>
        <time>2019-04-05T14:34:11Z</time>
      </trkpt>
      <trkpt lat="45.20375" lon="6.1776">
        <ele>2475.5</ele>
        <time>2019-04-05T14:34:25Z</time>
      </trkpt>
      <trkpt lat="45.20382" lon="6.17769">
        <ele>2479.5</ele>
        <time>2019-04-05T14:34:42Z</time>
      </trkpt>
      <trkpt lat="45.20388" lon="6.17779">
        <ele>2480.5</ele>
        <time>2019-04-05T14:34:56Z</time>
      </trkpt>
      <trkpt lat="45.20392" lon="6.1779">
        <ele>2481.5</ele>
        <time>2019-04-05T14:35:11Z</time>
      </trkpt>
      <trkpt lat="45.20395" lon="6.17803">
        <ele>2484.5</ele>
        <time>2019-04-05T14:35:29Z</time>
      </trkpt>
      <trkpt lat="45.204" lon="6.17813">
        <ele>2489.5</ele>
        <time>2019-04-05T14:35:49Z</time>
      </trkpt>
      <trkpt lat="45.204" lon="6.17826">
        <ele>2495.5</ele>
        <time>2019-04-05T14:36:16Z</time>
      </trkpt>
      <trkpt lat="45.20401" lon="6.17839">
        <ele>2494.5</ele>
        <time>2019-04-05T14:36:49Z</time>
      </trkpt>
      <trkpt lat="45.20402" lon="6.17852">
        <ele>2497.5</ele>
        <time>2019-04-05T14:37:11Z</time>
      </trkpt>
      <trkpt lat="45.20399" lon="6.17865">
        <ele>2496.5</ele>
        <time>2019-04-05T14:37:35Z</time>
      </trkpt>
      <trkpt lat="45.20391" lon="6.17873">
        <ele>2495.5</ele>
        <time>2019-04-05T14:37:59Z</time>
      </trkpt>
      <trkpt lat="45.20396" lon="6.17884">
        <ele>2493.5</ele>
        <time>2019-04-05T14:38:25Z</time>
      </trkpt>
      <trkpt lat="45.20389" lon="6.17893">
        <ele>2500.5</ele>
        <time>2019-04-05T14:38:53Z</time>
      </trkpt>
      <trkpt lat="45.20394" lon="6.17905">
        <ele>2502.5</ele>
        <time>2019-04-05T14:39:19Z</time>
      </trkpt>
      <trkpt lat="45.20399" lon="6.17915">
        <ele>2503.5</ele>
        <time>2019-04-05T14:39:44Z</time>
      </trkpt>
      <trkpt lat="45.20406" lon="6.17924">
        <ele>2507.5</ele>
        <time>2019-04-05T14:40:10Z</time>
      </trkpt>
      <trkpt lat="45.20413" lon="6.17933">
        <ele>2509.5</ele>
        <time>2019-04-05T14:40:28Z</time>
      </trkpt>
      <trkpt lat="45.20416" lon="6.17945">
        <ele>2512.5</ele>
        <time>2019-04-05T14:40:51Z</time>
      </trkpt>
      <trkpt lat="45.20419" lon="6.17957">
        <ele>2517.5</ele>
        <time>2019-04-05T14:41:18Z</time>
      </trkpt>
      <trkpt lat="45.20425" lon="6.17968">
        <ele>2516.5</ele>
        <time>2019-04-05T14:41:48Z</time>
      </trkpt>
      <trkpt lat="45.20431" lon="6.17978">
        <ele>2520.5</ele>
        <time>2019-04-05T14:42:29Z</time>
      </trkpt>
      <trkpt lat="45.20437" lon="6.17988">
        <ele>2525.5</ele>
        <time>2019-04-05T14:42:52Z</time>
      </trkpt>
      <trkpt lat="45.20441" lon="6.18">
        <ele>2530.5</ele>
        <time>2019-04-05T14:43:25Z</time>
      </trkpt>
      <trkpt lat="45.20448" lon="6.18009">
        <ele>2532.5</ele>
        <time>2019-04-05T14:43:52Z</time>
      </trkpt>
      <trkpt lat="45.20456" lon="6.18017">
        <ele>2533.5</ele>
        <time>2019-04-05T14:44:17Z</time>
      </trkpt>
      <trkpt lat="45.20463" lon="6.18024">
        <ele>2538.5</ele>
        <time>2019-04-05T14:44:28Z</time>
      </trkpt>
      <trkpt lat="45.2047" lon="6.18033">
        <ele>2537.5</ele>
        <time>2019-04-05T14:44:48Z</time>
      </trkpt>
      <trkpt lat="45.20478" lon="6.18043">
        <ele>2539.5</ele>
        <time>2019-04-05T14:45:11Z</time>
      </trkpt>
      <trkpt lat="45.20486" lon="6.18049">
        <ele>2539.5</ele>
        <time>2019-04-05T14:45:20Z</time>
      </trkpt>
      <trkpt lat="45.20495" lon="6.18055">
        <ele>2538.5</ele>
        <time>2019-04-05T14:45:29Z</time>
      </trkpt>
      <trkpt lat="45.20503" lon="6.18062">
        <ele>2537.5</ele>
        <time>2019-04-05T14:45:38Z</time>
      </trkpt>
      <trkpt lat="45.20492" lon="6.18056">
        <ele>2541.5</ele>
        <time>2019-04-05T14:53:19Z</time>
      </trkpt>
      <trkpt lat="45.20484" lon="6.18052">
        <ele>2542.5</ele>
        <time>2019-04-05T14:53:28Z</time>
      </trkpt>
      <trkpt lat="45.20477" lon="6.18062">
        <ele>2533.5</ele>
        <time>2019-04-05T14:54:44Z</time>
      </trkpt>
      <trkpt lat="45.20472" lon="6.18074">
        <ele>2532.5</ele>
        <time>2019-04-05T14:54:51Z</time>
      </trkpt>
      <trkpt lat="45.20468" lon="6.18086">
        <ele>2530.5</ele>
        <time>2019-04-05T14:54:57Z</time>
      </trkpt>
      <trkpt lat="45.20466" lon="6.18099">
        <ele>2530.5</ele>
        <time>2019-04-05T14:55:01Z</time>
      </trkpt>
      <trkpt lat="45.20465" lon="6.18115">
        <ele>2528.5</ele>
        <time>2019-04-05T14:55:04Z</time>
      </trkpt>
      <trkpt lat="45.20464" lon="6.18128">
        <ele>2527.5</ele>
        <time>2019-04-05T14:55:06Z</time>
      </trkpt>
      <trkpt lat="45.20463" lon="6.18143">
        <ele>2524.5</ele>
        <time>2019-04-05T14:55:08Z</time>
      </trkpt>
      <trkpt lat="45.20458" lon="6.18159">
        <ele>2521.5</ele>
        <time>2019-04-05T14:55:10Z</time>
      </trkpt>
      <trkpt lat="45.20455" lon="6.18182">
        <ele>2519.5</ele>
        <time>2019-04-05T14:55:12Z</time>
      </trkpt>
      <trkpt lat="45.20459" lon="6.18202">
        <ele>2518.5</ele>
        <time>2019-04-05T14:55:14Z</time>
      </trkpt>
      <trkpt lat="45.20459" lon="6.18216">
        <ele>2513.5</ele>
        <time>2019-04-05T14:55:16Z</time>
      </trkpt>
      <trkpt lat="45.20455" lon="6.18234">
        <ele>2513.5</ele>
        <time>2019-04-05T14:55:18Z</time>
      </trkpt>
      <trkpt lat="45.20455" lon="6.1825">
        <ele>2513.5</ele>
        <time>2019-04-05T14:55:19Z</time>
      </trkpt>
      <trkpt lat="45.20454" lon="6.18263">
        <ele>2513.5</ele>
        <time>2019-04-05T14:55:20Z</time>
      </trkpt>
      <trkpt lat="45.20437" lon="6.18255">
        <ele>2509.5</ele>
        <time>2019-04-05T14:55:21Z</time>
      </trkpt>
      <trkpt lat="45.20431" lon="6.18272">
        <ele>2505.5</ele>
        <time>2019-04-05T14:55:23Z</time>
      </trkpt>
      <trkpt lat="45.20428" lon="6.18287">
        <ele>2505.5</ele>
        <time>2019-04-05T14:55:24Z</time>
      </trkpt>
      <trkpt lat="45.20425" lon="6.183">
        <ele>2505.5</ele>
        <time>2019-04-05T14:55:25Z</time>
      </trkpt>
      <trkpt lat="45.20419" lon="6.18313">
        <ele>2504.5</ele>
        <time>2019-04-05T14:55:26Z</time>
      </trkpt>
      <trkpt lat="45.20413" lon="6.18325">
        <ele>2504.5</ele>
        <time>2019-04-05T14:55:27Z</time>
      </trkpt>
      <trkpt lat="45.20408" lon="6.1834">
        <ele>2495.5</ele>
        <time>2019-04-05T14:55:29Z</time>
      </trkpt>
      <trkpt lat="45.20403" lon="6.18363">
        <ele>2492.5</ele>
        <time>2019-04-05T14:55:31Z</time>
      </trkpt>
      <trkpt lat="45.20405" lon="6.18381">
        <ele>2484.5</ele>
        <time>2019-04-05T14:55:33Z</time>
      </trkpt>
      <trkpt lat="45.20406" lon="6.18404">
        <ele>2481.5</ele>
        <time>2019-04-05T14:55:35Z</time>
      </trkpt>
      <trkpt lat="45.20403" lon="6.18423">
        <ele>2478.5</ele>
        <time>2019-04-05T14:55:37Z</time>
      </trkpt>
      <trkpt lat="45.20397" lon="6.18441">
        <ele>2474.5</ele>
        <time>2019-04-05T14:55:39Z</time>
      </trkpt>
      <trkpt lat="45.20373" lon="6.18645">
        <ele>2394.5</ele>
        <time>2019-04-05T14:56:12Z</time>
      </trkpt>
      <trkpt lat="45.20376" lon="6.18661">
        <ele>2401.5</ele>
        <time>2019-04-05T14:56:15Z</time>
      </trkpt>
      <trkpt lat="45.20384" lon="6.18674">
        <ele>2405.5</ele>
        <time>2019-04-05T14:56:29Z</time>
      </trkpt>
      <trkpt lat="45.20389" lon="6.18687">
        <ele>2403.5</ele>
        <time>2019-04-05T14:56:31Z</time>
      </trkpt>
      <trkpt lat="45.2039" lon="6.18701">
        <ele>2398.5</ele>
        <time>2019-04-05T14:56:33Z</time>
      </trkpt>
      <trkpt lat="45.20401" lon="6.18712">
        <ele>2397.5</ele>
        <time>2019-04-05T14:56:35Z</time>
      </trkpt>
      <trkpt lat="45.20398" lon="6.18724">
        <ele>2395.5</ele>
        <time>2019-04-05T14:56:36Z</time>
      </trkpt>
      <trkpt lat="45.20407" lon="6.18737">
        <ele>2391.5</ele>
        <time>2019-04-05T14:56:38Z</time>
      </trkpt>
      <trkpt lat="45.20413" lon="6.18754">
        <ele>2389.5</ele>
        <time>2019-04-05T14:56:40Z</time>
      </trkpt>
      <trkpt lat="45.20414" lon="6.18774">
        <ele>2383.5</ele>
        <time>2019-04-05T14:56:42Z</time>
      </trkpt>
      <trkpt lat="45.20423" lon="6.18795">
        <ele>2379.5</ele>
        <time>2019-04-05T14:56:44Z</time>
      </trkpt>
      <trkpt lat="45.20417" lon="6.18806">
        <ele>2377.5</ele>
        <time>2019-04-05T14:56:45Z</time>
      </trkpt>
      <trkpt lat="45.20417" lon="6.18829">
        <ele>2376.5</ele>
        <time>2019-04-05T14:56:47Z</time>
      </trkpt>
      <trkpt lat="45.20424" lon="6.18852">
        <ele>2374.5</ele>
        <time>2019-04-05T14:56:49Z</time>
      </trkpt>
      <trkpt lat="45.20432" lon="6.18873">
        <ele>2373.5</ele>
        <time>2019-04-05T14:56:51Z</time>
      </trkpt>
      <trkpt lat="45.20432" lon="6.18891">
        <ele>2370.5</ele>
        <time>2019-04-05T14:56:53Z</time>
      </trkpt>
      <trkpt lat="45.20431" lon="6.18914">
        <ele>2367.5</ele>
        <time>2019-04-05T14:56:55Z</time>
      </trkpt>
      <trkpt lat="45.20438" lon="6.18925">
        <ele>2366.5</ele>
        <time>2019-04-05T14:56:56Z</time>
      </trkpt>
      <trkpt lat="45.20448" lon="6.18932">
        <ele>2363.5</ele>
        <time>2019-04-05T14:56:58Z</time>
      </trkpt>
      <trkpt lat="45.20456" lon="6.18954">
        <ele>2360.5</ele>
        <time>2019-04-05T14:57:00Z</time>
      </trkpt>
      <trkpt lat="45.20466" lon="6.18975">
        <ele>2357.5</ele>
        <time>2019-04-05T14:57:02Z</time>
      </trkpt>
      <trkpt lat="45.20475" lon="6.18992">
        <ele>2354.5</ele>
        <time>2019-04-05T14:57:04Z</time>
      </trkpt>
      <trkpt lat="45.20484" lon="6.18987">
        <ele>2349.5</ele>
        <time>2019-04-05T14:57:05Z</time>
      </trkpt>
      <trkpt lat="45.20496" lon="6.18991">
        <ele>2346.5</ele>
        <time>2019-04-05T14:57:07Z</time>
      </trkpt>
      <trkpt lat="45.2051" lon="6.18996">
        <ele>2340.5</ele>
        <time>2019-04-05T14:57:09Z</time>
      </trkpt>
      <trkpt lat="45.20521" lon="6.19008">
        <ele>2335.5</ele>
        <time>2019-04-05T14:57:11Z</time>
      </trkpt>
      <trkpt lat="45.20536" lon="6.19016">
        <ele>2333.5</ele>
        <time>2019-04-05T14:57:13Z</time>
      </trkpt>
      <trkpt lat="45.20533" lon="6.19034">
        <ele>2328.5</ele>
        <time>2019-04-05T14:57:15Z</time>
      </trkpt>
      <trkpt lat="45.20544" lon="6.19048">
        <ele>2319.5</ele>
        <time>2019-04-05T14:57:18Z</time>
      </trkpt>
      <trkpt lat="45.20555" lon="6.19062">
        <ele>2316.5</ele>
        <time>2019-04-05T14:57:20Z</time>
      </trkpt>
      <trkpt lat="45.2056" lon="6.19079">
        <ele>2310.5</ele>
        <time>2019-04-05T14:57:22Z</time>
      </trkpt>
      <trkpt lat="45.20567" lon="6.19091">
        <ele>2303.5</ele>
        <time>2019-04-05T14:57:24Z</time>
      </trkpt>
      <trkpt lat="45.20572" lon="6.19106">
        <ele>2300.5</ele>
        <time>2019-04-05T14:57:26Z</time>
      </trkpt>
      <trkpt lat="45.20581" lon="6.19119">
        <ele>2294.5</ele>
        <time>2019-04-05T14:57:29Z</time>
      </trkpt>
      <trkpt lat="45.20585" lon="6.19131">
        <ele>2293.5</ele>
        <time>2019-04-05T14:57:30Z</time>
      </trkpt>
      <trkpt lat="45.2059" lon="6.19145">
        <ele>2287.5</ele>
        <time>2019-04-05T14:57:33Z</time>
      </trkpt>
      <trkpt lat="45.20598" lon="6.19159">
        <ele>2287.5</ele>
        <time>2019-04-05T14:57:37Z</time>
      </trkpt>
      <trkpt lat="45.20593" lon="6.19173">
        <ele>2286.5</ele>
        <time>2019-04-05T14:57:45Z</time>
      </trkpt>
      <trkpt lat="45.20598" lon="6.19189">
        <ele>2271.5</ele>
        <time>2019-04-05T14:57:54Z</time>
      </trkpt>
      <trkpt lat="45.20604" lon="6.19199">
        <ele>2268.5</ele>
        <time>2019-04-05T14:57:56Z</time>
      </trkpt>
      <trkpt lat="45.20612" lon="6.19216">
        <ele>2265.5</ele>
        <time>2019-04-05T14:57:59Z</time>
      </trkpt>
      <trkpt lat="45.20607" lon="6.19231">
        <ele>2260.5</ele>
        <time>2019-04-05T14:58:01Z</time>
      </trkpt>
      <trkpt lat="45.20606" lon="6.1925">
        <ele>2257.5</ele>
        <time>2019-04-05T14:58:03Z</time>
      </trkpt>
      <trkpt lat="45.20604" lon="6.19272">
        <ele>2256.5</ele>
        <time>2019-04-05T14:58:05Z</time>
      </trkpt>
      <trkpt lat="45.2061" lon="6.19283">
        <ele>2254.5</ele>
        <time>2019-04-05T14:58:07Z</time>
      </trkpt>
      <trkpt lat="45.20607" lon="6.19297">
        <ele>2249.5</ele>
        <time>2019-04-05T14:58:09Z</time>
      </trkpt>
      <trkpt lat="45.20612" lon="6.19312">
        <ele>2248.5</ele>
        <time>2019-04-05T14:58:11Z</time>
      </trkpt>
      <trkpt lat="45.20609" lon="6.19324">
        <ele>2246.5</ele>
        <time>2019-04-05T14:58:14Z</time>
      </trkpt>
      <trkpt lat="45.206" lon="6.19334">
        <ele>2243.5</ele>
        <time>2019-04-05T14:58:20Z</time>
      </trkpt>
      <trkpt lat="45.20591" lon="6.19346">
        <ele>2242.5</ele>
        <time>2019-04-05T14:58:22Z</time>
      </trkpt>
      <trkpt lat="45.20585" lon="6.19364">
        <ele>2237.5</ele>
        <time>2019-04-05T14:58:24Z</time>
      </trkpt>
      <trkpt lat="45.20577" lon="6.19386">
        <ele>2233.5</ele>
        <time>2019-04-05T14:58:26Z</time>
      </trkpt>
      <trkpt lat="45.20571" lon="6.19396">
        <ele>2232.5</ele>
        <time>2019-04-05T14:58:27Z</time>
      </trkpt>
      <trkpt lat="45.20566" lon="6.19408">
        <ele>2230.5</ele>
        <time>2019-04-05T14:58:28Z</time>
      </trkpt>
      <trkpt lat="45.20564" lon="6.1942">
        <ele>2229.5</ele>
        <time>2019-04-05T14:58:29Z</time>
      </trkpt>
      <trkpt lat="45.20556" lon="6.19443">
        <ele>2226.5</ele>
        <time>2019-04-05T14:58:31Z</time>
      </trkpt>
      <trkpt lat="45.20548" lon="6.19466">
        <ele>2223.5</ele>
        <time>2019-04-05T14:58:33Z</time>
      </trkpt>
      <trkpt lat="45.20545" lon="6.19478">
        <ele>2223.5</ele>
        <time>2019-04-05T14:58:34Z</time>
      </trkpt>
      <trkpt lat="45.20539" lon="6.19502">
        <ele>2222.5</ele>
        <time>2019-04-05T14:58:36Z</time>
      </trkpt>
      <trkpt lat="45.20535" lon="6.19514">
        <ele>2222.5</ele>
        <time>2019-04-05T14:58:37Z</time>
      </trkpt>
      <trkpt lat="45.20531" lon="6.19538">
        <ele>2222.5</ele>
        <time>2019-04-05T14:58:39Z</time>
      </trkpt>
      <trkpt lat="45.20528" lon="6.19562">
        <ele>2221.5</ele>
        <time>2019-04-05T14:58:41Z</time>
      </trkpt>
      <trkpt lat="45.20522" lon="6.19573">
        <ele>2220.5</ele>
        <time>2019-04-05T14:58:42Z</time>
      </trkpt>
      <trkpt lat="45.20517" lon="6.19594">
        <ele>2221.5</ele>
        <time>2019-04-05T14:58:44Z</time>
      </trkpt>
      <trkpt lat="45.20511" lon="6.1961">
        <ele>2216.5</ele>
        <time>2019-04-05T14:58:46Z</time>
      </trkpt>
      <trkpt lat="45.20508" lon="6.1963">
        <ele>2215.5</ele>
        <time>2019-04-05T14:58:48Z</time>
      </trkpt>
      <trkpt lat="45.20508" lon="6.1965">
        <ele>2216.5</ele>
        <time>2019-04-05T14:58:50Z</time>
      </trkpt>
      <trkpt lat="45.20509" lon="6.19666">
        <ele>2216.5</ele>
        <time>2019-04-05T14:58:52Z</time>
      </trkpt>
      <trkpt lat="45.20502" lon="6.19679">
        <ele>2205.5</ele>
        <time>2019-04-05T14:59:35Z</time>
      </trkpt>
      <trkpt lat="45.20501" lon="6.19693">
        <ele>2204.5</ele>
        <time>2019-04-05T14:59:39Z</time>
      </trkpt>
      <trkpt lat="45.20505" lon="6.19706">
        <ele>2205.5</ele>
        <time>2019-04-05T14:59:42Z</time>
      </trkpt>
      <trkpt lat="45.20508" lon="6.1972">
        <ele>2206.5</ele>
        <time>2019-04-05T14:59:47Z</time>
      </trkpt>
      <trkpt lat="45.20508" lon="6.19734">
        <ele>2199.5</ele>
        <time>2019-04-05T14:59:56Z</time>
      </trkpt>
      <trkpt lat="45.20513" lon="6.19745">
        <ele>2201.5</ele>
        <time>2019-04-05T14:59:59Z</time>
      </trkpt>
      <trkpt lat="45.20516" lon="6.19759">
        <ele>2197.5</ele>
        <time>2019-04-05T15:00:04Z</time>
      </trkpt>
      <trkpt lat="45.20524" lon="6.19772">
        <ele>2190.5</ele>
        <time>2019-04-05T15:00:09Z</time>
      </trkpt>
      <trkpt lat="45.20533" lon="6.19781">
        <ele>2186.5</ele>
        <time>2019-04-05T15:00:12Z</time>
      </trkpt>
      <trkpt lat="45.20541" lon="6.19789">
        <ele>2184.5</ele>
        <time>2019-04-05T15:00:14Z</time>
      </trkpt>
      <trkpt lat="45.2055" lon="6.19797">
        <ele>2183.5</ele>
        <time>2019-04-05T15:00:16Z</time>
      </trkpt>
      <trkpt lat="45.20561" lon="6.19806">
        <ele>2182.5</ele>
        <time>2019-04-05T15:00:19Z</time>
      </trkpt>
      <trkpt lat="45.20569" lon="6.19821">
        <ele>2179.5</ele>
        <time>2019-04-05T15:00:22Z</time>
      </trkpt>
      <trkpt lat="45.20577" lon="6.19828">
        <ele>2174.5</ele>
        <time>2019-04-05T15:00:25Z</time>
      </trkpt>
      <trkpt lat="45.20586" lon="6.19839">
        <ele>2170.5</ele>
        <time>2019-04-05T15:00:29Z</time>
      </trkpt>
      <trkpt lat="45.20587" lon="6.19856">
        <ele>2160.5</ele>
        <time>2019-04-05T15:00:32Z</time>
      </trkpt>
      <trkpt lat="45.20586" lon="6.19873">
        <ele>2155.5</ele>
        <time>2019-04-05T15:00:34Z</time>
      </trkpt>
      <trkpt lat="45.20588" lon="6.19891">
        <ele>2154.5</ele>
        <time>2019-04-05T15:00:36Z</time>
      </trkpt>
      <trkpt lat="45.20589" lon="6.19907">
        <ele>2150.5</ele>
        <time>2019-04-05T15:00:38Z</time>
      </trkpt>
      <trkpt lat="45.20593" lon="6.19919">
        <ele>2151.5</ele>
        <time>2019-04-05T15:00:45Z</time>
      </trkpt>
      <trkpt lat="45.20584" lon="6.19926">
        <ele>2155.5</ele>
        <time>2019-04-05T15:01:12Z</time>
      </trkpt>
      <trkpt lat="45.20576" lon="6.19937">
        <ele>2148.5</ele>
        <time>2019-04-05T15:01:15Z</time>
      </trkpt>
      <trkpt lat="45.20569" lon="6.19947">
        <ele>2145.5</ele>
        <time>2019-04-05T15:01:17Z</time>
      </trkpt>
      <trkpt lat="45.20563" lon="6.19958">
        <ele>2141.5</ele>
        <time>2019-04-05T15:01:19Z</time>
      </trkpt>
      <trkpt lat="45.20557" lon="6.19969">
        <ele>2134.5</ele>
        <time>2019-04-05T15:01:21Z</time>
      </trkpt>
      <trkpt lat="45.2055" lon="6.19985">
        <ele>2127.5</ele>
        <time>2019-04-05T15:01:24Z</time>
      </trkpt>
      <trkpt lat="45.20545" lon="6.19996">
        <ele>2121.5</ele>
        <time>2019-04-05T15:01:26Z</time>
      </trkpt>
      <trkpt lat="45.2054" lon="6.20007">
        <ele>2117.5</ele>
        <time>2019-04-05T15:01:28Z</time>
      </trkpt>
      <trkpt lat="45.20533" lon="6.20017">
        <ele>2113.5</ele>
        <time>2019-04-05T15:01:30Z</time>
      </trkpt>
      <trkpt lat="45.20527" lon="6.20029">
        <ele>2108.5</ele>
        <time>2019-04-05T15:01:32Z</time>
      </trkpt>
      <trkpt lat="45.20521" lon="6.20041">
        <ele>2106.5</ele>
        <time>2019-04-05T15:01:34Z</time>
      </trkpt>
      <trkpt lat="45.20513" lon="6.2005">
        <ele>2102.5</ele>
        <time>2019-04-05T15:01:36Z</time>
      </trkpt>
      <trkpt lat="45.20506" lon="6.20058">
        <ele>2100.5</ele>
        <time>2019-04-05T15:01:38Z</time>
      </trkpt>
      <trkpt lat="45.205" lon="6.2007">
        <ele>2095.5</ele>
        <time>2019-04-05T15:01:40Z</time>
      </trkpt>
      <trkpt lat="45.20495" lon="6.20084">
        <ele>2091.5</ele>
        <time>2019-04-05T15:01:42Z</time>
      </trkpt>
      <trkpt lat="45.20489" lon="6.20095">
        <ele>2086.5</ele>
        <time>2019-04-05T15:01:44Z</time>
      </trkpt>
      <trkpt lat="45.20487" lon="6.20109">
        <ele>2081.5</ele>
        <time>2019-04-05T15:01:46Z</time>
      </trkpt>
      <trkpt lat="45.20487" lon="6.20123">
        <ele>2077.5</ele>
        <time>2019-04-05T15:01:48Z</time>
      </trkpt>
      <trkpt lat="45.20492" lon="6.20139">
        <ele>2070.5</ele>
        <time>2019-04-05T15:01:50Z</time>
      </trkpt>
      <trkpt lat="45.20499" lon="6.20159">
        <ele>2065.5</ele>
        <time>2019-04-05T15:01:52Z</time>
      </trkpt>
      <trkpt lat="45.20505" lon="6.2017">
        <ele>2063.5</ele>
        <time>2019-04-05T15:01:53Z</time>
      </trkpt>
      <trkpt lat="45.20513" lon="6.20182">
        <ele>2061.5</ele>
        <time>2019-04-05T15:01:54Z</time>
      </trkpt>
      <trkpt lat="45.20521" lon="6.20195">
        <ele>2059.5</ele>
        <time>2019-04-05T15:01:55Z</time>
      </trkpt>
      <trkpt lat="45.20529" lon="6.20206">
        <ele>2058.5</ele>
        <time>2019-04-05T15:01:56Z</time>
      </trkpt>
      <trkpt lat="45.20537" lon="6.20216">
        <ele>2057.5</ele>
        <time>2019-04-05T15:01:57Z</time>
      </trkpt>
      <trkpt lat="45.20546" lon="6.20228">
        <ele>2057.5</ele>
        <time>2019-04-05T15:01:58Z</time>
      </trkpt>
      <trkpt lat="45.20554" lon="6.20238">
        <ele>2055.5</ele>
        <time>2019-04-05T15:01:59Z</time>
      </trkpt>
      <trkpt lat="45.20565" lon="6.20244">
        <ele>2053.5</ele>
        <time>2019-04-05T15:02:00Z</time>
      </trkpt>
      <trkpt lat="45.20575" lon="6.20248">
        <ele>2052.5</ele>
        <time>2019-04-05T15:02:01Z</time>
      </trkpt>
      <trkpt lat="45.20584" lon="6.20251">
        <ele>2050.5</ele>
        <time>2019-04-05T15:02:02Z</time>
      </trkpt>
      <trkpt lat="45.20593" lon="6.20255">
        <ele>2049.5</ele>
        <time>2019-04-05T15:02:03Z</time>
      </trkpt>
      <trkpt lat="45.20602" lon="6.2026">
        <ele>2047.5</ele>
        <time>2019-04-05T15:02:04Z</time>
      </trkpt>
      <trkpt lat="45.20611" lon="6.20264">
        <ele>2048.5</ele>
        <time>2019-04-05T15:02:05Z</time>
      </trkpt>
      <trkpt lat="45.20626" lon="6.20273">
        <ele>2043.5</ele>
        <time>2019-04-05T15:02:07Z</time>
      </trkpt>
      <trkpt lat="45.20639" lon="6.2028">
        <ele>2038.5</ele>
        <time>2019-04-05T15:02:09Z</time>
      </trkpt>
      <trkpt lat="45.20652" lon="6.20289">
        <ele>2036.5</ele>
        <time>2019-04-05T15:02:11Z</time>
      </trkpt>
      <trkpt lat="45.20663" lon="6.20299">
        <ele>2034.5</ele>
        <time>2019-04-05T15:02:13Z</time>
      </trkpt>
      <trkpt lat="45.20679" lon="6.20307">
        <ele>2033.5</ele>
        <time>2019-04-05T15:02:15Z</time>
      </trkpt>
      <trkpt lat="45.20691" lon="6.20315">
        <ele>2030.5</ele>
        <time>2019-04-05T15:02:17Z</time>
      </trkpt>
      <trkpt lat="45.20701" lon="6.20324">
        <ele>2027.5</ele>
        <time>2019-04-05T15:02:19Z</time>
      </trkpt>
      <trkpt lat="45.20714" lon="6.20333">
        <ele>2026.5</ele>
        <time>2019-04-05T15:02:21Z</time>
      </trkpt>
      <trkpt lat="45.20727" lon="6.20342">
        <ele>2026.5</ele>
        <time>2019-04-05T15:02:23Z</time>
      </trkpt>
      <trkpt lat="45.20739" lon="6.20352">
        <ele>2024.5</ele>
        <time>2019-04-05T15:02:25Z</time>
      </trkpt>
      <trkpt lat="45.20752" lon="6.2036">
        <ele>2024.5</ele>
        <time>2019-04-05T15:02:27Z</time>
      </trkpt>
      <trkpt lat="45.20764" lon="6.20372">
        <ele>2022.5</ele>
        <time>2019-04-05T15:02:29Z</time>
      </trkpt>
      <trkpt lat="45.20775" lon="6.20383">
        <ele>2019.5</ele>
        <time>2019-04-05T15:02:31Z</time>
      </trkpt>
      <trkpt lat="45.20789" lon="6.20393">
        <ele>2017.5</ele>
        <time>2019-04-05T15:02:33Z</time>
      </trkpt>
      <trkpt lat="45.20803" lon="6.20402">
        <ele>2016.5</ele>
        <time>2019-04-05T15:02:35Z</time>
      </trkpt>
      <trkpt lat="45.20817" lon="6.20411">
        <ele>2016.5</ele>
        <time>2019-04-05T15:02:37Z</time>
      </trkpt>
      <trkpt lat="45.20828" lon="6.20422">
        <ele>2019.5</ele>
        <time>2019-04-05T15:02:39Z</time>
      </trkpt>
      <trkpt lat="45.20842" lon="6.20428">
        <ele>2020.5</ele>
        <time>2019-04-05T15:02:41Z</time>
      </trkpt>
      <trkpt lat="45.20856" lon="6.20433">
        <ele>2021.5</ele>
        <time>2019-04-05T15:02:43Z</time>
      </trkpt>
      <trkpt lat="45.20869" lon="6.20439">
        <ele>2021.5</ele>
        <time>2019-04-05T15:02:45Z</time>
      </trkpt>
      <trkpt lat="45.20883" lon="6.20451">
        <ele>2021.5</ele>
        <time>2019-04-05T15:02:47Z</time>
      </trkpt>
      <trkpt lat="45.20898" lon="6.20461">
        <ele>2019.5</ele>
        <time>2019-04-05T15:02:49Z</time>
      </trkpt>
      <trkpt lat="45.2091" lon="6.20475">
        <ele>2016.5</ele>
        <time>2019-04-05T15:02:51Z</time>
      </trkpt>
      <trkpt lat="45.20925" lon="6.20481">
        <ele>2015.5</ele>
        <time>2019-04-05T15:02:53Z</time>
      </trkpt>
      <trkpt lat="45.20936" lon="6.20489">
        <ele>2012.5</ele>
        <time>2019-04-05T15:02:55Z</time>
      </trkpt>
      <trkpt lat="45.20947" lon="6.20496">
        <ele>2011.5</ele>
        <time>2019-04-05T15:02:57Z</time>
      </trkpt>
      <trkpt lat="45.20957" lon="6.20503">
        <ele>2010.5</ele>
        <time>2019-04-05T15:02:59Z</time>
      </trkpt>
      <trkpt lat="45.20965" lon="6.2051">
        <ele>2007.5</ele>
        <time>2019-04-05T15:03:18Z</time>
      </trkpt>
      <trkpt lat="45.20975" lon="6.20514">
        <ele>2002.5</ele>
        <time>2019-04-05T15:03:21Z</time>
      </trkpt>
      <trkpt lat="45.20982" lon="6.20523">
        <ele>1998.5</ele>
        <time>2019-04-05T15:03:23Z</time>
      </trkpt>
      <trkpt lat="45.20993" lon="6.20531">
        <ele>1995.5</ele>
        <time>2019-04-05T15:03:25Z</time>
      </trkpt>
      <trkpt lat="45.21005" lon="6.20538">
        <ele>1990.5</ele>
        <time>2019-04-05T15:03:27Z</time>
      </trkpt>
      <trkpt lat="45.21013" lon="6.20552">
        <ele>1986.5</ele>
        <time>2019-04-05T15:03:29Z</time>
      </trkpt>
      <trkpt lat="45.21025" lon="6.20559">
        <ele>1982.5</ele>
        <time>2019-04-05T15:03:31Z</time>
      </trkpt>
      <trkpt lat="45.21036" lon="6.20572">
        <ele>1980.5</ele>
        <time>2019-04-05T15:03:33Z</time>
      </trkpt>
      <trkpt lat="45.21047" lon="6.20589">
        <ele>1977.5</ele>
        <time>2019-04-05T15:03:35Z</time>
      </trkpt>
      <trkpt lat="45.21061" lon="6.20595">
        <ele>1973.5</ele>
        <time>2019-04-05T15:03:37Z</time>
      </trkpt>
      <trkpt lat="45.21076" lon="6.20606">
        <ele>1970.5</ele>
        <time>2019-04-05T15:03:39Z</time>
      </trkpt>
      <trkpt lat="45.21088" lon="6.20623">
        <ele>1967.5</ele>
        <time>2019-04-05T15:03:41Z</time>
      </trkpt>
      <trkpt lat="45.21095" lon="6.20632">
        <ele>1965.5</ele>
        <time>2019-04-05T15:03:42Z</time>
      </trkpt>
      <trkpt lat="45.21103" lon="6.20638">
        <ele>1964.5</ele>
        <time>2019-04-05T15:03:43Z</time>
      </trkpt>
      <trkpt lat="45.21111" lon="6.20643">
        <ele>1963.5</ele>
        <time>2019-04-05T15:03:44Z</time>
      </trkpt>
      <trkpt lat="45.21123" lon="6.2066">
        <ele>1962.5</ele>
        <time>2019-04-05T15:03:46Z</time>
      </trkpt>
      <trkpt lat="45.21134" lon="6.20677">
        <ele>1959.5</ele>
        <time>2019-04-05T15:03:48Z</time>
      </trkpt>
      <trkpt lat="45.21144" lon="6.20682">
        <ele>1959.5</ele>
        <time>2019-04-05T15:03:50Z</time>
      </trkpt>
      <trkpt lat="45.21154" lon="6.20697">
        <ele>1955.5</ele>
        <time>2019-04-05T15:03:53Z</time>
      </trkpt>
      <trkpt lat="45.21163" lon="6.20704">
        <ele>1952.5</ele>
        <time>2019-04-05T15:03:55Z</time>
      </trkpt>
      <trkpt lat="45.21169" lon="6.20718">
        <ele>1947.5</ele>
        <time>2019-04-05T15:03:57Z</time>
      </trkpt>
      <trkpt lat="45.21179" lon="6.20722">
        <ele>1943.5</ele>
        <time>2019-04-05T15:03:59Z</time>
      </trkpt>
      <trkpt lat="45.21185" lon="6.20736">
        <ele>1939.5</ele>
        <time>2019-04-05T15:04:01Z</time>
      </trkpt>
      <trkpt lat="45.21195" lon="6.20741">
        <ele>1936.5</ele>
        <time>2019-04-05T15:04:03Z</time>
      </trkpt>
      <trkpt lat="45.21204" lon="6.20751">
        <ele>1932.5</ele>
        <time>2019-04-05T15:04:05Z</time>
      </trkpt>
      <trkpt lat="45.21214" lon="6.20755">
        <ele>1929.5</ele>
        <time>2019-04-05T15:04:07Z</time>
      </trkpt>
      <trkpt lat="45.21219" lon="6.20766">
        <ele>1925.5</ele>
        <time>2019-04-05T15:04:09Z</time>
      </trkpt>
      <trkpt lat="45.21232" lon="6.20772">
        <ele>1921.5</ele>
        <time>2019-04-05T15:04:12Z</time>
      </trkpt>
      <trkpt lat="45.21243" lon="6.20778">
        <ele>1918.5</ele>
        <time>2019-04-05T15:04:15Z</time>
      </trkpt>
      <trkpt lat="45.21253" lon="6.20793">
        <ele>1913.5</ele>
        <time>2019-04-05T15:04:18Z</time>
      </trkpt>
      <trkpt lat="45.21261" lon="6.20798">
        <ele>1908.5</ele>
        <time>2019-04-05T15:04:20Z</time>
      </trkpt>
      <trkpt lat="45.21267" lon="6.20808">
        <ele>1905.5</ele>
        <time>2019-04-05T15:04:22Z</time>
      </trkpt>
      <trkpt lat="45.21279" lon="6.20818">
        <ele>1899.5</ele>
        <time>2019-04-05T15:04:25Z</time>
      </trkpt>
      <trkpt lat="45.21284" lon="6.20829">
        <ele>1897.5</ele>
        <time>2019-04-05T15:04:27Z</time>
      </trkpt>
      <trkpt lat="45.21294" lon="6.20833">
        <ele>1893.5</ele>
        <time>2019-04-05T15:04:29Z</time>
      </trkpt>
      <trkpt lat="45.21302" lon="6.2085">
        <ele>1886.5</ele>
        <time>2019-04-05T15:04:32Z</time>
      </trkpt>
      <trkpt lat="45.21311" lon="6.20854">
        <ele>1883.5</ele>
        <time>2019-04-05T15:04:34Z</time>
      </trkpt>
      <trkpt lat="45.21315" lon="6.20867">
        <ele>1880.5</ele>
        <time>2019-04-05T15:04:36Z</time>
      </trkpt>
      <trkpt lat="45.21322" lon="6.20877">
        <ele>1875.5</ele>
        <time>2019-04-05T15:04:38Z</time>
      </trkpt>
      <trkpt lat="45.21331" lon="6.20882">
        <ele>1873.5</ele>
        <time>2019-04-05T15:04:40Z</time>
      </trkpt>
      <trkpt lat="45.21335" lon="6.209">
        <ele>1867.5</ele>
        <time>2019-04-05T15:04:42Z</time>
      </trkpt>
      <trkpt lat="45.21344" lon="6.20908">
        <ele>1861.5</ele>
        <time>2019-04-05T15:04:44Z</time>
      </trkpt>
      <trkpt lat="45.2135" lon="6.20924">
        <ele>1856.5</ele>
        <time>2019-04-05T15:04:46Z</time>
      </trkpt>
      <trkpt lat="45.21362" lon="6.2093">
        <ele>1853.5</ele>
        <time>2019-04-05T15:04:48Z</time>
      </trkpt>
      <trkpt lat="45.21369" lon="6.20946">
        <ele>1849.5</ele>
        <time>2019-04-05T15:04:50Z</time>
      </trkpt>
      <trkpt lat="45.21382" lon="6.20956">
        <ele>1846.5</ele>
        <time>2019-04-05T15:04:52Z</time>
      </trkpt>
      <trkpt lat="45.21391" lon="6.20973">
        <ele>1843.5</ele>
        <time>2019-04-05T15:04:54Z</time>
      </trkpt>
      <trkpt lat="45.21402" lon="6.20985">
        <ele>1841.5</ele>
        <time>2019-04-05T15:04:56Z</time>
      </trkpt>
      <trkpt lat="45.21415" lon="6.20999">
        <ele>1838.5</ele>
        <time>2019-04-05T15:04:58Z</time>
      </trkpt>
      <trkpt lat="45.21427" lon="6.21015">
        <ele>1835.5</ele>
        <time>2019-04-05T15:05:00Z</time>
      </trkpt>
      <trkpt lat="45.21439" lon="6.21029">
        <ele>1832.5</ele>
        <time>2019-04-05T15:05:02Z</time>
      </trkpt>
      <trkpt lat="45.21451" lon="6.21039">
        <ele>1828.5</ele>
        <time>2019-04-05T15:05:04Z</time>
      </trkpt>
      <trkpt lat="45.21462" lon="6.2105">
        <ele>1822.5</ele>
        <time>2019-04-05T15:05:06Z</time>
      </trkpt>
      <trkpt lat="45.21472" lon="6.21065">
        <ele>1819.5</ele>
        <time>2019-04-05T15:05:08Z</time>
      </trkpt>
      <trkpt lat="45.21483" lon="6.21071">
        <ele>1815.5</ele>
        <time>2019-04-05T15:05:10Z</time>
      </trkpt>
      <trkpt lat="45.21495" lon="6.21079">
        <ele>1811.5</ele>
        <time>2019-04-05T15:05:12Z</time>
      </trkpt>
      <trkpt lat="45.21505" lon="6.21091">
        <ele>1806.5</ele>
        <time>2019-04-05T15:05:14Z</time>
      </trkpt>
      <trkpt lat="45.21517" lon="6.21095">
        <ele>1801.5</ele>
        <time>2019-04-05T15:05:16Z</time>
      </trkpt>
      <trkpt lat="45.21523" lon="6.2111">
        <ele>1797.5</ele>
        <time>2019-04-05T15:05:18Z</time>
      </trkpt>
      <trkpt lat="45.2153" lon="6.21125">
        <ele>1794.5</ele>
        <time>2019-04-05T15:05:20Z</time>
      </trkpt>
      <trkpt lat="45.21538" lon="6.21138">
        <ele>1789.5</ele>
        <time>2019-04-05T15:05:22Z</time>
      </trkpt>
      <trkpt lat="45.21547" lon="6.2115">
        <ele>1785.5</ele>
        <time>2019-04-05T15:05:24Z</time>
      </trkpt>
      <trkpt lat="45.21556" lon="6.21158">
        <ele>1780.5</ele>
        <time>2019-04-05T15:05:26Z</time>
      </trkpt>
      <trkpt lat="45.21566" lon="6.21172">
        <ele>1776.5</ele>
        <time>2019-04-05T15:05:28Z</time>
      </trkpt>
      <trkpt lat="45.21576" lon="6.21178">
        <ele>1772.5</ele>
        <time>2019-04-05T15:05:30Z</time>
      </trkpt>
      <trkpt lat="45.21587" lon="6.21187">
        <ele>1766.5</ele>
        <time>2019-04-05T15:05:32Z</time>
      </trkpt>
      <trkpt lat="45.21596" lon="6.21201">
        <ele>1762.5</ele>
        <time>2019-04-05T15:05:34Z</time>
      </trkpt>
      <trkpt lat="45.21606" lon="6.21214">
        <ele>1761.5</ele>
        <time>2019-04-05T15:05:36Z</time>
      </trkpt>
      <trkpt lat="45.21617" lon="6.21224">
        <ele>1758.5</ele>
        <time>2019-04-05T15:05:38Z</time>
      </trkpt>
      <trkpt lat="45.21628" lon="6.21241">
        <ele>1755.5</ele>
        <time>2019-04-05T15:05:40Z</time>
      </trkpt>
      <trkpt lat="45.21634" lon="6.21251">
        <ele>1753.5</ele>
        <time>2019-04-05T15:05:41Z</time>
      </trkpt>
      <trkpt lat="45.21643" lon="6.21258">
        <ele>1753.5</ele>
        <time>2019-04-05T15:05:42Z</time>
      </trkpt>
      <trkpt lat="45.21657" lon="6.21271">
        <ele>1751.5</ele>
        <time>2019-04-05T15:05:44Z</time>
      </trkpt>
      <trkpt lat="45.21663" lon="6.21281">
        <ele>1751.5</ele>
        <time>2019-04-05T15:05:45Z</time>
      </trkpt>
      <trkpt lat="45.2167" lon="6.21295">
        <ele>1745.5</ele>
        <time>2019-04-05T15:05:47Z</time>
      </trkpt>
      <trkpt lat="45.21679" lon="6.21316">
        <ele>1741.5</ele>
        <time>2019-04-05T15:05:49Z</time>
      </trkpt>
      <trkpt lat="45.21689" lon="6.21326">
        <ele>1737.5</ele>
        <time>2019-04-05T15:05:51Z</time>
      </trkpt>
      <trkpt lat="45.21696" lon="6.21336">
        <ele>1734.5</ele>
        <time>2019-04-05T15:05:52Z</time>
      </trkpt>
      <trkpt lat="45.21702" lon="6.21346">
        <ele>1732.5</ele>
        <time>2019-04-05T15:05:53Z</time>
      </trkpt>
      <trkpt lat="45.21716" lon="6.21355">
        <ele>1727.5</ele>
        <time>2019-04-05T15:05:55Z</time>
      </trkpt>
      <trkpt lat="45.21729" lon="6.21373">
        <ele>1727.5</ele>
        <time>2019-04-05T15:05:57Z</time>
      </trkpt>
      <trkpt lat="45.21738" lon="6.21378">
        <ele>1728.5</ele>
        <time>2019-04-05T15:05:58Z</time>
      </trkpt>
      <trkpt lat="45.21754" lon="6.21385">
        <ele>1728.5</ele>
        <time>2019-04-05T15:06:00Z</time>
      </trkpt>
      <trkpt lat="45.2177" lon="6.21405">
        <ele>1726.5</ele>
        <time>2019-04-05T15:06:02Z</time>
      </trkpt>
      <trkpt lat="45.21779" lon="6.21413">
        <ele>1725.5</ele>
        <time>2019-04-05T15:06:03Z</time>
      </trkpt>
      <trkpt lat="45.21795" lon="6.21415">
        <ele>1721.5</ele>
        <time>2019-04-05T15:06:05Z</time>
      </trkpt>
      <trkpt lat="45.21803" lon="6.21423">
        <ele>1719.5</ele>
        <time>2019-04-05T15:06:06Z</time>
      </trkpt>
      <trkpt lat="45.2181" lon="6.21442">
        <ele>1717.5</ele>
        <time>2019-04-05T15:06:08Z</time>
      </trkpt>
      <trkpt lat="45.21825" lon="6.21451">
        <ele>1715.5</ele>
        <time>2019-04-05T15:06:10Z</time>
      </trkpt>
      <trkpt lat="45.21834" lon="6.21467">
        <ele>1710.5</ele>
        <time>2019-04-05T15:06:12Z</time>
      </trkpt>
      <trkpt lat="45.21847" lon="6.21478">
        <ele>1706.5</ele>
        <time>2019-04-05T15:06:14Z</time>
      </trkpt>
      <trkpt lat="45.21862" lon="6.21495">
        <ele>1706.5</ele>
        <time>2019-04-05T15:06:16Z</time>
      </trkpt>
      <trkpt lat="45.21871" lon="6.21506">
        <ele>1702.5</ele>
        <time>2019-04-05T15:06:18Z</time>
      </trkpt>
      <trkpt lat="45.21881" lon="6.21522">
        <ele>1699.5</ele>
        <time>2019-04-05T15:06:20Z</time>
      </trkpt>
      <trkpt lat="45.21889" lon="6.21538">
        <ele>1700.5</ele>
        <time>2019-04-05T15:06:22Z</time>
      </trkpt>
      <trkpt lat="45.21894" lon="6.2155">
        <ele>1698.5</ele>
        <time>2019-04-05T15:06:25Z</time>
      </trkpt>
      <trkpt lat="45.21887" lon="6.21558">
        <ele>1695.5</ele>
        <time>2019-04-05T15:06:44Z</time>
      </trkpt>
      <trkpt lat="45.21894" lon="6.21574">
        <ele>1690.5</ele>
        <time>2019-04-05T15:06:47Z</time>
      </trkpt>
      <trkpt lat="45.21892" lon="6.21588">
        <ele>1686.5</ele>
        <time>2019-04-05T15:06:49Z</time>
      </trkpt>
      <trkpt lat="45.21896" lon="6.21603">
        <ele>1682.5</ele>
        <time>2019-04-05T15:06:51Z</time>
      </trkpt>
      <trkpt lat="45.21896" lon="6.21622">
        <ele>1678.5</ele>
        <time>2019-04-05T15:06:53Z</time>
      </trkpt>
      <trkpt lat="45.21894" lon="6.21643">
        <ele>1676.5</ele>
        <time>2019-04-05T15:06:55Z</time>
      </trkpt>
      <trkpt lat="45.2189" lon="6.21663">
        <ele>1672.5</ele>
        <time>2019-04-05T15:06:57Z</time>
      </trkpt>
      <trkpt lat="45.21889" lon="6.21682">
        <ele>1670.5</ele>
        <time>2019-04-05T15:06:59Z</time>
      </trkpt>
      <trkpt lat="45.21893" lon="6.21705">
        <ele>1668.5</ele>
        <time>2019-04-05T15:07:01Z</time>
      </trkpt>
      <trkpt lat="45.21892" lon="6.21718">
        <ele>1667.5</ele>
        <time>2019-04-05T15:07:02Z</time>
      </trkpt>
      <trkpt lat="45.21894" lon="6.21733">
        <ele>1666.5</ele>
        <time>2019-04-05T15:07:03Z</time>
      </trkpt>
      <trkpt lat="45.21898" lon="6.21756">
        <ele>1663.5</ele>
        <time>2019-04-05T15:07:05Z</time>
      </trkpt>
      <trkpt lat="45.21898" lon="6.21769">
        <ele>1663.5</ele>
        <time>2019-04-05T15:07:06Z</time>
      </trkpt>
      <trkpt lat="45.219" lon="6.21782">
        <ele>1662.5</ele>
        <time>2019-04-05T15:07:07Z</time>
      </trkpt>
      <trkpt lat="45.21904" lon="6.21795">
        <ele>1661.5</ele>
        <time>2019-04-05T15:07:08Z</time>
      </trkpt>
      <trkpt lat="45.21906" lon="6.21808">
        <ele>1661.5</ele>
        <time>2019-04-05T15:07:09Z</time>
      </trkpt>
      <trkpt lat="45.21909" lon="6.21821">
        <ele>1660.5</ele>
        <time>2019-04-05T15:07:10Z</time>
      </trkpt>
      <trkpt lat="45.21911" lon="6.21834">
        <ele>1659.5</ele>
        <time>2019-04-05T15:07:11Z</time>
      </trkpt>
      <trkpt lat="45.21912" lon="6.21853">
        <ele>1654.5</ele>
        <time>2019-04-05T15:07:13Z</time>
      </trkpt>
      <trkpt lat="45.21913" lon="6.21877">
        <ele>1651.5</ele>
        <time>2019-04-05T15:07:15Z</time>
      </trkpt>
      <trkpt lat="45.21914" lon="6.2189">
        <ele>1650.5</ele>
        <time>2019-04-05T15:07:16Z</time>
      </trkpt>
      <trkpt lat="45.21915" lon="6.21903">
        <ele>1649.5</ele>
        <time>2019-04-05T15:07:17Z</time>
      </trkpt>
      <trkpt lat="45.21914" lon="6.21922">
        <ele>1643.5</ele>
        <time>2019-04-05T15:07:19Z</time>
      </trkpt>
      <trkpt lat="45.21914" lon="6.21935">
        <ele>1642.5</ele>
        <time>2019-04-05T15:07:20Z</time>
      </trkpt>
      <trkpt lat="45.21911" lon="6.21956">
        <ele>1637.5</ele>
        <time>2019-04-05T15:07:22Z</time>
      </trkpt>
      <trkpt lat="45.21913" lon="6.21969">
        <ele>1636.5</ele>
        <time>2019-04-05T15:07:23Z</time>
      </trkpt>
      <trkpt lat="45.21917" lon="6.21991">
        <ele>1635.5</ele>
        <time>2019-04-05T15:07:25Z</time>
      </trkpt>
      <trkpt lat="45.21919" lon="6.22003">
        <ele>1633.5</ele>
        <time>2019-04-05T15:07:26Z</time>
      </trkpt>
      <trkpt lat="45.21926" lon="6.22024">
        <ele>1632.5</ele>
        <time>2019-04-05T15:07:28Z</time>
      </trkpt>
      <trkpt lat="45.21929" lon="6.22045">
        <ele>1631.5</ele>
        <time>2019-04-05T15:07:30Z</time>
      </trkpt>
      <trkpt lat="45.21933" lon="6.22067">
        <ele>1630.5</ele>
        <time>2019-04-05T15:07:32Z</time>
      </trkpt>
      <trkpt lat="45.21935" lon="6.22086">
        <ele>1629.5</ele>
        <time>2019-04-05T15:07:34Z</time>
      </trkpt>
      <trkpt lat="45.21937" lon="6.22099">
        <ele>1628.5</ele>
        <time>2019-04-05T15:07:35Z</time>
      </trkpt>
      <trkpt lat="45.2194" lon="6.2212">
        <ele>1627.5</ele>
        <time>2019-04-05T15:07:37Z</time>
      </trkpt>
      <trkpt lat="45.21938" lon="6.2214">
        <ele>1624.5</ele>
        <time>2019-04-05T15:07:39Z</time>
      </trkpt>
      <trkpt lat="45.21931" lon="6.22155">
        <ele>1617.5</ele>
        <time>2019-04-05T15:07:41Z</time>
      </trkpt>
      <trkpt lat="45.21933" lon="6.22169">
        <ele>1619.5</ele>
        <time>2019-04-05T15:07:42Z</time>
      </trkpt>
      <trkpt lat="45.21937" lon="6.2219">
        <ele>1618.5</ele>
        <time>2019-04-05T15:07:44Z</time>
      </trkpt>
      <trkpt lat="45.21933" lon="6.22206">
        <ele>1613.5</ele>
        <time>2019-04-05T15:07:46Z</time>
      </trkpt>
      <trkpt lat="45.21935" lon="6.22226">
        <ele>1610.5</ele>
        <time>2019-04-05T15:07:48Z</time>
      </trkpt>
      <trkpt lat="45.21937" lon="6.22247">
        <ele>1605.5</ele>
        <time>2019-04-05T15:07:50Z</time>
      </trkpt>
      <trkpt lat="45.21936" lon="6.22266">
        <ele>1601.5</ele>
        <time>2019-04-05T15:07:52Z</time>
      </trkpt>
      <trkpt lat="45.2194" lon="6.22279">
        <ele>1599.5</ele>
        <time>2019-04-05T15:07:53Z</time>
      </trkpt>
      <trkpt lat="45.21944" lon="6.22291">
        <ele>1598.5</ele>
        <time>2019-04-05T15:07:54Z</time>
      </trkpt>
      <trkpt lat="45.21947" lon="6.22303">
        <ele>1598.5</ele>
        <time>2019-04-05T15:07:55Z</time>
      </trkpt>
      <trkpt lat="45.21952" lon="6.22316">
        <ele>1599.5</ele>
        <time>2019-04-05T15:07:56Z</time>
      </trkpt>
      <trkpt lat="45.21959" lon="6.22327">
        <ele>1597.5</ele>
        <time>2019-04-05T15:07:58Z</time>
      </trkpt>
      <trkpt lat="45.2196" lon="6.22345">
        <ele>1592.5</ele>
        <time>2019-04-05T15:08:01Z</time>
      </trkpt>
      <trkpt lat="45.21962" lon="6.22359">
        <ele>1592.5</ele>
        <time>2019-04-05T15:08:03Z</time>
      </trkpt>
      <trkpt lat="45.21955" lon="6.22371">
        <ele>1589.5</ele>
        <time>2019-04-05T15:08:05Z</time>
      </trkpt>
      <trkpt lat="45.21947" lon="6.22391">
        <ele>1589.5</ele>
        <time>2019-04-05T15:08:07Z</time>
      </trkpt>
      <trkpt lat="45.21942" lon="6.22408">
        <ele>1589.5</ele>
        <time>2019-04-05T15:08:09Z</time>
      </trkpt>
      <trkpt lat="45.21939" lon="6.22423">
        <ele>1586.5</ele>
        <time>2019-04-05T15:08:12Z</time>
      </trkpt>
      <trkpt lat="45.21939" lon="6.22436">
        <ele>1583.5</ele>
        <time>2019-04-05T15:08:16Z</time>
      </trkpt>
      <trkpt lat="45.21939" lon="6.22451">
        <ele>1581.5</ele>
        <time>2019-04-05T15:08:19Z</time>
      </trkpt>
      <trkpt lat="45.21941" lon="6.22467">
        <ele>1579.5</ele>
        <time>2019-04-05T15:08:21Z</time>
      </trkpt>
      <trkpt lat="45.21942" lon="6.2249">
        <ele>1577.5</ele>
        <time>2019-04-05T15:08:23Z</time>
      </trkpt>
      <trkpt lat="45.2194" lon="6.22513">
        <ele>1573.5</ele>
        <time>2019-04-05T15:08:25Z</time>
      </trkpt>
      <trkpt lat="45.21945" lon="6.22534">
        <ele>1571.5</ele>
        <time>2019-04-05T15:08:27Z</time>
      </trkpt>
      <trkpt lat="45.21946" lon="6.22547">
        <ele>1569.5</ele>
        <time>2019-04-05T15:08:28Z</time>
      </trkpt>
      <trkpt lat="45.21942" lon="6.22568">
        <ele>1566.5</ele>
        <time>2019-04-05T15:08:30Z</time>
      </trkpt>
      <trkpt lat="45.21937" lon="6.22585">
        <ele>1565.5</ele>
        <time>2019-04-05T15:08:32Z</time>
      </trkpt>
      <trkpt lat="45.21924" lon="6.22598">
        <ele>1567.5</ele>
        <time>2019-04-05T15:08:34Z</time>
      </trkpt>
      <trkpt lat="45.21917" lon="6.22617">
        <ele>1566.5</ele>
        <time>2019-04-05T15:08:36Z</time>
      </trkpt>
      <trkpt lat="45.21906" lon="6.22636">
        <ele>1563.5</ele>
        <time>2019-04-05T15:08:38Z</time>
      </trkpt>
      <trkpt lat="45.21895" lon="6.2265">
        <ele>1560.5</ele>
        <time>2019-04-05T15:08:40Z</time>
      </trkpt>
      <trkpt lat="45.21885" lon="6.22653">
        <ele>1558.5</ele>
        <time>2019-04-05T15:08:41Z</time>
      </trkpt>
      <trkpt lat="45.21873" lon="6.22667">
        <ele>1557.5</ele>
        <time>2019-04-05T15:08:43Z</time>
      </trkpt>
      <trkpt lat="45.21862" lon="6.22685">
        <ele>1555.5</ele>
        <time>2019-04-05T15:08:45Z</time>
      </trkpt>
      <trkpt lat="45.21856" lon="6.22701">
        <ele>1553.5</ele>
        <time>2019-04-05T15:08:47Z</time>
      </trkpt>
      <trkpt lat="45.21855" lon="6.22714">
        <ele>1551.5</ele>
        <time>2019-04-05T15:08:49Z</time>
      </trkpt>
      <trkpt lat="45.2185" lon="6.22729">
        <ele>1549.5</ele>
        <time>2019-04-05T15:08:51Z</time>
      </trkpt>
      <trkpt lat="45.21844" lon="6.22746">
        <ele>1549.5</ele>
        <time>2019-04-05T15:08:53Z</time>
      </trkpt>
      <trkpt lat="45.21838" lon="6.22766">
        <ele>1547.5</ele>
        <time>2019-04-05T15:08:55Z</time>
      </trkpt>
      <trkpt lat="45.2183" lon="6.22787">
        <ele>1545.5</ele>
        <time>2019-04-05T15:08:57Z</time>
      </trkpt>
      <trkpt lat="45.21826" lon="6.22804">
        <ele>1540.5</ele>
        <time>2019-04-05T15:08:59Z</time>
      </trkpt>
      <trkpt lat="45.21822" lon="6.22826">
        <ele>1540.5</ele>
        <time>2019-04-05T15:09:01Z</time>
      </trkpt>
      <trkpt lat="45.21826" lon="6.2284">
        <ele>1538.5</ele>
        <time>2019-04-05T15:09:02Z</time>
      </trkpt>
      <trkpt lat="45.21826" lon="6.22864">
        <ele>1536.5</ele>
        <time>2019-04-05T15:09:04Z</time>
      </trkpt>
      <trkpt lat="45.21828" lon="6.22889">
        <ele>1534.5</ele>
        <time>2019-04-05T15:09:06Z</time>
      </trkpt>
      <trkpt lat="45.21826" lon="6.22902">
        <ele>1533.5</ele>
        <time>2019-04-05T15:09:07Z</time>
      </trkpt>
      <trkpt lat="45.21826" lon="6.22917">
        <ele>1532.5</ele>
        <time>2019-04-05T15:09:08Z</time>
      </trkpt>
      <trkpt lat="45.21826" lon="6.22931">
        <ele>1532.5</ele>
        <time>2019-04-05T15:09:09Z</time>
      </trkpt>
      <trkpt lat="45.21817" lon="6.22938">
        <ele>1523.5</ele>
        <time>2019-04-05T15:09:11Z</time>
      </trkpt>
      <trkpt lat="45.21821" lon="6.22962">
        <ele>1519.5</ele>
        <time>2019-04-05T15:09:13Z</time>
      </trkpt>
      <trkpt lat="45.21821" lon="6.22979">
        <ele>1518.5</ele>
        <time>2019-04-05T15:09:15Z</time>
      </trkpt>
      <trkpt lat="45.2181" lon="6.22988">
        <ele>1516.5</ele>
        <time>2019-04-05T15:09:17Z</time>
      </trkpt>
      <trkpt lat="45.21797" lon="6.2299">
        <ele>1511.5</ele>
        <time>2019-04-05T15:09:19Z</time>
      </trkpt>
      <trkpt lat="45.21788" lon="6.22996">
        <ele>1509.5</ele>
        <time>2019-04-05T15:09:21Z</time>
      </trkpt>
      <trkpt lat="45.21785" lon="6.23009">
        <ele>1501.5</ele>
        <time>2019-04-05T15:09:26Z</time>
      </trkpt>
      <trkpt lat="45.21792" lon="6.23018">
        <ele>1500.5</ele>
        <time>2019-04-05T15:09:29Z</time>
      </trkpt>
      <trkpt lat="45.21797" lon="6.23031">
        <ele>1499.5</ele>
        <time>2019-04-05T15:10:10Z</time>
      </trkpt>
      <trkpt lat="45.21801" lon="6.23043">
        <ele>1500.5</ele>
        <time>2019-04-05T15:10:17Z</time>
      </trkpt>
      <trkpt lat="45.21797" lon="6.23044">
        <ele>1504.5</ele>
        <time>2019-04-05T15:21:54Z</time>
      </trkpt>
    </trkseg>
  </trk>
</gpx>